<?xml version="1.0" encoding="UTF-8" standalone="no" ?>
<gpx xmlns="http://www.topografix.com/GPX/1/1" xmlns:xsi="http://www.w3.org/2001/XMLSchema-instance" xsi:schemaLocation="http://www.topografix.com/GPX/1/1 http://www.topografix.com/GPX/1/1/gpx.xsd" version="1.1" creator="VisuGPX - https://www.visugpx.com">
  <metadata>
    <name>RochefortEnTerre_PinsArdoisieres_23km</name>
    <desc><![CDATA[gnerando idor:9686118]]></desc>
  </metadata>
  <trk>
    <name><![CDATA[RochefortEnTerre_PinsArdoisieres_22.9km-9686118]]></name>
    <extensions>
      <line xmlns="http://www.topografix.com/GPX/gpx_style/0/2">
        <color>0000FF</color>
        <width>4</width>
      </line>
    </extensions>
    <trkseg>
      <trkpt lat="47.69405" lon="-2.34786">
        <ele>46</ele>
        <time>2023-11-11T06:16:01Z</time>
      </trkpt>
      <trkpt lat="47.6939" lon="-2.34784">
        <ele>47</ele>
        <time>2023-11-11T06:16:21Z</time>
      </trkpt>
      <trkpt lat="47.69377" lon="-2.34773">
        <ele>48</ele>
        <time>2023-11-11T06:16:41Z</time>
      </trkpt>
      <trkpt lat="47.69383" lon="-2.34791">
        <ele>48</ele>
        <time>2023-11-11T06:16:59Z</time>
      </trkpt>
      <trkpt lat="47.69382" lon="-2.34799">
        <ele>48</ele>
        <time>2023-11-11T06:17:06Z</time>
      </trkpt>
      <trkpt lat="47.69364" lon="-2.34846">
        <ele>48</ele>
        <time>2023-11-11T06:17:55Z</time>
      </trkpt>
      <trkpt lat="47.6935" lon="-2.34853">
        <ele>48</ele>
        <time>2023-11-11T06:18:15Z</time>
      </trkpt>
      <trkpt lat="47.69345" lon="-2.34864">
        <ele>49</ele>
        <time>2023-11-11T06:18:27Z</time>
      </trkpt>
      <trkpt lat="47.69338" lon="-2.34864">
        <ele>48</ele>
        <time>2023-11-11T06:18:36Z</time>
      </trkpt>
      <trkpt lat="47.69323" lon="-2.34874">
        <ele>49</ele>
        <time>2023-11-11T06:18:58Z</time>
      </trkpt>
      <trkpt lat="47.69299" lon="-2.34882">
        <ele>49</ele>
        <time>2023-11-11T06:19:31Z</time>
      </trkpt>
      <trkpt lat="47.69297" lon="-2.34894">
        <ele>50</ele>
        <time>2023-11-11T06:19:42Z</time>
      </trkpt>
      <trkpt lat="47.69282" lon="-2.34903">
        <ele>50</ele>
        <time>2023-11-11T06:20:03Z</time>
      </trkpt>
      <trkpt lat="47.69279" lon="-2.34916">
        <ele>51</ele>
        <time>2023-11-11T06:20:16Z</time>
      </trkpt>
      <trkpt lat="47.69273" lon="-2.34918">
        <ele>52</ele>
        <time>2023-11-11T06:20:24Z</time>
      </trkpt>
      <trkpt lat="47.69256" lon="-2.34901">
        <ele>51</ele>
        <time>2023-11-11T06:20:51Z</time>
      </trkpt>
      <trkpt lat="47.69241" lon="-2.349">
        <ele>50</ele>
        <time>2023-11-11T06:21:11Z</time>
      </trkpt>
      <trkpt lat="47.69234" lon="-2.34905">
        <ele>50</ele>
        <time>2023-11-11T06:21:22Z</time>
      </trkpt>
      <trkpt lat="47.69222" lon="-2.34905">
        <ele>49</ele>
        <time>2023-11-11T06:21:38Z</time>
      </trkpt>
      <trkpt lat="47.69222" lon="-2.34897">
        <ele>49</ele>
        <time>2023-11-11T06:21:45Z</time>
      </trkpt>
      <trkpt lat="47.69225" lon="-2.34899">
        <ele>49</ele>
        <time>2023-11-11T06:21:49Z</time>
      </trkpt>
      <trkpt lat="47.69221" lon="-2.34897">
        <ele>49</ele>
        <time>2023-11-11T06:21:55Z</time>
      </trkpt>
      <trkpt lat="47.69219" lon="-2.34899">
        <ele>49</ele>
        <time>2023-11-11T06:21:58Z</time>
      </trkpt>
      <trkpt lat="47.69221" lon="-2.34896">
        <ele>49</ele>
        <time>2023-11-11T06:22:02Z</time>
      </trkpt>
      <trkpt lat="47.69226" lon="-2.34893">
        <ele>49</ele>
        <time>2023-11-11T06:22:09Z</time>
      </trkpt>
      <trkpt lat="47.69222" lon="-2.34904">
        <ele>49</ele>
        <time>2023-11-11T06:22:20Z</time>
      </trkpt>
      <trkpt lat="47.69215" lon="-2.34906">
        <ele>49</ele>
        <time>2023-11-11T06:22:30Z</time>
      </trkpt>
      <trkpt lat="47.69216" lon="-2.34908">
        <ele>49</ele>
        <time>2023-11-11T06:22:32Z</time>
      </trkpt>
      <trkpt lat="47.69218" lon="-2.34906">
        <ele>49</ele>
        <time>2023-11-11T06:22:35Z</time>
      </trkpt>
      <trkpt lat="47.69221" lon="-2.34917">
        <ele>50</ele>
        <time>2023-11-11T06:22:46Z</time>
      </trkpt>
      <trkpt lat="47.6922" lon="-2.34913">
        <ele>49</ele>
        <time>2023-11-11T06:22:50Z</time>
      </trkpt>
      <trkpt lat="47.69205" lon="-2.34961">
        <ele>50</ele>
        <time>2023-11-11T06:23:37Z</time>
      </trkpt>
      <trkpt lat="47.69209" lon="-2.34985">
        <ele>52</ele>
        <time>2023-11-11T06:24:00Z</time>
      </trkpt>
      <trkpt lat="47.69208" lon="-2.34994">
        <ele>52</ele>
        <time>2023-11-11T06:24:08Z</time>
      </trkpt>
      <trkpt lat="47.69213" lon="-2.34997">
        <ele>53</ele>
        <time>2023-11-11T06:24:15Z</time>
      </trkpt>
      <trkpt lat="47.69223" lon="-2.34994">
        <ele>54</ele>
        <time>2023-11-11T06:24:29Z</time>
      </trkpt>
      <trkpt lat="47.69274" lon="-2.35006">
        <ele>61</ele>
        <time>2023-11-11T06:25:37Z</time>
      </trkpt>
      <trkpt lat="47.69281" lon="-2.35">
        <ele>60</ele>
        <time>2023-11-11T06:25:48Z</time>
      </trkpt>
      <trkpt lat="47.69283" lon="-2.35001">
        <ele>61</ele>
        <time>2023-11-11T06:25:51Z</time>
      </trkpt>
      <trkpt lat="47.69306" lon="-2.3504">
        <ele>66</ele>
        <time>2023-11-11T06:26:38Z</time>
      </trkpt>
      <trkpt lat="47.69312" lon="-2.35044">
        <ele>67</ele>
        <time>2023-11-11T06:26:46Z</time>
      </trkpt>
      <trkpt lat="47.69312" lon="-2.35056">
        <ele>69</ele>
        <time>2023-11-11T06:26:57Z</time>
      </trkpt>
      <trkpt lat="47.69317" lon="-2.35074">
        <ele>71</ele>
        <time>2023-11-11T06:27:15Z</time>
      </trkpt>
      <trkpt lat="47.69314" lon="-2.35078">
        <ele>71</ele>
        <time>2023-11-11T06:27:20Z</time>
      </trkpt>
      <trkpt lat="47.69325" lon="-2.3512">
        <ele>74</ele>
        <time>2023-11-11T06:28:01Z</time>
      </trkpt>
      <trkpt lat="47.69333" lon="-2.35141">
        <ele>75</ele>
        <time>2023-11-11T06:28:22Z</time>
      </trkpt>
      <trkpt lat="47.69342" lon="-2.35153">
        <ele>76</ele>
        <time>2023-11-11T06:28:38Z</time>
      </trkpt>
      <trkpt lat="47.69343" lon="-2.3517">
        <ele>76</ele>
        <time>2023-11-11T06:28:54Z</time>
      </trkpt>
      <trkpt lat="47.69341" lon="-2.35178">
        <ele>76</ele>
        <time>2023-11-11T06:29:01Z</time>
      </trkpt>
      <trkpt lat="47.69351" lon="-2.35193">
        <ele>75</ele>
        <time>2023-11-11T06:29:20Z</time>
      </trkpt>
      <trkpt lat="47.69352" lon="-2.352">
        <ele>75</ele>
        <time>2023-11-11T06:29:27Z</time>
      </trkpt>
      <trkpt lat="47.69375" lon="-2.35229">
        <ele>75</ele>
        <time>2023-11-11T06:30:07Z</time>
      </trkpt>
      <trkpt lat="47.69376" lon="-2.35242">
        <ele>75</ele>
        <time>2023-11-11T06:30:19Z</time>
      </trkpt>
      <trkpt lat="47.69389" lon="-2.35257">
        <ele>76</ele>
        <time>2023-11-11T06:30:41Z</time>
      </trkpt>
      <trkpt lat="47.69395" lon="-2.35268">
        <ele>76</ele>
        <time>2023-11-11T06:30:53Z</time>
      </trkpt>
      <trkpt lat="47.69404" lon="-2.35273">
        <ele>76</ele>
        <time>2023-11-11T06:31:06Z</time>
      </trkpt>
      <trkpt lat="47.69407" lon="-2.35281">
        <ele>76</ele>
        <time>2023-11-11T06:31:15Z</time>
      </trkpt>
      <trkpt lat="47.69417" lon="-2.35288">
        <ele>77</ele>
        <time>2023-11-11T06:31:29Z</time>
      </trkpt>
      <trkpt lat="47.69436" lon="-2.35309">
        <ele>76</ele>
        <time>2023-11-11T06:32:01Z</time>
      </trkpt>
      <trkpt lat="47.69463" lon="-2.3533">
        <ele>77</ele>
        <time>2023-11-11T06:32:42Z</time>
      </trkpt>
      <trkpt lat="47.69494" lon="-2.35341">
        <ele>77</ele>
        <time>2023-11-11T06:33:24Z</time>
      </trkpt>
      <trkpt lat="47.69509" lon="-2.3534">
        <ele>77</ele>
        <time>2023-11-11T06:33:44Z</time>
      </trkpt>
      <trkpt lat="47.69529" lon="-2.35335">
        <ele>77</ele>
        <time>2023-11-11T06:34:11Z</time>
      </trkpt>
      <trkpt lat="47.69542" lon="-2.35327">
        <ele>77</ele>
        <time>2023-11-11T06:34:30Z</time>
      </trkpt>
      <trkpt lat="47.69556" lon="-2.35324">
        <ele>77</ele>
        <time>2023-11-11T06:34:49Z</time>
      </trkpt>
      <trkpt lat="47.69589" lon="-2.35322">
        <ele>76</ele>
        <time>2023-11-11T06:35:33Z</time>
      </trkpt>
      <trkpt lat="47.69593" lon="-2.35318">
        <ele>76</ele>
        <time>2023-11-11T06:35:39Z</time>
      </trkpt>
      <trkpt lat="47.69605" lon="-2.35322">
        <ele>76</ele>
        <time>2023-11-11T06:35:56Z</time>
      </trkpt>
      <trkpt lat="47.69621" lon="-2.35321">
        <ele>75</ele>
        <time>2023-11-11T06:36:17Z</time>
      </trkpt>
      <trkpt lat="47.6964" lon="-2.35325">
        <ele>75</ele>
        <time>2023-11-11T06:36:43Z</time>
      </trkpt>
      <trkpt lat="47.69659" lon="-2.35322">
        <ele>74</ele>
        <time>2023-11-11T06:37:08Z</time>
      </trkpt>
      <trkpt lat="47.69667" lon="-2.35324">
        <ele>74</ele>
        <time>2023-11-11T06:37:19Z</time>
      </trkpt>
      <trkpt lat="47.69674" lon="-2.3533">
        <ele>73</ele>
        <time>2023-11-11T06:37:30Z</time>
      </trkpt>
      <trkpt lat="47.69702" lon="-2.35338">
        <ele>71</ele>
        <time>2023-11-11T06:38:08Z</time>
      </trkpt>
      <trkpt lat="47.69751" lon="-2.35339">
        <ele>68</ele>
        <time>2023-11-11T06:39:13Z</time>
      </trkpt>
      <trkpt lat="47.69759" lon="-2.35341">
        <ele>68</ele>
        <time>2023-11-11T06:39:24Z</time>
      </trkpt>
      <trkpt lat="47.69749" lon="-2.35341">
        <ele>68</ele>
        <time>2023-11-11T06:39:37Z</time>
      </trkpt>
      <trkpt lat="47.69782" lon="-2.35345">
        <ele>67</ele>
        <time>2023-11-11T06:40:22Z</time>
      </trkpt>
      <trkpt lat="47.69788" lon="-2.35343">
        <ele>67</ele>
        <time>2023-11-11T06:40:30Z</time>
      </trkpt>
      <trkpt lat="47.69834" lon="-2.35343">
        <ele>66</ele>
        <time>2023-11-11T06:41:31Z</time>
      </trkpt>
      <trkpt lat="47.69878" lon="-2.3536">
        <ele>64</ele>
        <time>2023-11-11T06:42:32Z</time>
      </trkpt>
      <trkpt lat="47.6989" lon="-2.3536">
        <ele>63</ele>
        <time>2023-11-11T06:42:48Z</time>
      </trkpt>
      <trkpt lat="47.69895" lon="-2.35363">
        <ele>63</ele>
        <time>2023-11-11T06:42:55Z</time>
      </trkpt>
      <trkpt lat="47.69908" lon="-2.35364">
        <ele>62</ele>
        <time>2023-11-11T06:43:12Z</time>
      </trkpt>
      <trkpt lat="47.69925" lon="-2.35356">
        <ele>62</ele>
        <time>2023-11-11T06:43:36Z</time>
      </trkpt>
      <trkpt lat="47.69939" lon="-2.35353">
        <ele>61</ele>
        <time>2023-11-11T06:43:55Z</time>
      </trkpt>
      <trkpt lat="47.69972" lon="-2.35354">
        <ele>60</ele>
        <time>2023-11-11T06:44:39Z</time>
      </trkpt>
      <trkpt lat="47.69972" lon="-2.35352">
        <ele>60</ele>
        <time>2023-11-11T06:44:41Z</time>
      </trkpt>
      <trkpt lat="47.69983" lon="-2.35347">
        <ele>59</ele>
        <time>2023-11-11T06:44:56Z</time>
      </trkpt>
      <trkpt lat="47.69988" lon="-2.35351">
        <ele>59</ele>
        <time>2023-11-11T06:45:04Z</time>
      </trkpt>
      <trkpt lat="47.69999" lon="-2.3535">
        <ele>59</ele>
        <time>2023-11-11T06:45:19Z</time>
      </trkpt>
      <trkpt lat="47.70008" lon="-2.35357">
        <ele>58</ele>
        <time>2023-11-11T06:45:32Z</time>
      </trkpt>
      <trkpt lat="47.70016" lon="-2.35357">
        <ele>58</ele>
        <time>2023-11-11T06:45:43Z</time>
      </trkpt>
      <trkpt lat="47.70024" lon="-2.35362">
        <ele>58</ele>
        <time>2023-11-11T06:45:54Z</time>
      </trkpt>
      <trkpt lat="47.70031" lon="-2.35374">
        <ele>57</ele>
        <time>2023-11-11T06:46:09Z</time>
      </trkpt>
      <trkpt lat="47.70042" lon="-2.35384">
        <ele>57</ele>
        <time>2023-11-11T06:46:26Z</time>
      </trkpt>
      <trkpt lat="47.70054" lon="-2.35414">
        <ele>56</ele>
        <time>2023-11-11T06:46:57Z</time>
      </trkpt>
      <trkpt lat="47.70054" lon="-2.35425">
        <ele>56</ele>
        <time>2023-11-11T06:47:07Z</time>
      </trkpt>
      <trkpt lat="47.70066" lon="-2.35437">
        <ele>55</ele>
        <time>2023-11-11T06:47:26Z</time>
      </trkpt>
      <trkpt lat="47.70083" lon="-2.35432">
        <ele>55</ele>
        <time>2023-11-11T06:47:50Z</time>
      </trkpt>
      <trkpt lat="47.70108" lon="-2.35409">
        <ele>56</ele>
        <time>2023-11-11T06:48:29Z</time>
      </trkpt>
      <trkpt lat="47.70117" lon="-2.35405">
        <ele>56</ele>
        <time>2023-11-11T06:48:41Z</time>
      </trkpt>
      <trkpt lat="47.70133" lon="-2.35389">
        <ele>57</ele>
        <time>2023-11-11T06:49:07Z</time>
      </trkpt>
      <trkpt lat="47.70145" lon="-2.35361">
        <ele>57</ele>
        <time>2023-11-11T06:49:37Z</time>
      </trkpt>
      <trkpt lat="47.70178" lon="-2.35338">
        <ele>59</ele>
        <time>2023-11-11T06:50:26Z</time>
      </trkpt>
      <trkpt lat="47.70199" lon="-2.35332">
        <ele>58</ele>
        <time>2023-11-11T06:50:54Z</time>
      </trkpt>
      <trkpt lat="47.70213" lon="-2.35325">
        <ele>58</ele>
        <time>2023-11-11T06:51:14Z</time>
      </trkpt>
      <trkpt lat="47.70236" lon="-2.35324">
        <ele>58</ele>
        <time>2023-11-11T06:51:44Z</time>
      </trkpt>
      <trkpt lat="47.70252" lon="-2.35304">
        <ele>58</ele>
        <time>2023-11-11T06:52:12Z</time>
      </trkpt>
      <trkpt lat="47.70263" lon="-2.35298">
        <ele>56</ele>
        <time>2023-11-11T06:52:28Z</time>
      </trkpt>
      <trkpt lat="47.70266" lon="-2.35293">
        <ele>56</ele>
        <time>2023-11-11T06:52:34Z</time>
      </trkpt>
      <trkpt lat="47.70274" lon="-2.35291">
        <ele>55</ele>
        <time>2023-11-11T06:52:45Z</time>
      </trkpt>
      <trkpt lat="47.70292" lon="-2.35266">
        <ele>52</ele>
        <time>2023-11-11T06:53:18Z</time>
      </trkpt>
      <trkpt lat="47.70299" lon="-2.35265">
        <ele>51</ele>
        <time>2023-11-11T06:53:27Z</time>
      </trkpt>
      <trkpt lat="47.70303" lon="-2.35241">
        <ele>51</ele>
        <time>2023-11-11T06:53:49Z</time>
      </trkpt>
      <trkpt lat="47.70313" lon="-2.35225">
        <ele>49</ele>
        <time>2023-11-11T06:54:09Z</time>
      </trkpt>
      <trkpt lat="47.70315" lon="-2.35227">
        <ele>48</ele>
        <time>2023-11-11T06:54:12Z</time>
      </trkpt>
      <trkpt lat="47.70308" lon="-2.35243">
        <ele>50</ele>
        <time>2023-11-11T06:54:29Z</time>
      </trkpt>
      <trkpt lat="47.70338" lon="-2.35258">
        <ele>45</ele>
        <time>2023-11-11T06:55:12Z</time>
      </trkpt>
      <trkpt lat="47.70353" lon="-2.35262">
        <ele>46</ele>
        <time>2023-11-11T06:55:32Z</time>
      </trkpt>
      <trkpt lat="47.7036" lon="-2.3526">
        <ele>47</ele>
        <time>2023-11-11T06:55:41Z</time>
      </trkpt>
      <trkpt lat="47.70377" lon="-2.35262">
        <ele>48</ele>
        <time>2023-11-11T06:56:04Z</time>
      </trkpt>
      <trkpt lat="47.70392" lon="-2.35249">
        <ele>49</ele>
        <time>2023-11-11T06:56:27Z</time>
      </trkpt>
      <trkpt lat="47.70392" lon="-2.3518">
        <ele>49</ele>
        <time>2023-11-11T06:57:29Z</time>
      </trkpt>
      <trkpt lat="47.70389" lon="-2.35168">
        <ele>49</ele>
        <time>2023-11-11T06:57:41Z</time>
      </trkpt>
      <trkpt lat="47.7039" lon="-2.35153">
        <ele>49</ele>
        <time>2023-11-11T06:57:54Z</time>
      </trkpt>
      <trkpt lat="47.70387" lon="-2.35126">
        <ele>49</ele>
        <time>2023-11-11T06:58:19Z</time>
      </trkpt>
      <trkpt lat="47.70393" lon="-2.35114">
        <ele>50</ele>
        <time>2023-11-11T06:58:32Z</time>
      </trkpt>
      <trkpt lat="47.70395" lon="-2.35092">
        <ele>51</ele>
        <time>2023-11-11T06:58:52Z</time>
      </trkpt>
      <trkpt lat="47.70401" lon="-2.35079">
        <ele>51</ele>
        <time>2023-11-11T06:59:06Z</time>
      </trkpt>
      <trkpt lat="47.70392" lon="-2.35037">
        <ele>50</ele>
        <time>2023-11-11T06:59:46Z</time>
      </trkpt>
      <trkpt lat="47.70395" lon="-2.35026">
        <ele>50</ele>
        <time>2023-11-11T06:59:57Z</time>
      </trkpt>
      <trkpt lat="47.70391" lon="-2.34998">
        <ele>49</ele>
        <time>2023-11-11T07:00:22Z</time>
      </trkpt>
      <trkpt lat="47.70394" lon="-2.34986">
        <ele>49</ele>
        <time>2023-11-11T07:00:34Z</time>
      </trkpt>
      <trkpt lat="47.704" lon="-2.34978">
        <ele>50</ele>
        <time>2023-11-11T07:00:45Z</time>
      </trkpt>
      <trkpt lat="47.70398" lon="-2.34946">
        <ele>50</ele>
        <time>2023-11-11T07:01:13Z</time>
      </trkpt>
      <trkpt lat="47.70401" lon="-2.3494">
        <ele>50</ele>
        <time>2023-11-11T07:01:20Z</time>
      </trkpt>
      <trkpt lat="47.70408" lon="-2.34935">
        <ele>51</ele>
        <time>2023-11-11T07:01:31Z</time>
      </trkpt>
      <trkpt lat="47.70407" lon="-2.34918">
        <ele>51</ele>
        <time>2023-11-11T07:01:46Z</time>
      </trkpt>
      <trkpt lat="47.70398" lon="-2.34898">
        <ele>50</ele>
        <time>2023-11-11T07:02:07Z</time>
      </trkpt>
      <trkpt lat="47.70392" lon="-2.34893">
        <ele>50</ele>
        <time>2023-11-11T07:02:17Z</time>
      </trkpt>
      <trkpt lat="47.70383" lon="-2.34868">
        <ele>49</ele>
        <time>2023-11-11T07:02:42Z</time>
      </trkpt>
      <trkpt lat="47.70375" lon="-2.34857">
        <ele>48</ele>
        <time>2023-11-11T07:02:57Z</time>
      </trkpt>
      <trkpt lat="47.70367" lon="-2.34818">
        <ele>48</ele>
        <time>2023-11-11T07:03:33Z</time>
      </trkpt>
      <trkpt lat="47.70369" lon="-2.34818">
        <ele>48</ele>
        <time>2023-11-11T07:03:36Z</time>
      </trkpt>
      <trkpt lat="47.70364" lon="-2.34789">
        <ele>48</ele>
        <time>2023-11-11T07:04:03Z</time>
      </trkpt>
      <trkpt lat="47.70365" lon="-2.34771">
        <ele>49</ele>
        <time>2023-11-11T07:04:19Z</time>
      </trkpt>
      <trkpt lat="47.70357" lon="-2.34755">
        <ele>48</ele>
        <time>2023-11-11T07:04:37Z</time>
      </trkpt>
      <trkpt lat="47.70355" lon="-2.34743">
        <ele>48</ele>
        <time>2023-11-11T07:04:48Z</time>
      </trkpt>
      <trkpt lat="47.70357" lon="-2.34737">
        <ele>49</ele>
        <time>2023-11-11T07:04:54Z</time>
      </trkpt>
      <trkpt lat="47.70341" lon="-2.34709">
        <ele>46</ele>
        <time>2023-11-11T07:05:27Z</time>
      </trkpt>
      <trkpt lat="47.70335" lon="-2.34689">
        <ele>46</ele>
        <time>2023-11-11T07:05:47Z</time>
      </trkpt>
      <trkpt lat="47.70334" lon="-2.34675">
        <ele>46</ele>
        <time>2023-11-11T07:05:59Z</time>
      </trkpt>
      <trkpt lat="47.70319" lon="-2.34645">
        <ele>46</ele>
        <time>2023-11-11T07:06:33Z</time>
      </trkpt>
      <trkpt lat="47.70311" lon="-2.34606">
        <ele>49</ele>
        <time>2023-11-11T07:07:10Z</time>
      </trkpt>
      <trkpt lat="47.70301" lon="-2.34579">
        <ele>49</ele>
        <time>2023-11-11T07:07:37Z</time>
      </trkpt>
      <trkpt lat="47.70305" lon="-2.34553">
        <ele>50</ele>
        <time>2023-11-11T07:08:01Z</time>
      </trkpt>
      <trkpt lat="47.703" lon="-2.34525">
        <ele>50</ele>
        <time>2023-11-11T07:08:27Z</time>
      </trkpt>
      <trkpt lat="47.70302" lon="-2.34516">
        <ele>51</ele>
        <time>2023-11-11T07:08:36Z</time>
      </trkpt>
      <trkpt lat="47.70286" lon="-2.34472">
        <ele>49</ele>
        <time>2023-11-11T07:09:21Z</time>
      </trkpt>
      <trkpt lat="47.70279" lon="-2.34432">
        <ele>50</ele>
        <time>2023-11-11T07:09:58Z</time>
      </trkpt>
      <trkpt lat="47.70274" lon="-2.34419">
        <ele>49</ele>
        <time>2023-11-11T07:10:11Z</time>
      </trkpt>
      <trkpt lat="47.7027" lon="-2.34395">
        <ele>49</ele>
        <time>2023-11-11T07:10:33Z</time>
      </trkpt>
      <trkpt lat="47.70271" lon="-2.34386">
        <ele>50</ele>
        <time>2023-11-11T07:10:42Z</time>
      </trkpt>
      <trkpt lat="47.70268" lon="-2.34378">
        <ele>49</ele>
        <time>2023-11-11T07:10:50Z</time>
      </trkpt>
      <trkpt lat="47.70269" lon="-2.34369">
        <ele>50</ele>
        <time>2023-11-11T07:10:58Z</time>
      </trkpt>
      <trkpt lat="47.70263" lon="-2.34349">
        <ele>49</ele>
        <time>2023-11-11T07:11:18Z</time>
      </trkpt>
      <trkpt lat="47.70254" lon="-2.34286">
        <ele>46</ele>
        <time>2023-11-11T07:12:15Z</time>
      </trkpt>
      <trkpt lat="47.70247" lon="-2.34265">
        <ele>45</ele>
        <time>2023-11-11T07:12:37Z</time>
      </trkpt>
      <trkpt lat="47.70246" lon="-2.34242">
        <ele>45</ele>
        <time>2023-11-11T07:12:57Z</time>
      </trkpt>
      <trkpt lat="47.7024" lon="-2.34224">
        <ele>45</ele>
        <time>2023-11-11T07:13:15Z</time>
      </trkpt>
      <trkpt lat="47.70231" lon="-2.34209">
        <ele>46</ele>
        <time>2023-11-11T07:13:33Z</time>
      </trkpt>
      <trkpt lat="47.70232" lon="-2.34199">
        <ele>46</ele>
        <time>2023-11-11T07:13:42Z</time>
      </trkpt>
      <trkpt lat="47.70221" lon="-2.34154">
        <ele>47</ele>
        <time>2023-11-11T07:14:25Z</time>
      </trkpt>
      <trkpt lat="47.70214" lon="-2.34145">
        <ele>47</ele>
        <time>2023-11-11T07:14:38Z</time>
      </trkpt>
      <trkpt lat="47.70209" lon="-2.34108">
        <ele>49</ele>
        <time>2023-11-11T07:15:12Z</time>
      </trkpt>
      <trkpt lat="47.70196" lon="-2.34051">
        <ele>47</ele>
        <time>2023-11-11T07:16:06Z</time>
      </trkpt>
      <trkpt lat="47.70198" lon="-2.34031">
        <ele>47</ele>
        <time>2023-11-11T07:16:24Z</time>
      </trkpt>
      <trkpt lat="47.70191" lon="-2.34008">
        <ele>45</ele>
        <time>2023-11-11T07:16:47Z</time>
      </trkpt>
      <trkpt lat="47.70193" lon="-2.34002">
        <ele>45</ele>
        <time>2023-11-11T07:16:53Z</time>
      </trkpt>
      <trkpt lat="47.70184" lon="-2.33938">
        <ele>39</ele>
        <time>2023-11-11T07:17:51Z</time>
      </trkpt>
      <trkpt lat="47.70189" lon="-2.33888">
        <ele>38</ele>
        <time>2023-11-11T07:18:37Z</time>
      </trkpt>
      <trkpt lat="47.70194" lon="-2.33879">
        <ele>38</ele>
        <time>2023-11-11T07:18:47Z</time>
      </trkpt>
      <trkpt lat="47.70194" lon="-2.33864">
        <ele>38</ele>
        <time>2023-11-11T07:19:01Z</time>
      </trkpt>
      <trkpt lat="47.702" lon="-2.33859">
        <ele>38</ele>
        <time>2023-11-11T07:19:10Z</time>
      </trkpt>
      <trkpt lat="47.70207" lon="-2.33861">
        <ele>40</ele>
        <time>2023-11-11T07:19:19Z</time>
      </trkpt>
      <trkpt lat="47.70204" lon="-2.33829">
        <ele>37</ele>
        <time>2023-11-11T07:19:48Z</time>
      </trkpt>
      <trkpt lat="47.70213" lon="-2.33829">
        <ele>39</ele>
        <time>2023-11-11T07:20:00Z</time>
      </trkpt>
      <trkpt lat="47.70218" lon="-2.33825">
        <ele>39</ele>
        <time>2023-11-11T07:20:08Z</time>
      </trkpt>
      <trkpt lat="47.70216" lon="-2.33814">
        <ele>38</ele>
        <time>2023-11-11T07:20:18Z</time>
      </trkpt>
      <trkpt lat="47.70193" lon="-2.33764">
        <ele>30</ele>
        <time>2023-11-11T07:21:13Z</time>
      </trkpt>
      <trkpt lat="47.70185" lon="-2.33762">
        <ele>29</ele>
        <time>2023-11-11T07:21:23Z</time>
      </trkpt>
      <trkpt lat="47.70185" lon="-2.33765">
        <ele>30</ele>
        <time>2023-11-11T07:21:26Z</time>
      </trkpt>
      <trkpt lat="47.70181" lon="-2.33734">
        <ele>29</ele>
        <time>2023-11-11T07:21:54Z</time>
      </trkpt>
      <trkpt lat="47.70184" lon="-2.33715">
        <ele>29</ele>
        <time>2023-11-11T07:22:12Z</time>
      </trkpt>
      <trkpt lat="47.70187" lon="-2.33709">
        <ele>29</ele>
        <time>2023-11-11T07:22:19Z</time>
      </trkpt>
      <trkpt lat="47.70185" lon="-2.337">
        <ele>29</ele>
        <time>2023-11-11T07:22:27Z</time>
      </trkpt>
      <trkpt lat="47.70183" lon="-2.33709">
        <ele>29</ele>
        <time>2023-11-11T07:22:36Z</time>
      </trkpt>
      <trkpt lat="47.70181" lon="-2.33704">
        <ele>29</ele>
        <time>2023-11-11T07:22:41Z</time>
      </trkpt>
      <trkpt lat="47.70183" lon="-2.33708">
        <ele>29</ele>
        <time>2023-11-11T07:22:45Z</time>
      </trkpt>
      <trkpt lat="47.70192" lon="-2.33697">
        <ele>30</ele>
        <time>2023-11-11T07:23:01Z</time>
      </trkpt>
      <trkpt lat="47.7019" lon="-2.33664">
        <ele>30</ele>
        <time>2023-11-11T07:23:31Z</time>
      </trkpt>
      <trkpt lat="47.70193" lon="-2.33654">
        <ele>31</ele>
        <time>2023-11-11T07:23:40Z</time>
      </trkpt>
      <trkpt lat="47.702" lon="-2.33647">
        <ele>33</ele>
        <time>2023-11-11T07:23:52Z</time>
      </trkpt>
      <trkpt lat="47.70197" lon="-2.33606">
        <ele>35</ele>
        <time>2023-11-11T07:24:29Z</time>
      </trkpt>
      <trkpt lat="47.702" lon="-2.33577">
        <ele>38</ele>
        <time>2023-11-11T07:24:55Z</time>
      </trkpt>
      <trkpt lat="47.70198" lon="-2.33566">
        <ele>38</ele>
        <time>2023-11-11T07:25:05Z</time>
      </trkpt>
      <trkpt lat="47.70204" lon="-2.33553">
        <ele>40</ele>
        <time>2023-11-11T07:25:20Z</time>
      </trkpt>
      <trkpt lat="47.70203" lon="-2.33544">
        <ele>40</ele>
        <time>2023-11-11T07:25:28Z</time>
      </trkpt>
      <trkpt lat="47.70205" lon="-2.33539">
        <ele>40</ele>
        <time>2023-11-11T07:25:33Z</time>
      </trkpt>
      <trkpt lat="47.70203" lon="-2.33532">
        <ele>40</ele>
        <time>2023-11-11T07:25:40Z</time>
      </trkpt>
      <trkpt lat="47.70207" lon="-2.3353">
        <ele>41</ele>
        <time>2023-11-11T07:25:45Z</time>
      </trkpt>
      <trkpt lat="47.702" lon="-2.33487">
        <ele>42</ele>
        <time>2023-11-11T07:26:25Z</time>
      </trkpt>
      <trkpt lat="47.70203" lon="-2.33477">
        <ele>44</ele>
        <time>2023-11-11T07:26:35Z</time>
      </trkpt>
      <trkpt lat="47.70197" lon="-2.33459">
        <ele>44</ele>
        <time>2023-11-11T07:26:53Z</time>
      </trkpt>
      <trkpt lat="47.70195" lon="-2.33435">
        <ele>45</ele>
        <time>2023-11-11T07:27:15Z</time>
      </trkpt>
      <trkpt lat="47.7019" lon="-2.33434">
        <ele>44</ele>
        <time>2023-11-11T07:27:21Z</time>
      </trkpt>
      <trkpt lat="47.7018" lon="-2.33393">
        <ele>44</ele>
        <time>2023-11-11T07:28:01Z</time>
      </trkpt>
      <trkpt lat="47.70169" lon="-2.33374">
        <ele>43</ele>
        <time>2023-11-11T07:28:23Z</time>
      </trkpt>
      <trkpt lat="47.70163" lon="-2.33336">
        <ele>43</ele>
        <time>2023-11-11T07:28:58Z</time>
      </trkpt>
      <trkpt lat="47.70155" lon="-2.3332">
        <ele>43</ele>
        <time>2023-11-11T07:29:16Z</time>
      </trkpt>
      <trkpt lat="47.70148" lon="-2.33283">
        <ele>46</ele>
        <time>2023-11-11T07:29:51Z</time>
      </trkpt>
      <trkpt lat="47.70141" lon="-2.33271">
        <ele>45</ele>
        <time>2023-11-11T07:30:05Z</time>
      </trkpt>
      <trkpt lat="47.70137" lon="-2.3327">
        <ele>44</ele>
        <time>2023-11-11T07:30:10Z</time>
      </trkpt>
      <trkpt lat="47.70136" lon="-2.33254">
        <ele>46</ele>
        <time>2023-11-11T07:30:25Z</time>
      </trkpt>
      <trkpt lat="47.70118" lon="-2.33202">
        <ele>45</ele>
        <time>2023-11-11T07:31:17Z</time>
      </trkpt>
      <trkpt lat="47.70109" lon="-2.33185">
        <ele>44</ele>
        <time>2023-11-11T07:31:37Z</time>
      </trkpt>
      <trkpt lat="47.70102" lon="-2.33177">
        <ele>43</ele>
        <time>2023-11-11T07:31:48Z</time>
      </trkpt>
      <trkpt lat="47.70102" lon="-2.33168">
        <ele>44</ele>
        <time>2023-11-11T07:31:57Z</time>
      </trkpt>
      <trkpt lat="47.70094" lon="-2.33139">
        <ele>44</ele>
        <time>2023-11-11T07:32:25Z</time>
      </trkpt>
      <trkpt lat="47.70083" lon="-2.33111">
        <ele>44</ele>
        <time>2023-11-11T07:32:54Z</time>
      </trkpt>
      <trkpt lat="47.70079" lon="-2.33106">
        <ele>43</ele>
        <time>2023-11-11T07:33:01Z</time>
      </trkpt>
      <trkpt lat="47.70078" lon="-2.33096">
        <ele>44</ele>
        <time>2023-11-11T07:33:10Z</time>
      </trkpt>
      <trkpt lat="47.70071" lon="-2.33083">
        <ele>44</ele>
        <time>2023-11-11T07:33:25Z</time>
      </trkpt>
      <trkpt lat="47.70071" lon="-2.3307">
        <ele>45</ele>
        <time>2023-11-11T07:33:36Z</time>
      </trkpt>
      <trkpt lat="47.70063" lon="-2.33043">
        <ele>46</ele>
        <time>2023-11-11T07:34:03Z</time>
      </trkpt>
      <trkpt lat="47.70052" lon="-2.33027">
        <ele>45</ele>
        <time>2023-11-11T07:34:23Z</time>
      </trkpt>
      <trkpt lat="47.70053" lon="-2.33023">
        <ele>46</ele>
        <time>2023-11-11T07:34:27Z</time>
      </trkpt>
      <trkpt lat="47.70044" lon="-2.32992">
        <ele>46</ele>
        <time>2023-11-11T07:34:58Z</time>
      </trkpt>
      <trkpt lat="47.70042" lon="-2.32968">
        <ele>49</ele>
        <time>2023-11-11T07:35:19Z</time>
      </trkpt>
      <trkpt lat="47.70035" lon="-2.32945">
        <ele>50</ele>
        <time>2023-11-11T07:35:42Z</time>
      </trkpt>
      <trkpt lat="47.70038" lon="-2.32939">
        <ele>51</ele>
        <time>2023-11-11T07:35:49Z</time>
      </trkpt>
      <trkpt lat="47.70034" lon="-2.3293">
        <ele>51</ele>
        <time>2023-11-11T07:35:58Z</time>
      </trkpt>
      <trkpt lat="47.70025" lon="-2.32856">
        <ele>57</ele>
        <time>2023-11-11T07:37:06Z</time>
      </trkpt>
      <trkpt lat="47.70017" lon="-2.32824">
        <ele>58</ele>
        <time>2023-11-11T07:37:37Z</time>
      </trkpt>
      <trkpt lat="47.7001" lon="-2.32808">
        <ele>58</ele>
        <time>2023-11-11T07:37:54Z</time>
      </trkpt>
      <trkpt lat="47.70005" lon="-2.32781">
        <ele>58</ele>
        <time>2023-11-11T07:38:19Z</time>
      </trkpt>
      <trkpt lat="47.70011" lon="-2.32763">
        <ele>60</ele>
        <time>2023-11-11T07:38:37Z</time>
      </trkpt>
      <trkpt lat="47.70013" lon="-2.32764">
        <ele>60</ele>
        <time>2023-11-11T07:38:40Z</time>
      </trkpt>
      <trkpt lat="47.70003" lon="-2.32729">
        <ele>60</ele>
        <time>2023-11-11T07:39:14Z</time>
      </trkpt>
      <trkpt lat="47.70007" lon="-2.3269">
        <ele>63</ele>
        <time>2023-11-11T07:39:49Z</time>
      </trkpt>
      <trkpt lat="47.70011" lon="-2.32679">
        <ele>64</ele>
        <time>2023-11-11T07:40:01Z</time>
      </trkpt>
      <trkpt lat="47.7001" lon="-2.32674">
        <ele>64</ele>
        <time>2023-11-11T07:40:05Z</time>
      </trkpt>
      <trkpt lat="47.70021" lon="-2.32666">
        <ele>66</ele>
        <time>2023-11-11T07:40:22Z</time>
      </trkpt>
      <trkpt lat="47.70023" lon="-2.32657">
        <ele>67</ele>
        <time>2023-11-11T07:40:30Z</time>
      </trkpt>
      <trkpt lat="47.7003" lon="-2.32656">
        <ele>68</ele>
        <time>2023-11-11T07:40:40Z</time>
      </trkpt>
      <trkpt lat="47.70034" lon="-2.32649">
        <ele>69</ele>
        <time>2023-11-11T07:40:48Z</time>
      </trkpt>
      <trkpt lat="47.70034" lon="-2.32628">
        <ele>69</ele>
        <time>2023-11-11T07:41:07Z</time>
      </trkpt>
      <trkpt lat="47.70045" lon="-2.32601">
        <ele>72</ele>
        <time>2023-11-11T07:41:35Z</time>
      </trkpt>
      <trkpt lat="47.70048" lon="-2.32561">
        <ele>72</ele>
        <time>2023-11-11T07:42:11Z</time>
      </trkpt>
      <trkpt lat="47.7005" lon="-2.32451">
        <ele>72</ele>
        <time>2023-11-11T07:43:50Z</time>
      </trkpt>
      <trkpt lat="47.7004" lon="-2.3241">
        <ele>70</ele>
        <time>2023-11-11T07:44:29Z</time>
      </trkpt>
      <trkpt lat="47.70038" lon="-2.32373">
        <ele>69</ele>
        <time>2023-11-11T07:45:02Z</time>
      </trkpt>
      <trkpt lat="47.7004" lon="-2.3234">
        <ele>69</ele>
        <time>2023-11-11T07:45:32Z</time>
      </trkpt>
      <trkpt lat="47.70037" lon="-2.32326">
        <ele>68</ele>
        <time>2023-11-11T07:45:45Z</time>
      </trkpt>
      <trkpt lat="47.7004" lon="-2.3233">
        <ele>69</ele>
        <time>2023-11-11T07:45:51Z</time>
      </trkpt>
      <trkpt lat="47.70042" lon="-2.32327">
        <ele>69</ele>
        <time>2023-11-11T07:45:55Z</time>
      </trkpt>
      <trkpt lat="47.70042" lon="-2.32302">
        <ele>69</ele>
        <time>2023-11-11T07:46:17Z</time>
      </trkpt>
      <trkpt lat="47.70051" lon="-2.32257">
        <ele>70</ele>
        <time>2023-11-11T07:46:59Z</time>
      </trkpt>
      <trkpt lat="47.70051" lon="-2.32232">
        <ele>70</ele>
        <time>2023-11-11T07:47:22Z</time>
      </trkpt>
      <trkpt lat="47.70064" lon="-2.32163">
        <ele>73</ele>
        <time>2023-11-11T07:48:26Z</time>
      </trkpt>
      <trkpt lat="47.70066" lon="-2.32119">
        <ele>75</ele>
        <time>2023-11-11T07:49:06Z</time>
      </trkpt>
      <trkpt lat="47.70072" lon="-2.32098">
        <ele>76</ele>
        <time>2023-11-11T07:49:26Z</time>
      </trkpt>
      <trkpt lat="47.70074" lon="-2.3208">
        <ele>77</ele>
        <time>2023-11-11T07:49:42Z</time>
      </trkpt>
      <trkpt lat="47.70071" lon="-2.32049">
        <ele>78</ele>
        <time>2023-11-11T07:50:11Z</time>
      </trkpt>
      <trkpt lat="47.70073" lon="-2.3203">
        <ele>79</ele>
        <time>2023-11-11T07:50:28Z</time>
      </trkpt>
      <trkpt lat="47.7008" lon="-2.32015">
        <ele>80</ele>
        <time>2023-11-11T07:50:44Z</time>
      </trkpt>
      <trkpt lat="47.70082" lon="-2.32004">
        <ele>81</ele>
        <time>2023-11-11T07:50:54Z</time>
      </trkpt>
      <trkpt lat="47.70089" lon="-2.31998">
        <ele>81</ele>
        <time>2023-11-11T07:51:05Z</time>
      </trkpt>
      <trkpt lat="47.70091" lon="-2.31966">
        <ele>79</ele>
        <time>2023-11-11T07:51:34Z</time>
      </trkpt>
      <trkpt lat="47.70097" lon="-2.31954">
        <ele>79</ele>
        <time>2023-11-11T07:51:48Z</time>
      </trkpt>
      <trkpt lat="47.70097" lon="-2.31917">
        <ele>77</ele>
        <time>2023-11-11T07:52:21Z</time>
      </trkpt>
      <trkpt lat="47.70101" lon="-2.31896">
        <ele>76</ele>
        <time>2023-11-11T07:52:40Z</time>
      </trkpt>
      <trkpt lat="47.70102" lon="-2.31857">
        <ele>74</ele>
        <time>2023-11-11T07:53:15Z</time>
      </trkpt>
      <trkpt lat="47.70111" lon="-2.31818">
        <ele>74</ele>
        <time>2023-11-11T07:53:52Z</time>
      </trkpt>
      <trkpt lat="47.70117" lon="-2.31736">
        <ele>76</ele>
        <time>2023-11-11T07:55:07Z</time>
      </trkpt>
      <trkpt lat="47.70121" lon="-2.31726">
        <ele>77</ele>
        <time>2023-11-11T07:55:17Z</time>
      </trkpt>
      <trkpt lat="47.70113" lon="-2.31677">
        <ele>79</ele>
        <time>2023-11-11T07:56:02Z</time>
      </trkpt>
      <trkpt lat="47.7012" lon="-2.31656">
        <ele>79</ele>
        <time>2023-11-11T07:56:23Z</time>
      </trkpt>
      <trkpt lat="47.70124" lon="-2.31634">
        <ele>80</ele>
        <time>2023-11-11T07:56:44Z</time>
      </trkpt>
      <trkpt lat="47.70131" lon="-2.31629">
        <ele>80</ele>
        <time>2023-11-11T07:56:54Z</time>
      </trkpt>
      <trkpt lat="47.70136" lon="-2.31632">
        <ele>79</ele>
        <time>2023-11-11T07:57:01Z</time>
      </trkpt>
      <trkpt lat="47.70158" lon="-2.31603">
        <ele>80</ele>
        <time>2023-11-11T07:57:41Z</time>
      </trkpt>
      <trkpt lat="47.70165" lon="-2.31597">
        <ele>80</ele>
        <time>2023-11-11T07:57:51Z</time>
      </trkpt>
      <trkpt lat="47.70178" lon="-2.31591">
        <ele>79</ele>
        <time>2023-11-11T07:58:10Z</time>
      </trkpt>
      <trkpt lat="47.70187" lon="-2.3158">
        <ele>79</ele>
        <time>2023-11-11T07:58:25Z</time>
      </trkpt>
      <trkpt lat="47.70196" lon="-2.31575">
        <ele>79</ele>
        <time>2023-11-11T07:58:38Z</time>
      </trkpt>
      <trkpt lat="47.70201" lon="-2.31556">
        <ele>79</ele>
        <time>2023-11-11T07:58:56Z</time>
      </trkpt>
      <trkpt lat="47.70203" lon="-2.31536">
        <ele>78</ele>
        <time>2023-11-11T07:59:14Z</time>
      </trkpt>
      <trkpt lat="47.702" lon="-2.31489">
        <ele>78</ele>
        <time>2023-11-11T07:59:57Z</time>
      </trkpt>
      <trkpt lat="47.70194" lon="-2.3147">
        <ele>78</ele>
        <time>2023-11-11T08:00:16Z</time>
      </trkpt>
      <trkpt lat="47.70194" lon="-2.31432">
        <ele>78</ele>
        <time>2023-11-11T08:00:50Z</time>
      </trkpt>
      <trkpt lat="47.70183" lon="-2.31347">
        <ele>78</ele>
        <time>2023-11-11T08:02:08Z</time>
      </trkpt>
      <trkpt lat="47.70185" lon="-2.31316">
        <ele>78</ele>
        <time>2023-11-11T08:02:35Z</time>
      </trkpt>
      <trkpt lat="47.70177" lon="-2.31246">
        <ele>78</ele>
        <time>2023-11-11T08:03:39Z</time>
      </trkpt>
      <trkpt lat="47.70177" lon="-2.31212">
        <ele>79</ele>
        <time>2023-11-11T08:04:10Z</time>
      </trkpt>
      <trkpt lat="47.7017" lon="-2.31163">
        <ele>80</ele>
        <time>2023-11-11T08:04:55Z</time>
      </trkpt>
      <trkpt lat="47.70173" lon="-2.31128">
        <ele>80</ele>
        <time>2023-11-11T08:05:26Z</time>
      </trkpt>
      <trkpt lat="47.7017" lon="-2.31097">
        <ele>81</ele>
        <time>2023-11-11T08:05:55Z</time>
      </trkpt>
      <trkpt lat="47.70171" lon="-2.31067">
        <ele>80</ele>
        <time>2023-11-11T08:06:22Z</time>
      </trkpt>
      <trkpt lat="47.70164" lon="-2.31019">
        <ele>79</ele>
        <time>2023-11-11T08:07:06Z</time>
      </trkpt>
      <trkpt lat="47.70158" lon="-2.31004">
        <ele>79</ele>
        <time>2023-11-11T08:07:21Z</time>
      </trkpt>
      <trkpt lat="47.70154" lon="-2.30982">
        <ele>78</ele>
        <time>2023-11-11T08:07:42Z</time>
      </trkpt>
      <trkpt lat="47.70149" lon="-2.30974">
        <ele>78</ele>
        <time>2023-11-11T08:07:52Z</time>
      </trkpt>
      <trkpt lat="47.70138" lon="-2.30968">
        <ele>78</ele>
        <time>2023-11-11T08:08:07Z</time>
      </trkpt>
      <trkpt lat="47.70128" lon="-2.30959">
        <ele>78</ele>
        <time>2023-11-11T08:08:23Z</time>
      </trkpt>
      <trkpt lat="47.70116" lon="-2.30955">
        <ele>78</ele>
        <time>2023-11-11T08:08:39Z</time>
      </trkpt>
      <trkpt lat="47.701" lon="-2.30944">
        <ele>79</ele>
        <time>2023-11-11T08:09:03Z</time>
      </trkpt>
      <trkpt lat="47.70086" lon="-2.30939">
        <ele>79</ele>
        <time>2023-11-11T08:09:22Z</time>
      </trkpt>
      <trkpt lat="47.70066" lon="-2.30927">
        <ele>79</ele>
        <time>2023-11-11T08:09:51Z</time>
      </trkpt>
      <trkpt lat="47.70057" lon="-2.30912">
        <ele>79</ele>
        <time>2023-11-11T08:10:09Z</time>
      </trkpt>
      <trkpt lat="47.70056" lon="-2.30903">
        <ele>79</ele>
        <time>2023-11-11T08:10:17Z</time>
      </trkpt>
      <trkpt lat="47.70064" lon="-2.30906">
        <ele>79</ele>
        <time>2023-11-11T08:10:28Z</time>
      </trkpt>
      <trkpt lat="47.70067" lon="-2.30911">
        <ele>79</ele>
        <time>2023-11-11T08:10:34Z</time>
      </trkpt>
      <trkpt lat="47.70057" lon="-2.30915">
        <ele>79</ele>
        <time>2023-11-11T08:10:48Z</time>
      </trkpt>
      <trkpt lat="47.70057" lon="-2.30911">
        <ele>79</ele>
        <time>2023-11-11T08:10:51Z</time>
      </trkpt>
      <trkpt lat="47.70059" lon="-2.30913">
        <ele>79</ele>
        <time>2023-11-11T08:10:55Z</time>
      </trkpt>
      <trkpt lat="47.70062" lon="-2.30911">
        <ele>79</ele>
        <time>2023-11-11T08:10:59Z</time>
      </trkpt>
      <trkpt lat="47.70058" lon="-2.30912">
        <ele>79</ele>
        <time>2023-11-11T08:11:04Z</time>
      </trkpt>
      <trkpt lat="47.70052" lon="-2.30897">
        <ele>79</ele>
        <time>2023-11-11T08:11:20Z</time>
      </trkpt>
      <trkpt lat="47.70051" lon="-2.30878">
        <ele>78</ele>
        <time>2023-11-11T08:11:37Z</time>
      </trkpt>
      <trkpt lat="47.70053" lon="-2.30869">
        <ele>78</ele>
        <time>2023-11-11T08:11:46Z</time>
      </trkpt>
      <trkpt lat="47.7005" lon="-2.30862">
        <ele>78</ele>
        <time>2023-11-11T08:11:53Z</time>
      </trkpt>
      <trkpt lat="47.70048" lon="-2.30834">
        <ele>78</ele>
        <time>2023-11-11T08:12:19Z</time>
      </trkpt>
      <trkpt lat="47.70052" lon="-2.30785">
        <ele>77</ele>
        <time>2023-11-11T08:13:03Z</time>
      </trkpt>
      <trkpt lat="47.70048" lon="-2.30784">
        <ele>77</ele>
        <time>2023-11-11T08:13:08Z</time>
      </trkpt>
      <trkpt lat="47.70051" lon="-2.30778">
        <ele>77</ele>
        <time>2023-11-11T08:13:15Z</time>
      </trkpt>
      <trkpt lat="47.70049" lon="-2.30766">
        <ele>77</ele>
        <time>2023-11-11T08:13:26Z</time>
      </trkpt>
      <trkpt lat="47.70055" lon="-2.30744">
        <ele>77</ele>
        <time>2023-11-11T08:13:47Z</time>
      </trkpt>
      <trkpt lat="47.70054" lon="-2.30733">
        <ele>76</ele>
        <time>2023-11-11T08:13:57Z</time>
      </trkpt>
      <trkpt lat="47.70061" lon="-2.30716">
        <ele>76</ele>
        <time>2023-11-11T08:14:15Z</time>
      </trkpt>
      <trkpt lat="47.70061" lon="-2.30671">
        <ele>75</ele>
        <time>2023-11-11T08:14:56Z</time>
      </trkpt>
      <trkpt lat="47.7007" lon="-2.30655">
        <ele>76</ele>
        <time>2023-11-11T08:15:14Z</time>
      </trkpt>
      <trkpt lat="47.70066" lon="-2.30644">
        <ele>76</ele>
        <time>2023-11-11T08:15:26Z</time>
      </trkpt>
      <trkpt lat="47.70073" lon="-2.30628">
        <ele>76</ele>
        <time>2023-11-11T08:15:43Z</time>
      </trkpt>
      <trkpt lat="47.70073" lon="-2.30589">
        <ele>76</ele>
        <time>2023-11-11T08:16:18Z</time>
      </trkpt>
      <trkpt lat="47.70069" lon="-2.3055">
        <ele>76</ele>
        <time>2023-11-11T08:16:53Z</time>
      </trkpt>
      <trkpt lat="47.70075" lon="-2.30525">
        <ele>76</ele>
        <time>2023-11-11T08:17:17Z</time>
      </trkpt>
      <trkpt lat="47.70074" lon="-2.30516">
        <ele>76</ele>
        <time>2023-11-11T08:17:25Z</time>
      </trkpt>
      <trkpt lat="47.70083" lon="-2.30499">
        <ele>76</ele>
        <time>2023-11-11T08:17:45Z</time>
      </trkpt>
      <trkpt lat="47.70087" lon="-2.30437">
        <ele>75</ele>
        <time>2023-11-11T08:18:41Z</time>
      </trkpt>
      <trkpt lat="47.70085" lon="-2.30425">
        <ele>75</ele>
        <time>2023-11-11T08:18:52Z</time>
      </trkpt>
      <trkpt lat="47.70094" lon="-2.30418">
        <ele>75</ele>
        <time>2023-11-11T08:19:05Z</time>
      </trkpt>
      <trkpt lat="47.70097" lon="-2.30411">
        <ele>75</ele>
        <time>2023-11-11T08:19:13Z</time>
      </trkpt>
      <trkpt lat="47.70107" lon="-2.30357">
        <ele>73</ele>
        <time>2023-11-11T08:20:03Z</time>
      </trkpt>
      <trkpt lat="47.70107" lon="-2.30362">
        <ele>74</ele>
        <time>2023-11-11T08:20:08Z</time>
      </trkpt>
      <trkpt lat="47.70099" lon="-2.30338">
        <ele>73</ele>
        <time>2023-11-11T08:20:32Z</time>
      </trkpt>
      <trkpt lat="47.70107" lon="-2.30335">
        <ele>73</ele>
        <time>2023-11-11T08:20:43Z</time>
      </trkpt>
      <trkpt lat="47.70108" lon="-2.30317">
        <ele>73</ele>
        <time>2023-11-11T08:20:59Z</time>
      </trkpt>
      <trkpt lat="47.70109" lon="-2.30323">
        <ele>73</ele>
        <time>2023-11-11T08:21:04Z</time>
      </trkpt>
      <trkpt lat="47.70106" lon="-2.30322">
        <ele>73</ele>
        <time>2023-11-11T08:21:08Z</time>
      </trkpt>
      <trkpt lat="47.7011" lon="-2.30315">
        <ele>73</ele>
        <time>2023-11-11T08:21:17Z</time>
      </trkpt>
      <trkpt lat="47.70107" lon="-2.3032">
        <ele>73</ele>
        <time>2023-11-11T08:21:23Z</time>
      </trkpt>
      <trkpt lat="47.70107" lon="-2.30317">
        <ele>73</ele>
        <time>2023-11-11T08:21:25Z</time>
      </trkpt>
      <trkpt lat="47.70107" lon="-2.30322">
        <ele>73</ele>
        <time>2023-11-11T08:21:30Z</time>
      </trkpt>
      <trkpt lat="47.70107" lon="-2.30313">
        <ele>73</ele>
        <time>2023-11-11T08:21:38Z</time>
      </trkpt>
      <trkpt lat="47.70105" lon="-2.30313">
        <ele>73</ele>
        <time>2023-11-11T08:21:41Z</time>
      </trkpt>
      <trkpt lat="47.70109" lon="-2.30318">
        <ele>73</ele>
        <time>2023-11-11T08:21:48Z</time>
      </trkpt>
      <trkpt lat="47.70113" lon="-2.30315">
        <ele>73</ele>
        <time>2023-11-11T08:21:54Z</time>
      </trkpt>
      <trkpt lat="47.70114" lon="-2.30318">
        <ele>73</ele>
        <time>2023-11-11T08:21:57Z</time>
      </trkpt>
      <trkpt lat="47.70112" lon="-2.3032">
        <ele>73</ele>
        <time>2023-11-11T08:22:00Z</time>
      </trkpt>
      <trkpt lat="47.70115" lon="-2.30289">
        <ele>73</ele>
        <time>2023-11-11T08:22:28Z</time>
      </trkpt>
      <trkpt lat="47.70113" lon="-2.30246">
        <ele>74</ele>
        <time>2023-11-11T08:23:07Z</time>
      </trkpt>
      <trkpt lat="47.70116" lon="-2.30239">
        <ele>74</ele>
        <time>2023-11-11T08:23:14Z</time>
      </trkpt>
      <trkpt lat="47.70118" lon="-2.30215">
        <ele>74</ele>
        <time>2023-11-11T08:23:36Z</time>
      </trkpt>
      <trkpt lat="47.70112" lon="-2.30187">
        <ele>74</ele>
        <time>2023-11-11T08:24:02Z</time>
      </trkpt>
      <trkpt lat="47.70114" lon="-2.30173">
        <ele>74</ele>
        <time>2023-11-11T08:24:15Z</time>
      </trkpt>
      <trkpt lat="47.70112" lon="-2.30147">
        <ele>74</ele>
        <time>2023-11-11T08:24:39Z</time>
      </trkpt>
      <trkpt lat="47.70116" lon="-2.30138">
        <ele>74</ele>
        <time>2023-11-11T08:24:48Z</time>
      </trkpt>
      <trkpt lat="47.70114" lon="-2.30122">
        <ele>74</ele>
        <time>2023-11-11T08:25:03Z</time>
      </trkpt>
      <trkpt lat="47.70116" lon="-2.3009">
        <ele>74</ele>
        <time>2023-11-11T08:25:32Z</time>
      </trkpt>
      <trkpt lat="47.70108" lon="-2.30019">
        <ele>73</ele>
        <time>2023-11-11T08:26:36Z</time>
      </trkpt>
      <trkpt lat="47.70112" lon="-2.30021">
        <ele>73</ele>
        <time>2023-11-11T08:26:42Z</time>
      </trkpt>
      <trkpt lat="47.70111" lon="-2.30016">
        <ele>73</ele>
        <time>2023-11-11T08:26:47Z</time>
      </trkpt>
      <trkpt lat="47.70106" lon="-2.3001">
        <ele>73</ele>
        <time>2023-11-11T08:26:55Z</time>
      </trkpt>
      <trkpt lat="47.70089" lon="-2.30004">
        <ele>72</ele>
        <time>2023-11-11T08:27:19Z</time>
      </trkpt>
      <trkpt lat="47.70083" lon="-2.29999">
        <ele>72</ele>
        <time>2023-11-11T08:27:28Z</time>
      </trkpt>
      <trkpt lat="47.70064" lon="-2.29995">
        <ele>71</ele>
        <time>2023-11-11T08:27:53Z</time>
      </trkpt>
      <trkpt lat="47.70061" lon="-2.29988">
        <ele>71</ele>
        <time>2023-11-11T08:28:01Z</time>
      </trkpt>
      <trkpt lat="47.70056" lon="-2.29984">
        <ele>70</ele>
        <time>2023-11-11T08:28:08Z</time>
      </trkpt>
      <trkpt lat="47.70046" lon="-2.29989">
        <ele>70</ele>
        <time>2023-11-11T08:28:23Z</time>
      </trkpt>
      <trkpt lat="47.70038" lon="-2.29989">
        <ele>69</ele>
        <time>2023-11-11T08:28:33Z</time>
      </trkpt>
      <trkpt lat="47.70025" lon="-2.29981">
        <ele>68</ele>
        <time>2023-11-11T08:28:52Z</time>
      </trkpt>
      <trkpt lat="47.70009" lon="-2.2998">
        <ele>67</ele>
        <time>2023-11-11T08:29:13Z</time>
      </trkpt>
      <trkpt lat="47.70002" lon="-2.29982">
        <ele>66</ele>
        <time>2023-11-11T08:29:23Z</time>
      </trkpt>
      <trkpt lat="47.69998" lon="-2.29978">
        <ele>66</ele>
        <time>2023-11-11T08:29:29Z</time>
      </trkpt>
      <trkpt lat="47.69993" lon="-2.29965">
        <ele>65</ele>
        <time>2023-11-11T08:29:43Z</time>
      </trkpt>
      <trkpt lat="47.69976" lon="-2.2996">
        <ele>63</ele>
        <time>2023-11-11T08:30:06Z</time>
      </trkpt>
      <trkpt lat="47.69962" lon="-2.29968">
        <ele>62</ele>
        <time>2023-11-11T08:30:26Z</time>
      </trkpt>
      <trkpt lat="47.6995" lon="-2.29957">
        <ele>61</ele>
        <time>2023-11-11T08:30:45Z</time>
      </trkpt>
      <trkpt lat="47.69929" lon="-2.29949">
        <ele>59</ele>
        <time>2023-11-11T08:31:14Z</time>
      </trkpt>
      <trkpt lat="47.69922" lon="-2.29955">
        <ele>58</ele>
        <time>2023-11-11T08:31:24Z</time>
      </trkpt>
      <trkpt lat="47.69909" lon="-2.29961">
        <ele>57</ele>
        <time>2023-11-11T08:31:43Z</time>
      </trkpt>
      <trkpt lat="47.69878" lon="-2.29985">
        <ele>56</ele>
        <time>2023-11-11T08:32:29Z</time>
      </trkpt>
      <trkpt lat="47.69835" lon="-2.30011">
        <ele>55</ele>
        <time>2023-11-11T08:33:31Z</time>
      </trkpt>
      <trkpt lat="47.6983" lon="-2.30012">
        <ele>56</ele>
        <time>2023-11-11T08:33:38Z</time>
      </trkpt>
      <trkpt lat="47.69824" lon="-2.30022">
        <ele>56</ele>
        <time>2023-11-11T08:33:50Z</time>
      </trkpt>
      <trkpt lat="47.69818" lon="-2.3002">
        <ele>56</ele>
        <time>2023-11-11T08:33:58Z</time>
      </trkpt>
      <trkpt lat="47.69805" lon="-2.30027">
        <ele>56</ele>
        <time>2023-11-11T08:34:17Z</time>
      </trkpt>
      <trkpt lat="47.69787" lon="-2.30043">
        <ele>57</ele>
        <time>2023-11-11T08:34:45Z</time>
      </trkpt>
      <trkpt lat="47.69774" lon="-2.3008">
        <ele>58</ele>
        <time>2023-11-11T08:35:22Z</time>
      </trkpt>
      <trkpt lat="47.69771" lon="-2.30097">
        <ele>58</ele>
        <time>2023-11-11T08:35:38Z</time>
      </trkpt>
      <trkpt lat="47.69747" lon="-2.30142">
        <ele>59</ele>
        <time>2023-11-11T08:36:29Z</time>
      </trkpt>
      <trkpt lat="47.69748" lon="-2.30144">
        <ele>59</ele>
        <time>2023-11-11T08:36:32Z</time>
      </trkpt>
      <trkpt lat="47.69738" lon="-2.30168">
        <ele>60</ele>
        <time>2023-11-11T08:36:57Z</time>
      </trkpt>
      <trkpt lat="47.69703" lon="-2.30242">
        <ele>64</ele>
        <time>2023-11-11T08:38:18Z</time>
      </trkpt>
      <trkpt lat="47.69695" lon="-2.30273">
        <ele>65</ele>
        <time>2023-11-11T08:38:48Z</time>
      </trkpt>
      <trkpt lat="47.69684" lon="-2.30292">
        <ele>65</ele>
        <time>2023-11-11T08:39:11Z</time>
      </trkpt>
      <trkpt lat="47.69655" lon="-2.30355">
        <ele>69</ele>
        <time>2023-11-11T08:40:19Z</time>
      </trkpt>
      <trkpt lat="47.69604" lon="-2.30423">
        <ele>75</ele>
        <time>2023-11-11T08:41:51Z</time>
      </trkpt>
      <trkpt lat="47.69589" lon="-2.30447">
        <ele>77</ele>
        <time>2023-11-11T08:42:20Z</time>
      </trkpt>
      <trkpt lat="47.69581" lon="-2.30454">
        <ele>78</ele>
        <time>2023-11-11T08:42:32Z</time>
      </trkpt>
      <trkpt lat="47.69562" lon="-2.3048">
        <ele>78</ele>
        <time>2023-11-11T08:43:07Z</time>
      </trkpt>
      <trkpt lat="47.6954" lon="-2.30504">
        <ele>80</ele>
        <time>2023-11-11T08:43:43Z</time>
      </trkpt>
      <trkpt lat="47.6951" lon="-2.30527">
        <ele>81</ele>
        <time>2023-11-11T08:44:28Z</time>
      </trkpt>
      <trkpt lat="47.69478" lon="-2.3054">
        <ele>81</ele>
        <time>2023-11-11T08:45:13Z</time>
      </trkpt>
      <trkpt lat="47.69472" lon="-2.30533">
        <ele>81</ele>
        <time>2023-11-11T08:45:23Z</time>
      </trkpt>
      <trkpt lat="47.69465" lon="-2.30533">
        <ele>81</ele>
        <time>2023-11-11T08:45:32Z</time>
      </trkpt>
      <trkpt lat="47.6946" lon="-2.30527">
        <ele>81</ele>
        <time>2023-11-11T08:45:41Z</time>
      </trkpt>
      <trkpt lat="47.69462" lon="-2.3052">
        <ele>81</ele>
        <time>2023-11-11T08:45:48Z</time>
      </trkpt>
      <trkpt lat="47.69461" lon="-2.30522">
        <ele>81</ele>
        <time>2023-11-11T08:45:50Z</time>
      </trkpt>
      <trkpt lat="47.69459" lon="-2.30486">
        <ele>80</ele>
        <time>2023-11-11T08:46:22Z</time>
      </trkpt>
      <trkpt lat="47.69449" lon="-2.30461">
        <ele>80</ele>
        <time>2023-11-11T08:46:48Z</time>
      </trkpt>
      <trkpt lat="47.69443" lon="-2.3042">
        <ele>80</ele>
        <time>2023-11-11T08:47:26Z</time>
      </trkpt>
      <trkpt lat="47.6941" lon="-2.30308">
        <ele>79</ele>
        <time>2023-11-11T08:49:16Z</time>
      </trkpt>
      <trkpt lat="47.69405" lon="-2.30267">
        <ele>78</ele>
        <time>2023-11-11T08:49:53Z</time>
      </trkpt>
      <trkpt lat="47.69394" lon="-2.30233">
        <ele>78</ele>
        <time>2023-11-11T08:50:27Z</time>
      </trkpt>
      <trkpt lat="47.69385" lon="-2.30188">
        <ele>79</ele>
        <time>2023-11-11T08:51:09Z</time>
      </trkpt>
      <trkpt lat="47.69387" lon="-2.30186">
        <ele>79</ele>
        <time>2023-11-11T08:51:13Z</time>
      </trkpt>
      <trkpt lat="47.6938" lon="-2.30166">
        <ele>80</ele>
        <time>2023-11-11T08:51:33Z</time>
      </trkpt>
      <trkpt lat="47.69384" lon="-2.30165">
        <ele>79</ele>
        <time>2023-11-11T08:51:38Z</time>
      </trkpt>
      <trkpt lat="47.69372" lon="-2.30138">
        <ele>80</ele>
        <time>2023-11-11T08:52:07Z</time>
      </trkpt>
      <trkpt lat="47.69363" lon="-2.30093">
        <ele>81</ele>
        <time>2023-11-11T08:52:49Z</time>
      </trkpt>
      <trkpt lat="47.69361" lon="-2.30068">
        <ele>81</ele>
        <time>2023-11-11T08:53:12Z</time>
      </trkpt>
      <trkpt lat="47.6935" lon="-2.30043">
        <ele>80</ele>
        <time>2023-11-11T08:53:39Z</time>
      </trkpt>
      <trkpt lat="47.69343" lon="-2.29977">
        <ele>78</ele>
        <time>2023-11-11T08:54:39Z</time>
      </trkpt>
      <trkpt lat="47.69341" lon="-2.29913">
        <ele>77</ele>
        <time>2023-11-11T08:55:36Z</time>
      </trkpt>
      <trkpt lat="47.69343" lon="-2.29901">
        <ele>77</ele>
        <time>2023-11-11T08:55:48Z</time>
      </trkpt>
      <trkpt lat="47.69342" lon="-2.29858">
        <ele>79</ele>
        <time>2023-11-11T08:56:26Z</time>
      </trkpt>
      <trkpt lat="47.69344" lon="-2.29848">
        <ele>80</ele>
        <time>2023-11-11T08:56:36Z</time>
      </trkpt>
      <trkpt lat="47.69341" lon="-2.29825">
        <ele>81</ele>
        <time>2023-11-11T08:56:57Z</time>
      </trkpt>
      <trkpt lat="47.69344" lon="-2.29817">
        <ele>81</ele>
        <time>2023-11-11T08:57:05Z</time>
      </trkpt>
      <trkpt lat="47.69345" lon="-2.29778">
        <ele>82</ele>
        <time>2023-11-11T08:57:40Z</time>
      </trkpt>
      <trkpt lat="47.69337" lon="-2.29756">
        <ele>83</ele>
        <time>2023-11-11T08:58:02Z</time>
      </trkpt>
      <trkpt lat="47.69337" lon="-2.29744">
        <ele>84</ele>
        <time>2023-11-11T08:58:13Z</time>
      </trkpt>
      <trkpt lat="47.69341" lon="-2.29732">
        <ele>83</ele>
        <time>2023-11-11T08:58:25Z</time>
      </trkpt>
      <trkpt lat="47.69343" lon="-2.29709">
        <ele>83</ele>
        <time>2023-11-11T08:58:46Z</time>
      </trkpt>
      <trkpt lat="47.69341" lon="-2.2969">
        <ele>83</ele>
        <time>2023-11-11T08:59:03Z</time>
      </trkpt>
      <trkpt lat="47.69337" lon="-2.29677">
        <ele>83</ele>
        <time>2023-11-11T08:59:16Z</time>
      </trkpt>
      <trkpt lat="47.69339" lon="-2.29664">
        <ele>83</ele>
        <time>2023-11-11T08:59:28Z</time>
      </trkpt>
      <trkpt lat="47.69334" lon="-2.29633">
        <ele>82</ele>
        <time>2023-11-11T08:59:57Z</time>
      </trkpt>
      <trkpt lat="47.69333" lon="-2.29555">
        <ele>81</ele>
        <time>2023-11-11T09:01:07Z</time>
      </trkpt>
      <trkpt lat="47.69327" lon="-2.29511">
        <ele>79</ele>
        <time>2023-11-11T09:01:47Z</time>
      </trkpt>
      <trkpt lat="47.69328" lon="-2.29503">
        <ele>79</ele>
        <time>2023-11-11T09:01:54Z</time>
      </trkpt>
      <trkpt lat="47.69333" lon="-2.29494">
        <ele>80</ele>
        <time>2023-11-11T09:02:05Z</time>
      </trkpt>
      <trkpt lat="47.69333" lon="-2.29487">
        <ele>80</ele>
        <time>2023-11-11T09:02:11Z</time>
      </trkpt>
      <trkpt lat="47.6933" lon="-2.29483">
        <ele>79</ele>
        <time>2023-11-11T09:02:17Z</time>
      </trkpt>
      <trkpt lat="47.69332" lon="-2.29471">
        <ele>80</ele>
        <time>2023-11-11T09:02:28Z</time>
      </trkpt>
      <trkpt lat="47.69327" lon="-2.29414">
        <ele>78</ele>
        <time>2023-11-11T09:03:19Z</time>
      </trkpt>
      <trkpt lat="47.69328" lon="-2.29371">
        <ele>80</ele>
        <time>2023-11-11T09:03:58Z</time>
      </trkpt>
      <trkpt lat="47.6932" lon="-2.29326">
        <ele>80</ele>
        <time>2023-11-11T09:04:40Z</time>
      </trkpt>
      <trkpt lat="47.69325" lon="-2.29295">
        <ele>80</ele>
        <time>2023-11-11T09:05:08Z</time>
      </trkpt>
      <trkpt lat="47.69319" lon="-2.29207">
        <ele>81</ele>
        <time>2023-11-11T09:06:28Z</time>
      </trkpt>
      <trkpt lat="47.69322" lon="-2.29184">
        <ele>81</ele>
        <time>2023-11-11T09:06:49Z</time>
      </trkpt>
      <trkpt lat="47.69318" lon="-2.29166">
        <ele>82</ele>
        <time>2023-11-11T09:07:06Z</time>
      </trkpt>
      <trkpt lat="47.69322" lon="-2.2913">
        <ele>83</ele>
        <time>2023-11-11T09:07:39Z</time>
      </trkpt>
      <trkpt lat="47.69319" lon="-2.29109">
        <ele>84</ele>
        <time>2023-11-11T09:07:58Z</time>
      </trkpt>
      <trkpt lat="47.69321" lon="-2.29088">
        <ele>85</ele>
        <time>2023-11-11T09:08:17Z</time>
      </trkpt>
      <trkpt lat="47.69312" lon="-2.29036">
        <ele>85</ele>
        <time>2023-11-11T09:09:05Z</time>
      </trkpt>
      <trkpt lat="47.69312" lon="-2.28992">
        <ele>85</ele>
        <time>2023-11-11T09:09:45Z</time>
      </trkpt>
      <trkpt lat="47.69306" lon="-2.28954">
        <ele>84</ele>
        <time>2023-11-11T09:10:20Z</time>
      </trkpt>
      <trkpt lat="47.69311" lon="-2.28936">
        <ele>83</ele>
        <time>2023-11-11T09:10:37Z</time>
      </trkpt>
      <trkpt lat="47.69303" lon="-2.28884">
        <ele>82</ele>
        <time>2023-11-11T09:11:25Z</time>
      </trkpt>
      <trkpt lat="47.69304" lon="-2.28845">
        <ele>80</ele>
        <time>2023-11-11T09:12:00Z</time>
      </trkpt>
      <trkpt lat="47.69312" lon="-2.28816">
        <ele>79</ele>
        <time>2023-11-11T09:12:28Z</time>
      </trkpt>
      <trkpt lat="47.69311" lon="-2.28793">
        <ele>78</ele>
        <time>2023-11-11T09:12:49Z</time>
      </trkpt>
      <trkpt lat="47.69307" lon="-2.28778">
        <ele>77</ele>
        <time>2023-11-11T09:13:04Z</time>
      </trkpt>
      <trkpt lat="47.69306" lon="-2.28759">
        <ele>77</ele>
        <time>2023-11-11T09:13:21Z</time>
      </trkpt>
      <trkpt lat="47.69297" lon="-2.28735">
        <ele>77</ele>
        <time>2023-11-11T09:13:45Z</time>
      </trkpt>
      <trkpt lat="47.69296" lon="-2.28713">
        <ele>76</ele>
        <time>2023-11-11T09:14:05Z</time>
      </trkpt>
      <trkpt lat="47.6929" lon="-2.28711">
        <ele>77</ele>
        <time>2023-11-11T09:14:13Z</time>
      </trkpt>
      <trkpt lat="47.69289" lon="-2.28703">
        <ele>76</ele>
        <time>2023-11-11T09:14:21Z</time>
      </trkpt>
      <trkpt lat="47.69292" lon="-2.28701">
        <ele>76</ele>
        <time>2023-11-11T09:14:25Z</time>
      </trkpt>
      <trkpt lat="47.6929" lon="-2.287">
        <ele>76</ele>
        <time>2023-11-11T09:14:28Z</time>
      </trkpt>
      <trkpt lat="47.69291" lon="-2.28704">
        <ele>76</ele>
        <time>2023-11-11T09:14:32Z</time>
      </trkpt>
      <trkpt lat="47.69295" lon="-2.28707">
        <ele>76</ele>
        <time>2023-11-11T09:14:38Z</time>
      </trkpt>
      <trkpt lat="47.69294" lon="-2.2871">
        <ele>76</ele>
        <time>2023-11-11T09:14:41Z</time>
      </trkpt>
      <trkpt lat="47.69291" lon="-2.28706">
        <ele>76</ele>
        <time>2023-11-11T09:14:46Z</time>
      </trkpt>
      <trkpt lat="47.69281" lon="-2.28701">
        <ele>76</ele>
        <time>2023-11-11T09:15:00Z</time>
      </trkpt>
      <trkpt lat="47.69273" lon="-2.287">
        <ele>76</ele>
        <time>2023-11-11T09:15:11Z</time>
      </trkpt>
      <trkpt lat="47.69276" lon="-2.28703">
        <ele>77</ele>
        <time>2023-11-11T09:15:16Z</time>
      </trkpt>
      <trkpt lat="47.69287" lon="-2.28697">
        <ele>76</ele>
        <time>2023-11-11T09:15:31Z</time>
      </trkpt>
      <trkpt lat="47.69291" lon="-2.28698">
        <ele>76</ele>
        <time>2023-11-11T09:15:37Z</time>
      </trkpt>
      <trkpt lat="47.69297" lon="-2.28715">
        <ele>76</ele>
        <time>2023-11-11T09:15:54Z</time>
      </trkpt>
      <trkpt lat="47.693" lon="-2.28715">
        <ele>76</ele>
        <time>2023-11-11T09:15:58Z</time>
      </trkpt>
      <trkpt lat="47.69292" lon="-2.28704">
        <ele>76</ele>
        <time>2023-11-11T09:16:13Z</time>
      </trkpt>
      <trkpt lat="47.69282" lon="-2.28697">
        <ele>76</ele>
        <time>2023-11-11T09:16:27Z</time>
      </trkpt>
      <trkpt lat="47.69266" lon="-2.28707">
        <ele>77</ele>
        <time>2023-11-11T09:16:51Z</time>
      </trkpt>
      <trkpt lat="47.69254" lon="-2.28706">
        <ele>77</ele>
        <time>2023-11-11T09:17:07Z</time>
      </trkpt>
      <trkpt lat="47.69246" lon="-2.28715">
        <ele>77</ele>
        <time>2023-11-11T09:17:20Z</time>
      </trkpt>
      <trkpt lat="47.69214" lon="-2.28731">
        <ele>75</ele>
        <time>2023-11-11T09:18:05Z</time>
      </trkpt>
      <trkpt lat="47.69188" lon="-2.28732">
        <ele>73</ele>
        <time>2023-11-11T09:18:40Z</time>
      </trkpt>
      <trkpt lat="47.69174" lon="-2.28743">
        <ele>73</ele>
        <time>2023-11-11T09:19:01Z</time>
      </trkpt>
      <trkpt lat="47.69165" lon="-2.28758">
        <ele>73</ele>
        <time>2023-11-11T09:19:19Z</time>
      </trkpt>
      <trkpt lat="47.6916" lon="-2.28754">
        <ele>72</ele>
        <time>2023-11-11T09:19:26Z</time>
      </trkpt>
      <trkpt lat="47.69153" lon="-2.28755">
        <ele>71</ele>
        <time>2023-11-11T09:19:36Z</time>
      </trkpt>
      <trkpt lat="47.69152" lon="-2.28762">
        <ele>72</ele>
        <time>2023-11-11T09:19:42Z</time>
      </trkpt>
      <trkpt lat="47.6913" lon="-2.28758">
        <ele>68</ele>
        <time>2023-11-11T09:20:12Z</time>
      </trkpt>
      <trkpt lat="47.69106" lon="-2.28762">
        <ele>65</ele>
        <time>2023-11-11T09:20:44Z</time>
      </trkpt>
      <trkpt lat="47.69087" lon="-2.28758">
        <ele>62</ele>
        <time>2023-11-11T09:21:10Z</time>
      </trkpt>
      <trkpt lat="47.69038" lon="-2.28765">
        <ele>63</ele>
        <time>2023-11-11T09:22:15Z</time>
      </trkpt>
      <trkpt lat="47.69027" lon="-2.28761">
        <ele>63</ele>
        <time>2023-11-11T09:22:31Z</time>
      </trkpt>
      <trkpt lat="47.6901" lon="-2.2877">
        <ele>63</ele>
        <time>2023-11-11T09:22:55Z</time>
      </trkpt>
      <trkpt lat="47.68985" lon="-2.28777">
        <ele>64</ele>
        <time>2023-11-11T09:23:29Z</time>
      </trkpt>
      <trkpt lat="47.68954" lon="-2.28798">
        <ele>65</ele>
        <time>2023-11-11T09:24:14Z</time>
      </trkpt>
      <trkpt lat="47.68943" lon="-2.2881">
        <ele>65</ele>
        <time>2023-11-11T09:24:32Z</time>
      </trkpt>
      <trkpt lat="47.68932" lon="-2.28815">
        <ele>66</ele>
        <time>2023-11-11T09:24:48Z</time>
      </trkpt>
      <trkpt lat="47.68924" lon="-2.28826">
        <ele>66</ele>
        <time>2023-11-11T09:25:02Z</time>
      </trkpt>
      <trkpt lat="47.68916" lon="-2.28847">
        <ele>65</ele>
        <time>2023-11-11T09:25:24Z</time>
      </trkpt>
      <trkpt lat="47.68904" lon="-2.2886">
        <ele>65</ele>
        <time>2023-11-11T09:25:44Z</time>
      </trkpt>
      <trkpt lat="47.68889" lon="-2.2889">
        <ele>64</ele>
        <time>2023-11-11T09:26:17Z</time>
      </trkpt>
      <trkpt lat="47.68882" lon="-2.28898">
        <ele>64</ele>
        <time>2023-11-11T09:26:29Z</time>
      </trkpt>
      <trkpt lat="47.68866" lon="-2.28927">
        <ele>64</ele>
        <time>2023-11-11T09:27:03Z</time>
      </trkpt>
      <trkpt lat="47.68842" lon="-2.28955">
        <ele>64</ele>
        <time>2023-11-11T09:27:43Z</time>
      </trkpt>
      <trkpt lat="47.68826" lon="-2.28969">
        <ele>64</ele>
        <time>2023-11-11T09:28:08Z</time>
      </trkpt>
      <trkpt lat="47.68801" lon="-2.28986">
        <ele>64</ele>
        <time>2023-11-11T09:28:45Z</time>
      </trkpt>
      <trkpt lat="47.68791" lon="-2.28996">
        <ele>64</ele>
        <time>2023-11-11T09:29:01Z</time>
      </trkpt>
      <trkpt lat="47.68773" lon="-2.29002">
        <ele>65</ele>
        <time>2023-11-11T09:29:26Z</time>
      </trkpt>
      <trkpt lat="47.68764" lon="-2.29002">
        <ele>65</ele>
        <time>2023-11-11T09:29:38Z</time>
      </trkpt>
      <trkpt lat="47.68758" lon="-2.29007">
        <ele>65</ele>
        <time>2023-11-11T09:29:47Z</time>
      </trkpt>
      <trkpt lat="47.6875" lon="-2.29009">
        <ele>66</ele>
        <time>2023-11-11T09:29:58Z</time>
      </trkpt>
      <trkpt lat="47.68744" lon="-2.29008">
        <ele>66</ele>
        <time>2023-11-11T09:30:06Z</time>
      </trkpt>
      <trkpt lat="47.6874" lon="-2.28999">
        <ele>67</ele>
        <time>2023-11-11T09:30:15Z</time>
      </trkpt>
      <trkpt lat="47.68739" lon="-2.28972">
        <ele>68</ele>
        <time>2023-11-11T09:30:40Z</time>
      </trkpt>
      <trkpt lat="47.68749" lon="-2.28942">
        <ele>70</ele>
        <time>2023-11-11T09:31:10Z</time>
      </trkpt>
      <trkpt lat="47.6875" lon="-2.28931">
        <ele>70</ele>
        <time>2023-11-11T09:31:20Z</time>
      </trkpt>
      <trkpt lat="47.68754" lon="-2.28925">
        <ele>70</ele>
        <time>2023-11-11T09:31:27Z</time>
      </trkpt>
      <trkpt lat="47.68755" lon="-2.28906">
        <ele>71</ele>
        <time>2023-11-11T09:31:44Z</time>
      </trkpt>
      <trkpt lat="47.68767" lon="-2.2883">
        <ele>74</ele>
        <time>2023-11-11T09:32:54Z</time>
      </trkpt>
      <trkpt lat="47.68776" lon="-2.28807">
        <ele>75</ele>
        <time>2023-11-11T09:33:18Z</time>
      </trkpt>
      <trkpt lat="47.68773" lon="-2.28778">
        <ele>75</ele>
        <time>2023-11-11T09:33:45Z</time>
      </trkpt>
      <trkpt lat="47.68764" lon="-2.28762">
        <ele>75</ele>
        <time>2023-11-11T09:34:03Z</time>
      </trkpt>
      <trkpt lat="47.68758" lon="-2.28743">
        <ele>75</ele>
        <time>2023-11-11T09:34:22Z</time>
      </trkpt>
      <trkpt lat="47.68756" lon="-2.28718">
        <ele>76</ele>
        <time>2023-11-11T09:34:45Z</time>
      </trkpt>
      <trkpt lat="47.68751" lon="-2.28714">
        <ele>75</ele>
        <time>2023-11-11T09:34:53Z</time>
      </trkpt>
      <trkpt lat="47.68738" lon="-2.28714">
        <ele>76</ele>
        <time>2023-11-11T09:35:10Z</time>
      </trkpt>
      <trkpt lat="47.68731" lon="-2.28719">
        <ele>76</ele>
        <time>2023-11-11T09:35:20Z</time>
      </trkpt>
      <trkpt lat="47.68725" lon="-2.2872">
        <ele>76</ele>
        <time>2023-11-11T09:35:28Z</time>
      </trkpt>
      <trkpt lat="47.68708" lon="-2.28732">
        <ele>76</ele>
        <time>2023-11-11T09:35:53Z</time>
      </trkpt>
      <trkpt lat="47.6868" lon="-2.28744">
        <ele>76</ele>
        <time>2023-11-11T09:36:32Z</time>
      </trkpt>
      <trkpt lat="47.68674" lon="-2.28749">
        <ele>76</ele>
        <time>2023-11-11T09:36:41Z</time>
      </trkpt>
      <trkpt lat="47.6867" lon="-2.28766">
        <ele>76</ele>
        <time>2023-11-11T09:36:58Z</time>
      </trkpt>
      <trkpt lat="47.68661" lon="-2.28778">
        <ele>76</ele>
        <time>2023-11-11T09:37:14Z</time>
      </trkpt>
      <trkpt lat="47.68651" lon="-2.28783">
        <ele>76</ele>
        <time>2023-11-11T09:37:28Z</time>
      </trkpt>
      <trkpt lat="47.68643" lon="-2.28783">
        <ele>76</ele>
        <time>2023-11-11T09:37:39Z</time>
      </trkpt>
      <trkpt lat="47.68641" lon="-2.28787">
        <ele>76</ele>
        <time>2023-11-11T09:37:43Z</time>
      </trkpt>
      <trkpt lat="47.68622" lon="-2.28787">
        <ele>77</ele>
        <time>2023-11-11T09:38:08Z</time>
      </trkpt>
      <trkpt lat="47.68602" lon="-2.28777">
        <ele>77</ele>
        <time>2023-11-11T09:38:37Z</time>
      </trkpt>
      <trkpt lat="47.68594" lon="-2.28789">
        <ele>77</ele>
        <time>2023-11-11T09:38:52Z</time>
      </trkpt>
      <trkpt lat="47.68573" lon="-2.28833">
        <ele>78</ele>
        <time>2023-11-11T09:39:40Z</time>
      </trkpt>
      <trkpt lat="47.68562" lon="-2.2884">
        <ele>78</ele>
        <time>2023-11-11T09:39:56Z</time>
      </trkpt>
      <trkpt lat="47.68554" lon="-2.28841">
        <ele>77</ele>
        <time>2023-11-11T09:40:07Z</time>
      </trkpt>
      <trkpt lat="47.68539" lon="-2.28849">
        <ele>77</ele>
        <time>2023-11-11T09:40:28Z</time>
      </trkpt>
      <trkpt lat="47.6852" lon="-2.28864">
        <ele>77</ele>
        <time>2023-11-11T09:40:57Z</time>
      </trkpt>
      <trkpt lat="47.68513" lon="-2.28867">
        <ele>77</ele>
        <time>2023-11-11T09:41:07Z</time>
      </trkpt>
      <trkpt lat="47.68479" lon="-2.28898">
        <ele>76</ele>
        <time>2023-11-11T09:42:00Z</time>
      </trkpt>
      <trkpt lat="47.68474" lon="-2.28923">
        <ele>76</ele>
        <time>2023-11-11T09:42:23Z</time>
      </trkpt>
      <trkpt lat="47.68468" lon="-2.28939">
        <ele>76</ele>
        <time>2023-11-11T09:42:40Z</time>
      </trkpt>
      <trkpt lat="47.68461" lon="-2.28943">
        <ele>76</ele>
        <time>2023-11-11T09:42:50Z</time>
      </trkpt>
      <trkpt lat="47.68449" lon="-2.28967">
        <ele>76</ele>
        <time>2023-11-11T09:43:17Z</time>
      </trkpt>
      <trkpt lat="47.68446" lon="-2.28982">
        <ele>75</ele>
        <time>2023-11-11T09:43:31Z</time>
      </trkpt>
      <trkpt lat="47.68437" lon="-2.29004">
        <ele>75</ele>
        <time>2023-11-11T09:43:54Z</time>
      </trkpt>
      <trkpt lat="47.68436" lon="-2.29018">
        <ele>75</ele>
        <time>2023-11-11T09:44:06Z</time>
      </trkpt>
      <trkpt lat="47.68441" lon="-2.29061">
        <ele>74</ele>
        <time>2023-11-11T09:44:46Z</time>
      </trkpt>
      <trkpt lat="47.68438" lon="-2.29078">
        <ele>73</ele>
        <time>2023-11-11T09:45:01Z</time>
      </trkpt>
      <trkpt lat="47.68442" lon="-2.29079">
        <ele>73</ele>
        <time>2023-11-11T09:45:07Z</time>
      </trkpt>
      <trkpt lat="47.68438" lon="-2.2908">
        <ele>73</ele>
        <time>2023-11-11T09:45:12Z</time>
      </trkpt>
      <trkpt lat="47.68437" lon="-2.29078">
        <ele>73</ele>
        <time>2023-11-11T09:45:14Z</time>
      </trkpt>
      <trkpt lat="47.68438" lon="-2.29082">
        <ele>73</ele>
        <time>2023-11-11T09:45:18Z</time>
      </trkpt>
      <trkpt lat="47.68426" lon="-2.29091">
        <ele>72</ele>
        <time>2023-11-11T09:45:36Z</time>
      </trkpt>
      <trkpt lat="47.68407" lon="-2.29095">
        <ele>72</ele>
        <time>2023-11-11T09:46:02Z</time>
      </trkpt>
      <trkpt lat="47.6838" lon="-2.29093">
        <ele>73</ele>
        <time>2023-11-11T09:46:38Z</time>
      </trkpt>
      <trkpt lat="47.68352" lon="-2.29095">
        <ele>74</ele>
        <time>2023-11-11T09:47:15Z</time>
      </trkpt>
      <trkpt lat="47.68331" lon="-2.29088">
        <ele>75</ele>
        <time>2023-11-11T09:47:44Z</time>
      </trkpt>
      <trkpt lat="47.68307" lon="-2.29077">
        <ele>76</ele>
        <time>2023-11-11T09:48:18Z</time>
      </trkpt>
      <trkpt lat="47.683" lon="-2.29076">
        <ele>76</ele>
        <time>2023-11-11T09:48:27Z</time>
      </trkpt>
      <trkpt lat="47.68273" lon="-2.29062">
        <ele>77</ele>
        <time>2023-11-11T09:49:05Z</time>
      </trkpt>
      <trkpt lat="47.68224" lon="-2.29031">
        <ele>79</ele>
        <time>2023-11-11T09:50:16Z</time>
      </trkpt>
      <trkpt lat="47.68199" lon="-2.29012">
        <ele>80</ele>
        <time>2023-11-11T09:50:54Z</time>
      </trkpt>
      <trkpt lat="47.68194" lon="-2.29009">
        <ele>80</ele>
        <time>2023-11-11T09:51:01Z</time>
      </trkpt>
      <trkpt lat="47.68185" lon="-2.29008">
        <ele>80</ele>
        <time>2023-11-11T09:51:13Z</time>
      </trkpt>
      <trkpt lat="47.68151" lon="-2.28985">
        <ele>82</ele>
        <time>2023-11-11T09:52:03Z</time>
      </trkpt>
      <trkpt lat="47.6813" lon="-2.28976">
        <ele>83</ele>
        <time>2023-11-11T09:52:32Z</time>
      </trkpt>
      <trkpt lat="47.68115" lon="-2.28964">
        <ele>84</ele>
        <time>2023-11-11T09:52:55Z</time>
      </trkpt>
      <trkpt lat="47.68097" lon="-2.28959">
        <ele>85</ele>
        <time>2023-11-11T09:53:19Z</time>
      </trkpt>
      <trkpt lat="47.68089" lon="-2.28962">
        <ele>85</ele>
        <time>2023-11-11T09:53:30Z</time>
      </trkpt>
      <trkpt lat="47.68084" lon="-2.28971">
        <ele>85</ele>
        <time>2023-11-11T09:53:41Z</time>
      </trkpt>
      <trkpt lat="47.68072" lon="-2.29008">
        <ele>85</ele>
        <time>2023-11-11T09:54:17Z</time>
      </trkpt>
      <trkpt lat="47.68057" lon="-2.29033">
        <ele>84</ele>
        <time>2023-11-11T09:54:48Z</time>
      </trkpt>
      <trkpt lat="47.68032" lon="-2.29058">
        <ele>83</ele>
        <time>2023-11-11T09:55:28Z</time>
      </trkpt>
      <trkpt lat="47.68007" lon="-2.29109">
        <ele>82</ele>
        <time>2023-11-11T09:56:24Z</time>
      </trkpt>
      <trkpt lat="47.67994" lon="-2.29126">
        <ele>83</ele>
        <time>2023-11-11T09:56:48Z</time>
      </trkpt>
      <trkpt lat="47.67982" lon="-2.29157">
        <ele>83</ele>
        <time>2023-11-11T09:57:20Z</time>
      </trkpt>
      <trkpt lat="47.67949" lon="-2.29188">
        <ele>83</ele>
        <time>2023-11-11T09:58:12Z</time>
      </trkpt>
      <trkpt lat="47.67937" lon="-2.29195">
        <ele>83</ele>
        <time>2023-11-11T09:58:29Z</time>
      </trkpt>
      <trkpt lat="47.67928" lon="-2.29197">
        <ele>83</ele>
        <time>2023-11-11T09:58:41Z</time>
      </trkpt>
      <trkpt lat="47.67915" lon="-2.29211">
        <ele>83</ele>
        <time>2023-11-11T09:59:03Z</time>
      </trkpt>
      <trkpt lat="47.67903" lon="-2.29217">
        <ele>83</ele>
        <time>2023-11-11T09:59:19Z</time>
      </trkpt>
      <trkpt lat="47.67893" lon="-2.29234">
        <ele>84</ele>
        <time>2023-11-11T09:59:40Z</time>
      </trkpt>
      <trkpt lat="47.67879" lon="-2.29251">
        <ele>84</ele>
        <time>2023-11-11T10:00:04Z</time>
      </trkpt>
      <trkpt lat="47.6787" lon="-2.29269">
        <ele>84</ele>
        <time>2023-11-11T10:00:24Z</time>
      </trkpt>
      <trkpt lat="47.67846" lon="-2.29298">
        <ele>84</ele>
        <time>2023-11-11T10:01:05Z</time>
      </trkpt>
      <trkpt lat="47.67833" lon="-2.29333">
        <ele>83</ele>
        <time>2023-11-11T10:01:41Z</time>
      </trkpt>
      <trkpt lat="47.6781" lon="-2.29382">
        <ele>84</ele>
        <time>2023-11-11T10:02:35Z</time>
      </trkpt>
      <trkpt lat="47.67803" lon="-2.29389">
        <ele>84</ele>
        <time>2023-11-11T10:02:46Z</time>
      </trkpt>
      <trkpt lat="47.67794" lon="-2.29391">
        <ele>84</ele>
        <time>2023-11-11T10:02:58Z</time>
      </trkpt>
      <trkpt lat="47.67788" lon="-2.29397">
        <ele>84</ele>
        <time>2023-11-11T10:03:08Z</time>
      </trkpt>
      <trkpt lat="47.67792" lon="-2.29415">
        <ele>84</ele>
        <time>2023-11-11T10:03:25Z</time>
      </trkpt>
      <trkpt lat="47.67791" lon="-2.29424">
        <ele>85</ele>
        <time>2023-11-11T10:03:33Z</time>
      </trkpt>
      <trkpt lat="47.67785" lon="-2.29434">
        <ele>85</ele>
        <time>2023-11-11T10:03:45Z</time>
      </trkpt>
      <trkpt lat="47.67788" lon="-2.29432">
        <ele>85</ele>
        <time>2023-11-11T10:03:50Z</time>
      </trkpt>
      <trkpt lat="47.6778" lon="-2.29461">
        <ele>85</ele>
        <time>2023-11-11T10:04:18Z</time>
      </trkpt>
      <trkpt lat="47.67781" lon="-2.29474">
        <ele>85</ele>
        <time>2023-11-11T10:04:30Z</time>
      </trkpt>
      <trkpt lat="47.67788" lon="-2.29502">
        <ele>86</ele>
        <time>2023-11-11T10:04:56Z</time>
      </trkpt>
      <trkpt lat="47.67781" lon="-2.29524">
        <ele>86</ele>
        <time>2023-11-11T10:05:18Z</time>
      </trkpt>
      <trkpt lat="47.67771" lon="-2.2953">
        <ele>86</ele>
        <time>2023-11-11T10:05:33Z</time>
      </trkpt>
      <trkpt lat="47.67771" lon="-2.29536">
        <ele>86</ele>
        <time>2023-11-11T10:05:38Z</time>
      </trkpt>
      <trkpt lat="47.67777" lon="-2.29548">
        <ele>85</ele>
        <time>2023-11-11T10:05:51Z</time>
      </trkpt>
      <trkpt lat="47.67779" lon="-2.29559">
        <ele>85</ele>
        <time>2023-11-11T10:06:02Z</time>
      </trkpt>
      <trkpt lat="47.67773" lon="-2.29574">
        <ele>85</ele>
        <time>2023-11-11T10:06:17Z</time>
      </trkpt>
      <trkpt lat="47.67769" lon="-2.29603">
        <ele>86</ele>
        <time>2023-11-11T10:06:44Z</time>
      </trkpt>
      <trkpt lat="47.67763" lon="-2.29615">
        <ele>86</ele>
        <time>2023-11-11T10:06:57Z</time>
      </trkpt>
      <trkpt lat="47.67762" lon="-2.29633">
        <ele>86</ele>
        <time>2023-11-11T10:07:14Z</time>
      </trkpt>
      <trkpt lat="47.67768" lon="-2.2964">
        <ele>86</ele>
        <time>2023-11-11T10:07:24Z</time>
      </trkpt>
      <trkpt lat="47.67762" lon="-2.29638">
        <ele>86</ele>
        <time>2023-11-11T10:07:32Z</time>
      </trkpt>
      <trkpt lat="47.67746" lon="-2.29654">
        <ele>86</ele>
        <time>2023-11-11T10:07:58Z</time>
      </trkpt>
      <trkpt lat="47.67744" lon="-2.29667">
        <ele>86</ele>
        <time>2023-11-11T10:08:10Z</time>
      </trkpt>
      <trkpt lat="47.67749" lon="-2.29682">
        <ele>86</ele>
        <time>2023-11-11T10:08:25Z</time>
      </trkpt>
      <trkpt lat="47.67746" lon="-2.29693">
        <ele>86</ele>
        <time>2023-11-11T10:08:35Z</time>
      </trkpt>
      <trkpt lat="47.67738" lon="-2.29705">
        <ele>86</ele>
        <time>2023-11-11T10:08:51Z</time>
      </trkpt>
      <trkpt lat="47.6775" lon="-2.29726">
        <ele>86</ele>
        <time>2023-11-11T10:09:15Z</time>
      </trkpt>
      <trkpt lat="47.67749" lon="-2.29752">
        <ele>86</ele>
        <time>2023-11-11T10:09:39Z</time>
      </trkpt>
      <trkpt lat="47.67747" lon="-2.29746">
        <ele>86</ele>
        <time>2023-11-11T10:09:45Z</time>
      </trkpt>
      <trkpt lat="47.67746" lon="-2.29749">
        <ele>86</ele>
        <time>2023-11-11T10:09:48Z</time>
      </trkpt>
      <trkpt lat="47.67744" lon="-2.29745">
        <ele>86</ele>
        <time>2023-11-11T10:09:52Z</time>
      </trkpt>
      <trkpt lat="47.67748" lon="-2.29747">
        <ele>86</ele>
        <time>2023-11-11T10:09:58Z</time>
      </trkpt>
      <trkpt lat="47.67749" lon="-2.29744">
        <ele>86</ele>
        <time>2023-11-11T10:10:01Z</time>
      </trkpt>
      <trkpt lat="47.67751" lon="-2.29746">
        <ele>86</ele>
        <time>2023-11-11T10:10:04Z</time>
      </trkpt>
      <trkpt lat="47.67749" lon="-2.2974">
        <ele>86</ele>
        <time>2023-11-11T10:10:10Z</time>
      </trkpt>
      <trkpt lat="47.67751" lon="-2.29723">
        <ele>86</ele>
        <time>2023-11-11T10:10:26Z</time>
      </trkpt>
      <trkpt lat="47.67749" lon="-2.29721">
        <ele>86</ele>
        <time>2023-11-11T10:10:29Z</time>
      </trkpt>
      <trkpt lat="47.67747" lon="-2.29723">
        <ele>86</ele>
        <time>2023-11-11T10:10:32Z</time>
      </trkpt>
      <trkpt lat="47.67747" lon="-2.29721">
        <ele>86</ele>
        <time>2023-11-11T10:10:34Z</time>
      </trkpt>
      <trkpt lat="47.67751" lon="-2.2972">
        <ele>86</ele>
        <time>2023-11-11T10:10:39Z</time>
      </trkpt>
      <trkpt lat="47.67746" lon="-2.29724">
        <ele>86</ele>
        <time>2023-11-11T10:10:47Z</time>
      </trkpt>
      <trkpt lat="47.67745" lon="-2.2972">
        <ele>86</ele>
        <time>2023-11-11T10:10:51Z</time>
      </trkpt>
      <trkpt lat="47.67749" lon="-2.2972">
        <ele>86</ele>
        <time>2023-11-11T10:10:56Z</time>
      </trkpt>
      <trkpt lat="47.67739" lon="-2.2972">
        <ele>86</ele>
        <time>2023-11-11T10:11:09Z</time>
      </trkpt>
      <trkpt lat="47.67736" lon="-2.29725">
        <ele>86</ele>
        <time>2023-11-11T10:11:15Z</time>
      </trkpt>
      <trkpt lat="47.67743" lon="-2.29724">
        <ele>86</ele>
        <time>2023-11-11T10:11:25Z</time>
      </trkpt>
      <trkpt lat="47.67749" lon="-2.29716">
        <ele>86</ele>
        <time>2023-11-11T10:11:35Z</time>
      </trkpt>
      <trkpt lat="47.67749" lon="-2.2972">
        <ele>86</ele>
        <time>2023-11-11T10:11:39Z</time>
      </trkpt>
      <trkpt lat="47.67747" lon="-2.29719">
        <ele>86</ele>
        <time>2023-11-11T10:11:42Z</time>
      </trkpt>
      <trkpt lat="47.6775" lon="-2.2972">
        <ele>86</ele>
        <time>2023-11-11T10:11:46Z</time>
      </trkpt>
      <trkpt lat="47.67748" lon="-2.29718">
        <ele>86</ele>
        <time>2023-11-11T10:11:49Z</time>
      </trkpt>
      <trkpt lat="47.67745" lon="-2.29727">
        <ele>86</ele>
        <time>2023-11-11T10:11:58Z</time>
      </trkpt>
      <trkpt lat="47.67742" lon="-2.29729">
        <ele>86</ele>
        <time>2023-11-11T10:12:03Z</time>
      </trkpt>
      <trkpt lat="47.67746" lon="-2.29717">
        <ele>86</ele>
        <time>2023-11-11T10:12:15Z</time>
      </trkpt>
      <trkpt lat="47.67759" lon="-2.29704">
        <ele>86</ele>
        <time>2023-11-11T10:12:36Z</time>
      </trkpt>
      <trkpt lat="47.67747" lon="-2.29718">
        <ele>86</ele>
        <time>2023-11-11T10:12:56Z</time>
      </trkpt>
      <trkpt lat="47.67739" lon="-2.2972">
        <ele>86</ele>
        <time>2023-11-11T10:13:07Z</time>
      </trkpt>
      <trkpt lat="47.6774" lon="-2.29711">
        <ele>86</ele>
        <time>2023-11-11T10:13:15Z</time>
      </trkpt>
      <trkpt lat="47.67743" lon="-2.29711">
        <ele>86</ele>
        <time>2023-11-11T10:13:19Z</time>
      </trkpt>
      <trkpt lat="47.67749" lon="-2.29717">
        <ele>86</ele>
        <time>2023-11-11T10:13:29Z</time>
      </trkpt>
      <trkpt lat="47.67747" lon="-2.29715">
        <ele>86</ele>
        <time>2023-11-11T10:13:32Z</time>
      </trkpt>
      <trkpt lat="47.67746" lon="-2.29717">
        <ele>86</ele>
        <time>2023-11-11T10:13:34Z</time>
      </trkpt>
      <trkpt lat="47.67744" lon="-2.29711">
        <ele>86</ele>
        <time>2023-11-11T10:13:40Z</time>
      </trkpt>
      <trkpt lat="47.67749" lon="-2.29708">
        <ele>86</ele>
        <time>2023-11-11T10:13:47Z</time>
      </trkpt>
      <trkpt lat="47.67746" lon="-2.29706">
        <ele>86</ele>
        <time>2023-11-11T10:13:52Z</time>
      </trkpt>
      <trkpt lat="47.67743" lon="-2.29707">
        <ele>86</ele>
        <time>2023-11-11T10:13:56Z</time>
      </trkpt>
      <trkpt lat="47.67751" lon="-2.29709">
        <ele>86</ele>
        <time>2023-11-11T10:14:07Z</time>
      </trkpt>
      <trkpt lat="47.67755" lon="-2.2972">
        <ele>86</ele>
        <time>2023-11-11T10:14:18Z</time>
      </trkpt>
      <trkpt lat="47.67746" lon="-2.29717">
        <ele>86</ele>
        <time>2023-11-11T10:14:30Z</time>
      </trkpt>
      <trkpt lat="47.67745" lon="-2.29712">
        <ele>86</ele>
        <time>2023-11-11T10:14:35Z</time>
      </trkpt>
      <trkpt lat="47.67745" lon="-2.29719">
        <ele>86</ele>
        <time>2023-11-11T10:14:41Z</time>
      </trkpt>
      <trkpt lat="47.67748" lon="-2.29717">
        <ele>86</ele>
        <time>2023-11-11T10:14:46Z</time>
      </trkpt>
      <trkpt lat="47.67747" lon="-2.29726">
        <ele>86</ele>
        <time>2023-11-11T10:14:54Z</time>
      </trkpt>
      <trkpt lat="47.67752" lon="-2.29719">
        <ele>86</ele>
        <time>2023-11-11T10:15:03Z</time>
      </trkpt>
      <trkpt lat="47.67751" lon="-2.29723">
        <ele>86</ele>
        <time>2023-11-11T10:15:07Z</time>
      </trkpt>
      <trkpt lat="47.67751" lon="-2.29719">
        <ele>86</ele>
        <time>2023-11-11T10:15:10Z</time>
      </trkpt>
      <trkpt lat="47.67747" lon="-2.29719">
        <ele>86</ele>
        <time>2023-11-11T10:15:16Z</time>
      </trkpt>
      <trkpt lat="47.67749" lon="-2.29724">
        <ele>86</ele>
        <time>2023-11-11T10:15:21Z</time>
      </trkpt>
      <trkpt lat="47.67751" lon="-2.29722">
        <ele>86</ele>
        <time>2023-11-11T10:15:24Z</time>
      </trkpt>
      <trkpt lat="47.67749" lon="-2.29732">
        <ele>86</ele>
        <time>2023-11-11T10:15:33Z</time>
      </trkpt>
      <trkpt lat="47.67751" lon="-2.29731">
        <ele>86</ele>
        <time>2023-11-11T10:15:36Z</time>
      </trkpt>
      <trkpt lat="47.67745" lon="-2.29745">
        <ele>86</ele>
        <time>2023-11-11T10:15:51Z</time>
      </trkpt>
      <trkpt lat="47.67736" lon="-2.29749">
        <ele>86</ele>
        <time>2023-11-11T10:16:04Z</time>
      </trkpt>
      <trkpt lat="47.67731" lon="-2.29745">
        <ele>86</ele>
        <time>2023-11-11T10:16:11Z</time>
      </trkpt>
      <trkpt lat="47.67724" lon="-2.29747">
        <ele>86</ele>
        <time>2023-11-11T10:16:21Z</time>
      </trkpt>
      <trkpt lat="47.67717" lon="-2.29795">
        <ele>85</ele>
        <time>2023-11-11T10:17:05Z</time>
      </trkpt>
      <trkpt lat="47.67719" lon="-2.29803">
        <ele>85</ele>
        <time>2023-11-11T10:17:13Z</time>
      </trkpt>
      <trkpt lat="47.67716" lon="-2.29828">
        <ele>84</ele>
        <time>2023-11-11T10:17:35Z</time>
      </trkpt>
      <trkpt lat="47.67718" lon="-2.29852">
        <ele>84</ele>
        <time>2023-11-11T10:17:57Z</time>
      </trkpt>
      <trkpt lat="47.67714" lon="-2.29887">
        <ele>82</ele>
        <time>2023-11-11T10:18:29Z</time>
      </trkpt>
      <trkpt lat="47.67716" lon="-2.29898">
        <ele>82</ele>
        <time>2023-11-11T10:18:39Z</time>
      </trkpt>
      <trkpt lat="47.67712" lon="-2.29906">
        <ele>82</ele>
        <time>2023-11-11T10:18:48Z</time>
      </trkpt>
      <trkpt lat="47.6771" lon="-2.29918">
        <ele>81</ele>
        <time>2023-11-11T10:18:59Z</time>
      </trkpt>
      <trkpt lat="47.67707" lon="-2.29982">
        <ele>80</ele>
        <time>2023-11-11T10:19:57Z</time>
      </trkpt>
      <trkpt lat="47.67709" lon="-2.29992">
        <ele>80</ele>
        <time>2023-11-11T10:20:06Z</time>
      </trkpt>
      <trkpt lat="47.6772" lon="-2.30005">
        <ele>80</ele>
        <time>2023-11-11T10:20:25Z</time>
      </trkpt>
      <trkpt lat="47.6772" lon="-2.3001">
        <ele>80</ele>
        <time>2023-11-11T10:20:30Z</time>
      </trkpt>
      <trkpt lat="47.67728" lon="-2.30029">
        <ele>80</ele>
        <time>2023-11-11T10:20:50Z</time>
      </trkpt>
      <trkpt lat="47.67737" lon="-2.30037">
        <ele>80</ele>
        <time>2023-11-11T10:21:04Z</time>
      </trkpt>
      <trkpt lat="47.67746" lon="-2.30051">
        <ele>80</ele>
        <time>2023-11-11T10:21:21Z</time>
      </trkpt>
      <trkpt lat="47.67746" lon="-2.30075">
        <ele>80</ele>
        <time>2023-11-11T10:21:43Z</time>
      </trkpt>
      <trkpt lat="47.6775" lon="-2.30082">
        <ele>80</ele>
        <time>2023-11-11T10:21:51Z</time>
      </trkpt>
      <trkpt lat="47.67751" lon="-2.30093">
        <ele>80</ele>
        <time>2023-11-11T10:22:01Z</time>
      </trkpt>
      <trkpt lat="47.67748" lon="-2.30123">
        <ele>81</ele>
        <time>2023-11-11T10:22:28Z</time>
      </trkpt>
      <trkpt lat="47.67736" lon="-2.30157">
        <ele>82</ele>
        <time>2023-11-11T10:23:03Z</time>
      </trkpt>
      <trkpt lat="47.67723" lon="-2.30179">
        <ele>83</ele>
        <time>2023-11-11T10:23:29Z</time>
      </trkpt>
      <trkpt lat="47.677" lon="-2.30242">
        <ele>82</ele>
        <time>2023-11-11T10:24:33Z</time>
      </trkpt>
      <trkpt lat="47.67697" lon="-2.30267">
        <ele>82</ele>
        <time>2023-11-11T10:24:56Z</time>
      </trkpt>
      <trkpt lat="47.67677" lon="-2.30341">
        <ele>82</ele>
        <time>2023-11-11T10:26:08Z</time>
      </trkpt>
      <trkpt lat="47.67668" lon="-2.30399">
        <ele>83</ele>
        <time>2023-11-11T10:27:01Z</time>
      </trkpt>
      <trkpt lat="47.67667" lon="-2.30437">
        <ele>83</ele>
        <time>2023-11-11T10:27:35Z</time>
      </trkpt>
      <trkpt lat="47.67659" lon="-2.30509">
        <ele>85</ele>
        <time>2023-11-11T10:28:41Z</time>
      </trkpt>
      <trkpt lat="47.67639" lon="-2.30571">
        <ele>84</ele>
        <time>2023-11-11T10:29:43Z</time>
      </trkpt>
      <trkpt lat="47.67631" lon="-2.30624">
        <ele>84</ele>
        <time>2023-11-11T10:30:32Z</time>
      </trkpt>
      <trkpt lat="47.67622" lon="-2.30636">
        <ele>84</ele>
        <time>2023-11-11T10:30:48Z</time>
      </trkpt>
      <trkpt lat="47.67619" lon="-2.30647">
        <ele>84</ele>
        <time>2023-11-11T10:30:58Z</time>
      </trkpt>
      <trkpt lat="47.67628" lon="-2.30661">
        <ele>84</ele>
        <time>2023-11-11T10:31:16Z</time>
      </trkpt>
      <trkpt lat="47.67628" lon="-2.30672">
        <ele>84</ele>
        <time>2023-11-11T10:31:26Z</time>
      </trkpt>
      <trkpt lat="47.67615" lon="-2.30742">
        <ele>84</ele>
        <time>2023-11-11T10:32:31Z</time>
      </trkpt>
      <trkpt lat="47.6761" lon="-2.30822">
        <ele>84</ele>
        <time>2023-11-11T10:33:43Z</time>
      </trkpt>
      <trkpt lat="47.67602" lon="-2.30839">
        <ele>84</ele>
        <time>2023-11-11T10:34:02Z</time>
      </trkpt>
      <trkpt lat="47.67563" lon="-2.30877">
        <ele>83</ele>
        <time>2023-11-11T10:35:04Z</time>
      </trkpt>
      <trkpt lat="47.67548" lon="-2.30927">
        <ele>84</ele>
        <time>2023-11-11T10:35:53Z</time>
      </trkpt>
      <trkpt lat="47.67522" lon="-2.30989">
        <ele>84</ele>
        <time>2023-11-11T10:36:59Z</time>
      </trkpt>
      <trkpt lat="47.67518" lon="-2.31019">
        <ele>84</ele>
        <time>2023-11-11T10:37:26Z</time>
      </trkpt>
      <trkpt lat="47.67515" lon="-2.31026">
        <ele>84</ele>
        <time>2023-11-11T10:37:34Z</time>
      </trkpt>
      <trkpt lat="47.67512" lon="-2.31153">
        <ele>86</ele>
        <time>2023-11-11T10:39:28Z</time>
      </trkpt>
      <trkpt lat="47.67515" lon="-2.31171">
        <ele>87</ele>
        <time>2023-11-11T10:39:45Z</time>
      </trkpt>
      <trkpt lat="47.6752" lon="-2.31181">
        <ele>87</ele>
        <time>2023-11-11T10:39:56Z</time>
      </trkpt>
      <trkpt lat="47.67531" lon="-2.31194">
        <ele>87</ele>
        <time>2023-11-11T10:40:15Z</time>
      </trkpt>
      <trkpt lat="47.67538" lon="-2.31211">
        <ele>87</ele>
        <time>2023-11-11T10:40:32Z</time>
      </trkpt>
      <trkpt lat="47.67566" lon="-2.31235">
        <ele>88</ele>
        <time>2023-11-11T10:41:16Z</time>
      </trkpt>
      <trkpt lat="47.67581" lon="-2.31258">
        <ele>88</ele>
        <time>2023-11-11T10:41:44Z</time>
      </trkpt>
      <trkpt lat="47.67592" lon="-2.31265">
        <ele>88</ele>
        <time>2023-11-11T10:42:00Z</time>
      </trkpt>
      <trkpt lat="47.67597" lon="-2.3128">
        <ele>88</ele>
        <time>2023-11-11T10:42:15Z</time>
      </trkpt>
      <trkpt lat="47.67609" lon="-2.31301">
        <ele>88</ele>
        <time>2023-11-11T10:42:40Z</time>
      </trkpt>
      <trkpt lat="47.67615" lon="-2.3132">
        <ele>87</ele>
        <time>2023-11-11T10:42:59Z</time>
      </trkpt>
      <trkpt lat="47.67627" lon="-2.31338">
        <ele>87</ele>
        <time>2023-11-11T10:43:22Z</time>
      </trkpt>
      <trkpt lat="47.67644" lon="-2.31356">
        <ele>86</ele>
        <time>2023-11-11T10:43:50Z</time>
      </trkpt>
      <trkpt lat="47.67654" lon="-2.31358">
        <ele>86</ele>
        <time>2023-11-11T10:44:03Z</time>
      </trkpt>
      <trkpt lat="47.67661" lon="-2.31362">
        <ele>86</ele>
        <time>2023-11-11T10:44:13Z</time>
      </trkpt>
      <trkpt lat="47.67661" lon="-2.31364">
        <ele>86</ele>
        <time>2023-11-11T10:44:15Z</time>
      </trkpt>
      <trkpt lat="47.67659" lon="-2.31362">
        <ele>86</ele>
        <time>2023-11-11T10:44:18Z</time>
      </trkpt>
      <trkpt lat="47.6766" lon="-2.31364">
        <ele>86</ele>
        <time>2023-11-11T10:44:20Z</time>
      </trkpt>
      <trkpt lat="47.67663" lon="-2.31362">
        <ele>86</ele>
        <time>2023-11-11T10:44:25Z</time>
      </trkpt>
      <trkpt lat="47.67662" lon="-2.3136">
        <ele>86</ele>
        <time>2023-11-11T10:44:27Z</time>
      </trkpt>
      <trkpt lat="47.67661" lon="-2.31363">
        <ele>86</ele>
        <time>2023-11-11T10:44:30Z</time>
      </trkpt>
      <trkpt lat="47.6766" lon="-2.3136">
        <ele>86</ele>
        <time>2023-11-11T10:44:33Z</time>
      </trkpt>
      <trkpt lat="47.67667" lon="-2.31366">
        <ele>86</ele>
        <time>2023-11-11T10:44:44Z</time>
      </trkpt>
      <trkpt lat="47.67686" lon="-2.31375">
        <ele>86</ele>
        <time>2023-11-11T10:45:10Z</time>
      </trkpt>
      <trkpt lat="47.6769" lon="-2.31372">
        <ele>86</ele>
        <time>2023-11-11T10:45:16Z</time>
      </trkpt>
      <trkpt lat="47.67698" lon="-2.31376">
        <ele>86</ele>
        <time>2023-11-11T10:45:28Z</time>
      </trkpt>
      <trkpt lat="47.67707" lon="-2.31383">
        <ele>86</ele>
        <time>2023-11-11T10:45:41Z</time>
      </trkpt>
      <trkpt lat="47.6771" lon="-2.31393">
        <ele>86</ele>
        <time>2023-11-11T10:45:51Z</time>
      </trkpt>
      <trkpt lat="47.67731" lon="-2.31406">
        <ele>87</ele>
        <time>2023-11-11T10:46:21Z</time>
      </trkpt>
      <trkpt lat="47.67741" lon="-2.31425">
        <ele>87</ele>
        <time>2023-11-11T10:46:43Z</time>
      </trkpt>
      <trkpt lat="47.67746" lon="-2.31429">
        <ele>88</ele>
        <time>2023-11-11T10:46:51Z</time>
      </trkpt>
      <trkpt lat="47.67769" lon="-2.31462">
        <ele>87</ele>
        <time>2023-11-11T10:47:33Z</time>
      </trkpt>
      <trkpt lat="47.6778" lon="-2.31482">
        <ele>87</ele>
        <time>2023-11-11T10:47:57Z</time>
      </trkpt>
      <trkpt lat="47.67784" lon="-2.31496">
        <ele>87</ele>
        <time>2023-11-11T10:48:10Z</time>
      </trkpt>
      <trkpt lat="47.67795" lon="-2.31504">
        <ele>88</ele>
        <time>2023-11-11T10:48:27Z</time>
      </trkpt>
      <trkpt lat="47.67805" lon="-2.31519">
        <ele>88</ele>
        <time>2023-11-11T10:48:45Z</time>
      </trkpt>
      <trkpt lat="47.67808" lon="-2.31528">
        <ele>88</ele>
        <time>2023-11-11T10:48:55Z</time>
      </trkpt>
      <trkpt lat="47.67817" lon="-2.31534">
        <ele>89</ele>
        <time>2023-11-11T10:49:08Z</time>
      </trkpt>
      <trkpt lat="47.67829" lon="-2.31553">
        <ele>89</ele>
        <time>2023-11-11T10:49:31Z</time>
      </trkpt>
      <trkpt lat="47.67876" lon="-2.31583">
        <ele>87</ele>
        <time>2023-11-11T10:50:39Z</time>
      </trkpt>
      <trkpt lat="47.67905" lon="-2.3159">
        <ele>86</ele>
        <time>2023-11-11T10:51:19Z</time>
      </trkpt>
      <trkpt lat="47.67968" lon="-2.31617">
        <ele>85</ele>
        <time>2023-11-11T10:52:46Z</time>
      </trkpt>
      <trkpt lat="47.67986" lon="-2.3163">
        <ele>85</ele>
        <time>2023-11-11T10:53:13Z</time>
      </trkpt>
      <trkpt lat="47.67995" lon="-2.31632">
        <ele>85</ele>
        <time>2023-11-11T10:53:25Z</time>
      </trkpt>
      <trkpt lat="47.68013" lon="-2.31643">
        <ele>85</ele>
        <time>2023-11-11T10:53:51Z</time>
      </trkpt>
      <trkpt lat="47.68024" lon="-2.31644">
        <ele>85</ele>
        <time>2023-11-11T10:54:06Z</time>
      </trkpt>
      <trkpt lat="47.68037" lon="-2.31659">
        <ele>85</ele>
        <time>2023-11-11T10:54:28Z</time>
      </trkpt>
      <trkpt lat="47.6805" lon="-2.31667">
        <ele>85</ele>
        <time>2023-11-11T10:54:46Z</time>
      </trkpt>
      <trkpt lat="47.68053" lon="-2.31674">
        <ele>85</ele>
        <time>2023-11-11T10:54:54Z</time>
      </trkpt>
      <trkpt lat="47.68074" lon="-2.31689">
        <ele>85</ele>
        <time>2023-11-11T10:55:25Z</time>
      </trkpt>
      <trkpt lat="47.68113" lon="-2.31701">
        <ele>85</ele>
        <time>2023-11-11T10:56:18Z</time>
      </trkpt>
      <trkpt lat="47.68136" lon="-2.31704">
        <ele>85</ele>
        <time>2023-11-11T10:56:49Z</time>
      </trkpt>
      <trkpt lat="47.68152" lon="-2.31712">
        <ele>85</ele>
        <time>2023-11-11T10:57:11Z</time>
      </trkpt>
      <trkpt lat="47.68195" lon="-2.31724">
        <ele>85</ele>
        <time>2023-11-11T10:58:10Z</time>
      </trkpt>
      <trkpt lat="47.68201" lon="-2.31728">
        <ele>85</ele>
        <time>2023-11-11T10:58:19Z</time>
      </trkpt>
      <trkpt lat="47.68235" lon="-2.31729">
        <ele>85</ele>
        <time>2023-11-11T10:59:04Z</time>
      </trkpt>
      <trkpt lat="47.68256" lon="-2.31737">
        <ele>85</ele>
        <time>2023-11-11T10:59:33Z</time>
      </trkpt>
      <trkpt lat="47.6828" lon="-2.3176">
        <ele>84</ele>
        <time>2023-11-11T11:00:11Z</time>
      </trkpt>
      <trkpt lat="47.68294" lon="-2.31778">
        <ele>83</ele>
        <time>2023-11-11T11:00:36Z</time>
      </trkpt>
      <trkpt lat="47.68301" lon="-2.31792">
        <ele>83</ele>
        <time>2023-11-11T11:00:51Z</time>
      </trkpt>
      <trkpt lat="47.68317" lon="-2.31809">
        <ele>83</ele>
        <time>2023-11-11T11:01:18Z</time>
      </trkpt>
      <trkpt lat="47.6832" lon="-2.31818">
        <ele>83</ele>
        <time>2023-11-11T11:01:27Z</time>
      </trkpt>
      <trkpt lat="47.68321" lon="-2.31841">
        <ele>83</ele>
        <time>2023-11-11T11:01:47Z</time>
      </trkpt>
      <trkpt lat="47.68312" lon="-2.31937">
        <ele>84</ele>
        <time>2023-11-11T11:03:14Z</time>
      </trkpt>
      <trkpt lat="47.68312" lon="-2.31946">
        <ele>84</ele>
        <time>2023-11-11T11:03:22Z</time>
      </trkpt>
      <trkpt lat="47.68319" lon="-2.31975">
        <ele>84</ele>
        <time>2023-11-11T11:03:50Z</time>
      </trkpt>
      <trkpt lat="47.68313" lon="-2.31982">
        <ele>84</ele>
        <time>2023-11-11T11:04:00Z</time>
      </trkpt>
      <trkpt lat="47.68306" lon="-2.32002">
        <ele>83</ele>
        <time>2023-11-11T11:04:21Z</time>
      </trkpt>
      <trkpt lat="47.683" lon="-2.32034">
        <ele>82</ele>
        <time>2023-11-11T11:04:50Z</time>
      </trkpt>
      <trkpt lat="47.68297" lon="-2.3207">
        <ele>81</ele>
        <time>2023-11-11T11:05:23Z</time>
      </trkpt>
      <trkpt lat="47.68313" lon="-2.32133">
        <ele>81</ele>
        <time>2023-11-11T11:06:24Z</time>
      </trkpt>
      <trkpt lat="47.68327" lon="-2.32167">
        <ele>82</ele>
        <time>2023-11-11T11:06:59Z</time>
      </trkpt>
      <trkpt lat="47.68333" lon="-2.322">
        <ele>82</ele>
        <time>2023-11-11T11:07:30Z</time>
      </trkpt>
      <trkpt lat="47.68348" lon="-2.32246">
        <ele>82</ele>
        <time>2023-11-11T11:08:16Z</time>
      </trkpt>
      <trkpt lat="47.68351" lon="-2.32271">
        <ele>82</ele>
        <time>2023-11-11T11:08:39Z</time>
      </trkpt>
      <trkpt lat="47.68356" lon="-2.32287">
        <ele>82</ele>
        <time>2023-11-11T11:08:55Z</time>
      </trkpt>
      <trkpt lat="47.68358" lon="-2.3231">
        <ele>82</ele>
        <time>2023-11-11T11:09:15Z</time>
      </trkpt>
      <trkpt lat="47.68364" lon="-2.32329">
        <ele>81</ele>
        <time>2023-11-11T11:09:34Z</time>
      </trkpt>
      <trkpt lat="47.68368" lon="-2.32357">
        <ele>81</ele>
        <time>2023-11-11T11:10:00Z</time>
      </trkpt>
      <trkpt lat="47.68376" lon="-2.32389">
        <ele>82</ele>
        <time>2023-11-11T11:10:31Z</time>
      </trkpt>
      <trkpt lat="47.68396" lon="-2.32449">
        <ele>81</ele>
        <time>2023-11-11T11:11:31Z</time>
      </trkpt>
      <trkpt lat="47.68418" lon="-2.32543">
        <ele>81</ele>
        <time>2023-11-11T11:13:00Z</time>
      </trkpt>
      <trkpt lat="47.68423" lon="-2.3255">
        <ele>81</ele>
        <time>2023-11-11T11:13:09Z</time>
      </trkpt>
      <trkpt lat="47.68421" lon="-2.32563">
        <ele>80</ele>
        <time>2023-11-11T11:13:21Z</time>
      </trkpt>
      <trkpt lat="47.68434" lon="-2.32607">
        <ele>81</ele>
        <time>2023-11-11T11:14:05Z</time>
      </trkpt>
      <trkpt lat="47.68437" lon="-2.3263">
        <ele>81</ele>
        <time>2023-11-11T11:14:26Z</time>
      </trkpt>
      <trkpt lat="47.68436" lon="-2.32661">
        <ele>81</ele>
        <time>2023-11-11T11:14:53Z</time>
      </trkpt>
      <trkpt lat="47.68428" lon="-2.32703">
        <ele>81</ele>
        <time>2023-11-11T11:15:33Z</time>
      </trkpt>
      <trkpt lat="47.68394" lon="-2.32807">
        <ele>81</ele>
        <time>2023-11-11T11:17:17Z</time>
      </trkpt>
      <trkpt lat="47.68379" lon="-2.32842">
        <ele>80</ele>
        <time>2023-11-11T11:17:54Z</time>
      </trkpt>
      <trkpt lat="47.68368" lon="-2.32889">
        <ele>80</ele>
        <time>2023-11-11T11:18:39Z</time>
      </trkpt>
      <trkpt lat="47.68358" lon="-2.32911">
        <ele>79</ele>
        <time>2023-11-11T11:19:02Z</time>
      </trkpt>
      <trkpt lat="47.68323" lon="-2.3296">
        <ele>81</ele>
        <time>2023-11-11T11:20:07Z</time>
      </trkpt>
      <trkpt lat="47.68325" lon="-2.32961">
        <ele>81</ele>
        <time>2023-11-11T11:20:09Z</time>
      </trkpt>
      <trkpt lat="47.68312" lon="-2.32965">
        <ele>81</ele>
        <time>2023-11-11T11:20:27Z</time>
      </trkpt>
      <trkpt lat="47.68296" lon="-2.32985">
        <ele>82</ele>
        <time>2023-11-11T11:20:55Z</time>
      </trkpt>
      <trkpt lat="47.68293" lon="-2.32993">
        <ele>82</ele>
        <time>2023-11-11T11:21:03Z</time>
      </trkpt>
      <trkpt lat="47.68294" lon="-2.33003">
        <ele>82</ele>
        <time>2023-11-11T11:21:12Z</time>
      </trkpt>
      <trkpt lat="47.68292" lon="-2.33004">
        <ele>82</ele>
        <time>2023-11-11T11:21:15Z</time>
      </trkpt>
      <trkpt lat="47.68291" lon="-2.33001">
        <ele>82</ele>
        <time>2023-11-11T11:21:18Z</time>
      </trkpt>
      <trkpt lat="47.68293" lon="-2.33006">
        <ele>82</ele>
        <time>2023-11-11T11:21:23Z</time>
      </trkpt>
      <trkpt lat="47.68295" lon="-2.33003">
        <ele>82</ele>
        <time>2023-11-11T11:21:27Z</time>
      </trkpt>
      <trkpt lat="47.68293" lon="-2.33003">
        <ele>82</ele>
        <time>2023-11-11T11:21:30Z</time>
      </trkpt>
      <trkpt lat="47.68293" lon="-2.32997">
        <ele>82</ele>
        <time>2023-11-11T11:21:35Z</time>
      </trkpt>
      <trkpt lat="47.68291" lon="-2.33">
        <ele>82</ele>
        <time>2023-11-11T11:21:39Z</time>
      </trkpt>
      <trkpt lat="47.68292" lon="-2.32995">
        <ele>82</ele>
        <time>2023-11-11T11:21:44Z</time>
      </trkpt>
      <trkpt lat="47.6829" lon="-2.32995">
        <ele>82</ele>
        <time>2023-11-11T11:21:46Z</time>
      </trkpt>
      <trkpt lat="47.68293" lon="-2.32999">
        <ele>82</ele>
        <time>2023-11-11T11:21:52Z</time>
      </trkpt>
      <trkpt lat="47.68293" lon="-2.32988">
        <ele>82</ele>
        <time>2023-11-11T11:22:02Z</time>
      </trkpt>
      <trkpt lat="47.6829" lon="-2.32997">
        <ele>82</ele>
        <time>2023-11-11T11:22:11Z</time>
      </trkpt>
      <trkpt lat="47.68303" lon="-2.33026">
        <ele>82</ele>
        <time>2023-11-11T11:22:42Z</time>
      </trkpt>
      <trkpt lat="47.68348" lon="-2.33094">
        <ele>81</ele>
        <time>2023-11-11T11:24:08Z</time>
      </trkpt>
      <trkpt lat="47.68354" lon="-2.33118">
        <ele>81</ele>
        <time>2023-11-11T11:24:31Z</time>
      </trkpt>
      <trkpt lat="47.68355" lon="-2.33132">
        <ele>81</ele>
        <time>2023-11-11T11:24:43Z</time>
      </trkpt>
      <trkpt lat="47.68349" lon="-2.33176">
        <ele>80</ele>
        <time>2023-11-11T11:25:24Z</time>
      </trkpt>
      <trkpt lat="47.68354" lon="-2.33161">
        <ele>81</ele>
        <time>2023-11-11T11:25:39Z</time>
      </trkpt>
      <trkpt lat="47.68355" lon="-2.33148">
        <ele>81</ele>
        <time>2023-11-11T11:25:50Z</time>
      </trkpt>
      <trkpt lat="47.68346" lon="-2.33103">
        <ele>81</ele>
        <time>2023-11-11T11:26:33Z</time>
      </trkpt>
      <trkpt lat="47.68354" lon="-2.33105">
        <ele>81</ele>
        <time>2023-11-11T11:26:43Z</time>
      </trkpt>
      <trkpt lat="47.68357" lon="-2.33101">
        <ele>81</ele>
        <time>2023-11-11T11:26:49Z</time>
      </trkpt>
      <trkpt lat="47.68383" lon="-2.33088">
        <ele>80</ele>
        <time>2023-11-11T11:27:25Z</time>
      </trkpt>
      <trkpt lat="47.6842" lon="-2.33097">
        <ele>79</ele>
        <time>2023-11-11T11:28:15Z</time>
      </trkpt>
      <trkpt lat="47.68423" lon="-2.33096">
        <ele>79</ele>
        <time>2023-11-11T11:28:20Z</time>
      </trkpt>
      <trkpt lat="47.6843" lon="-2.33101">
        <ele>78</ele>
        <time>2023-11-11T11:28:30Z</time>
      </trkpt>
      <trkpt lat="47.68439" lon="-2.33128">
        <ele>78</ele>
        <time>2023-11-11T11:28:57Z</time>
      </trkpt>
      <trkpt lat="47.68448" lon="-2.33141">
        <ele>77</ele>
        <time>2023-11-11T11:29:14Z</time>
      </trkpt>
      <trkpt lat="47.68468" lon="-2.3318">
        <ele>76</ele>
        <time>2023-11-11T11:29:58Z</time>
      </trkpt>
      <trkpt lat="47.68485" lon="-2.33201">
        <ele>75</ele>
        <time>2023-11-11T11:30:27Z</time>
      </trkpt>
      <trkpt lat="47.68498" lon="-2.33228">
        <ele>74</ele>
        <time>2023-11-11T11:30:57Z</time>
      </trkpt>
      <trkpt lat="47.68488" lon="-2.33295">
        <ele>73</ele>
        <time>2023-11-11T11:31:59Z</time>
      </trkpt>
      <trkpt lat="47.68483" lon="-2.33307">
        <ele>73</ele>
        <time>2023-11-11T11:32:11Z</time>
      </trkpt>
      <trkpt lat="47.68481" lon="-2.3333">
        <ele>72</ele>
        <time>2023-11-11T11:32:32Z</time>
      </trkpt>
      <trkpt lat="47.6849" lon="-2.33432">
        <ele>68</ele>
        <time>2023-11-11T11:34:05Z</time>
      </trkpt>
      <trkpt lat="47.68495" lon="-2.33454">
        <ele>68</ele>
        <time>2023-11-11T11:34:26Z</time>
      </trkpt>
      <trkpt lat="47.68504" lon="-2.33472">
        <ele>67</ele>
        <time>2023-11-11T11:34:46Z</time>
      </trkpt>
      <trkpt lat="47.68523" lon="-2.335">
        <ele>67</ele>
        <time>2023-11-11T11:35:21Z</time>
      </trkpt>
      <trkpt lat="47.68552" lon="-2.33562">
        <ele>69</ele>
        <time>2023-11-11T11:36:29Z</time>
      </trkpt>
      <trkpt lat="47.68552" lon="-2.33568">
        <ele>69</ele>
        <time>2023-11-11T11:36:35Z</time>
      </trkpt>
      <trkpt lat="47.68557" lon="-2.33576">
        <ele>70</ele>
        <time>2023-11-11T11:36:44Z</time>
      </trkpt>
      <trkpt lat="47.6857" lon="-2.33623">
        <ele>69</ele>
        <time>2023-11-11T11:37:30Z</time>
      </trkpt>
      <trkpt lat="47.68575" lon="-2.33625">
        <ele>69</ele>
        <time>2023-11-11T11:37:37Z</time>
      </trkpt>
      <trkpt lat="47.68581" lon="-2.33636">
        <ele>68</ele>
        <time>2023-11-11T11:37:50Z</time>
      </trkpt>
      <trkpt lat="47.68591" lon="-2.33667">
        <ele>68</ele>
        <time>2023-11-11T11:38:21Z</time>
      </trkpt>
      <trkpt lat="47.686" lon="-2.33682">
        <ele>68</ele>
        <time>2023-11-11T11:38:39Z</time>
      </trkpt>
      <trkpt lat="47.68602" lon="-2.33695">
        <ele>68</ele>
        <time>2023-11-11T11:38:51Z</time>
      </trkpt>
      <trkpt lat="47.6861" lon="-2.33716">
        <ele>69</ele>
        <time>2023-11-11T11:39:12Z</time>
      </trkpt>
      <trkpt lat="47.68616" lon="-2.33724">
        <ele>69</ele>
        <time>2023-11-11T11:39:23Z</time>
      </trkpt>
      <trkpt lat="47.68645" lon="-2.3375">
        <ele>70</ele>
        <time>2023-11-11T11:40:08Z</time>
      </trkpt>
      <trkpt lat="47.68646" lon="-2.33769">
        <ele>70</ele>
        <time>2023-11-11T11:40:25Z</time>
      </trkpt>
      <trkpt lat="47.68638" lon="-2.33795">
        <ele>70</ele>
        <time>2023-11-11T11:40:51Z</time>
      </trkpt>
      <trkpt lat="47.68639" lon="-2.338">
        <ele>70</ele>
        <time>2023-11-11T11:40:56Z</time>
      </trkpt>
      <trkpt lat="47.68646" lon="-2.33809">
        <ele>70</ele>
        <time>2023-11-11T11:41:08Z</time>
      </trkpt>
      <trkpt lat="47.68652" lon="-2.3381">
        <ele>70</ele>
        <time>2023-11-11T11:41:16Z</time>
      </trkpt>
      <trkpt lat="47.68676" lon="-2.33838">
        <ele>70</ele>
        <time>2023-11-11T11:41:57Z</time>
      </trkpt>
      <trkpt lat="47.6867" lon="-2.33866">
        <ele>71</ele>
        <time>2023-11-11T11:42:23Z</time>
      </trkpt>
      <trkpt lat="47.68661" lon="-2.33888">
        <ele>71</ele>
        <time>2023-11-11T11:42:46Z</time>
      </trkpt>
      <trkpt lat="47.68661" lon="-2.33898">
        <ele>71</ele>
        <time>2023-11-11T11:42:55Z</time>
      </trkpt>
      <trkpt lat="47.68668" lon="-2.33924">
        <ele>72</ele>
        <time>2023-11-11T11:43:20Z</time>
      </trkpt>
      <trkpt lat="47.68674" lon="-2.33935">
        <ele>72</ele>
        <time>2023-11-11T11:43:33Z</time>
      </trkpt>
      <trkpt lat="47.68666" lon="-2.3397">
        <ele>72</ele>
        <time>2023-11-11T11:44:06Z</time>
      </trkpt>
      <trkpt lat="47.68667" lon="-2.33974">
        <ele>72</ele>
        <time>2023-11-11T11:44:10Z</time>
      </trkpt>
      <trkpt lat="47.68669" lon="-2.33974">
        <ele>72</ele>
        <time>2023-11-11T11:44:13Z</time>
      </trkpt>
      <trkpt lat="47.68666" lon="-2.33977">
        <ele>72</ele>
        <time>2023-11-11T11:44:18Z</time>
      </trkpt>
      <trkpt lat="47.68673" lon="-2.33977">
        <ele>72</ele>
        <time>2023-11-11T11:44:27Z</time>
      </trkpt>
      <trkpt lat="47.68672" lon="-2.33979">
        <ele>72</ele>
        <time>2023-11-11T11:44:29Z</time>
      </trkpt>
      <trkpt lat="47.68672" lon="-2.33976">
        <ele>72</ele>
        <time>2023-11-11T11:44:32Z</time>
      </trkpt>
      <trkpt lat="47.68669" lon="-2.33978">
        <ele>72</ele>
        <time>2023-11-11T11:44:36Z</time>
      </trkpt>
      <trkpt lat="47.68676" lon="-2.33989">
        <ele>73</ele>
        <time>2023-11-11T11:44:50Z</time>
      </trkpt>
      <trkpt lat="47.68677" lon="-2.33999">
        <ele>73</ele>
        <time>2023-11-11T11:44:59Z</time>
      </trkpt>
      <trkpt lat="47.68684" lon="-2.34017">
        <ele>73</ele>
        <time>2023-11-11T11:45:18Z</time>
      </trkpt>
      <trkpt lat="47.68682" lon="-2.34078">
        <ele>74</ele>
        <time>2023-11-11T11:46:13Z</time>
      </trkpt>
      <trkpt lat="47.68677" lon="-2.34095">
        <ele>75</ele>
        <time>2023-11-11T11:46:29Z</time>
      </trkpt>
      <trkpt lat="47.68678" lon="-2.34103">
        <ele>75</ele>
        <time>2023-11-11T11:46:37Z</time>
      </trkpt>
      <trkpt lat="47.68665" lon="-2.34135">
        <ele>76</ele>
        <time>2023-11-11T11:47:10Z</time>
      </trkpt>
      <trkpt lat="47.68645" lon="-2.34161">
        <ele>76</ele>
        <time>2023-11-11T11:47:46Z</time>
      </trkpt>
      <trkpt lat="47.6862" lon="-2.34179">
        <ele>76</ele>
        <time>2023-11-11T11:48:23Z</time>
      </trkpt>
      <trkpt lat="47.686" lon="-2.34187">
        <ele>76</ele>
        <time>2023-11-11T11:48:50Z</time>
      </trkpt>
      <trkpt lat="47.68575" lon="-2.34204">
        <ele>75</ele>
        <time>2023-11-11T11:49:27Z</time>
      </trkpt>
      <trkpt lat="47.68567" lon="-2.34207">
        <ele>75</ele>
        <time>2023-11-11T11:49:38Z</time>
      </trkpt>
      <trkpt lat="47.68566" lon="-2.34215">
        <ele>75</ele>
        <time>2023-11-11T11:49:45Z</time>
      </trkpt>
      <trkpt lat="47.68564" lon="-2.34212">
        <ele>75</ele>
        <time>2023-11-11T11:49:49Z</time>
      </trkpt>
      <trkpt lat="47.68554" lon="-2.34215">
        <ele>75</ele>
        <time>2023-11-11T11:50:03Z</time>
      </trkpt>
      <trkpt lat="47.68545" lon="-2.34226">
        <ele>75</ele>
        <time>2023-11-11T11:50:18Z</time>
      </trkpt>
      <trkpt lat="47.68533" lon="-2.34228">
        <ele>75</ele>
        <time>2023-11-11T11:50:34Z</time>
      </trkpt>
      <trkpt lat="47.685" lon="-2.34245">
        <ele>76</ele>
        <time>2023-11-11T11:51:21Z</time>
      </trkpt>
      <trkpt lat="47.68482" lon="-2.34251">
        <ele>75</ele>
        <time>2023-11-11T11:51:46Z</time>
      </trkpt>
      <trkpt lat="47.68477" lon="-2.3426">
        <ele>75</ele>
        <time>2023-11-11T11:51:56Z</time>
      </trkpt>
      <trkpt lat="47.68465" lon="-2.34271">
        <ele>75</ele>
        <time>2023-11-11T11:52:15Z</time>
      </trkpt>
      <trkpt lat="47.68446" lon="-2.34279">
        <ele>75</ele>
        <time>2023-11-11T11:52:41Z</time>
      </trkpt>
      <trkpt lat="47.6843" lon="-2.34296">
        <ele>74</ele>
        <time>2023-11-11T11:53:08Z</time>
      </trkpt>
      <trkpt lat="47.6842" lon="-2.34301">
        <ele>74</ele>
        <time>2023-11-11T11:53:22Z</time>
      </trkpt>
      <trkpt lat="47.68401" lon="-2.34327">
        <ele>75</ele>
        <time>2023-11-11T11:53:56Z</time>
      </trkpt>
      <trkpt lat="47.68373" lon="-2.34356">
        <ele>75</ele>
        <time>2023-11-11T11:54:42Z</time>
      </trkpt>
      <trkpt lat="47.68362" lon="-2.34361">
        <ele>76</ele>
        <time>2023-11-11T11:54:57Z</time>
      </trkpt>
      <trkpt lat="47.68343" lon="-2.34386">
        <ele>76</ele>
        <time>2023-11-11T11:55:31Z</time>
      </trkpt>
      <trkpt lat="47.6832" lon="-2.34403">
        <ele>76</ele>
        <time>2023-11-11T11:56:05Z</time>
      </trkpt>
      <trkpt lat="47.68314" lon="-2.34414">
        <ele>76</ele>
        <time>2023-11-11T11:56:18Z</time>
      </trkpt>
      <trkpt lat="47.68283" lon="-2.34432">
        <ele>77</ele>
        <time>2023-11-11T11:57:02Z</time>
      </trkpt>
      <trkpt lat="47.68277" lon="-2.34439">
        <ele>77</ele>
        <time>2023-11-11T11:57:13Z</time>
      </trkpt>
      <trkpt lat="47.68274" lon="-2.34448">
        <ele>77</ele>
        <time>2023-11-11T11:57:22Z</time>
      </trkpt>
      <trkpt lat="47.68283" lon="-2.3448">
        <ele>76</ele>
        <time>2023-11-11T11:57:53Z</time>
      </trkpt>
      <trkpt lat="47.68284" lon="-2.34477">
        <ele>76</ele>
        <time>2023-11-11T11:57:56Z</time>
      </trkpt>
      <trkpt lat="47.68283" lon="-2.34479">
        <ele>76</ele>
        <time>2023-11-11T11:57:58Z</time>
      </trkpt>
      <trkpt lat="47.68285" lon="-2.34479">
        <ele>76</ele>
        <time>2023-11-11T11:58:01Z</time>
      </trkpt>
      <trkpt lat="47.68285" lon="-2.34491">
        <ele>76</ele>
        <time>2023-11-11T11:58:11Z</time>
      </trkpt>
      <trkpt lat="47.68293" lon="-2.34532">
        <ele>76</ele>
        <time>2023-11-11T11:58:50Z</time>
      </trkpt>
      <trkpt lat="47.6829" lon="-2.34538">
        <ele>76</ele>
        <time>2023-11-11T11:58:56Z</time>
      </trkpt>
      <trkpt lat="47.68296" lon="-2.34545">
        <ele>76</ele>
        <time>2023-11-11T11:59:07Z</time>
      </trkpt>
      <trkpt lat="47.68298" lon="-2.34569">
        <ele>77</ele>
        <time>2023-11-11T11:59:28Z</time>
      </trkpt>
      <trkpt lat="47.68305" lon="-2.34603">
        <ele>77</ele>
        <time>2023-11-11T12:00:00Z</time>
      </trkpt>
      <trkpt lat="47.68355" lon="-2.34768">
        <ele>77</ele>
        <time>2023-11-11T12:02:43Z</time>
      </trkpt>
      <trkpt lat="47.68357" lon="-2.34802">
        <ele>76</ele>
        <time>2023-11-11T12:03:14Z</time>
      </trkpt>
      <trkpt lat="47.68353" lon="-2.3481">
        <ele>76</ele>
        <time>2023-11-11T12:03:22Z</time>
      </trkpt>
      <trkpt lat="47.68356" lon="-2.34835">
        <ele>75</ele>
        <time>2023-11-11T12:03:45Z</time>
      </trkpt>
      <trkpt lat="47.68354" lon="-2.34867">
        <ele>76</ele>
        <time>2023-11-11T12:04:14Z</time>
      </trkpt>
      <trkpt lat="47.68364" lon="-2.34939">
        <ele>76</ele>
        <time>2023-11-11T12:05:20Z</time>
      </trkpt>
      <trkpt lat="47.6837" lon="-2.34949">
        <ele>75</ele>
        <time>2023-11-11T12:05:32Z</time>
      </trkpt>
      <trkpt lat="47.68379" lon="-2.34956">
        <ele>75</ele>
        <time>2023-11-11T12:05:46Z</time>
      </trkpt>
      <trkpt lat="47.68394" lon="-2.34947">
        <ele>75</ele>
        <time>2023-11-11T12:06:07Z</time>
      </trkpt>
      <trkpt lat="47.68413" lon="-2.34957">
        <ele>74</ele>
        <time>2023-11-11T12:06:34Z</time>
      </trkpt>
      <trkpt lat="47.68454" lon="-2.34959">
        <ele>72</ele>
        <time>2023-11-11T12:07:29Z</time>
      </trkpt>
      <trkpt lat="47.68479" lon="-2.3497">
        <ele>71</ele>
        <time>2023-11-11T12:08:04Z</time>
      </trkpt>
      <trkpt lat="47.68495" lon="-2.34967">
        <ele>70</ele>
        <time>2023-11-11T12:08:25Z</time>
      </trkpt>
      <trkpt lat="47.68534" lon="-2.3495">
        <ele>69</ele>
        <time>2023-11-11T12:09:20Z</time>
      </trkpt>
      <trkpt lat="47.6856" lon="-2.34942">
        <ele>69</ele>
        <time>2023-11-11T12:09:55Z</time>
      </trkpt>
      <trkpt lat="47.68557" lon="-2.34941">
        <ele>69</ele>
        <time>2023-11-11T12:09:59Z</time>
      </trkpt>
      <trkpt lat="47.68566" lon="-2.34936">
        <ele>69</ele>
        <time>2023-11-11T12:10:12Z</time>
      </trkpt>
      <trkpt lat="47.68563" lon="-2.34931">
        <ele>69</ele>
        <time>2023-11-11T12:10:18Z</time>
      </trkpt>
      <trkpt lat="47.6858" lon="-2.3492">
        <ele>68</ele>
        <time>2023-11-11T12:10:43Z</time>
      </trkpt>
      <trkpt lat="47.68585" lon="-2.34911">
        <ele>68</ele>
        <time>2023-11-11T12:10:53Z</time>
      </trkpt>
      <trkpt lat="47.68593" lon="-2.34907">
        <ele>67</ele>
        <time>2023-11-11T12:11:04Z</time>
      </trkpt>
      <trkpt lat="47.68604" lon="-2.34894">
        <ele>67</ele>
        <time>2023-11-11T12:11:23Z</time>
      </trkpt>
      <trkpt lat="47.6861" lon="-2.34892">
        <ele>66</ele>
        <time>2023-11-11T12:11:31Z</time>
      </trkpt>
      <trkpt lat="47.68622" lon="-2.34893">
        <ele>65</ele>
        <time>2023-11-11T12:11:47Z</time>
      </trkpt>
      <trkpt lat="47.68626" lon="-2.34889">
        <ele>65</ele>
        <time>2023-11-11T12:11:54Z</time>
      </trkpt>
      <trkpt lat="47.68627" lon="-2.34881">
        <ele>65</ele>
        <time>2023-11-11T12:12:01Z</time>
      </trkpt>
      <trkpt lat="47.68643" lon="-2.34875">
        <ele>63</ele>
        <time>2023-11-11T12:12:23Z</time>
      </trkpt>
      <trkpt lat="47.68641" lon="-2.34873">
        <ele>64</ele>
        <time>2023-11-11T12:12:26Z</time>
      </trkpt>
      <trkpt lat="47.68643" lon="-2.34872">
        <ele>63</ele>
        <time>2023-11-11T12:12:29Z</time>
      </trkpt>
      <trkpt lat="47.6865" lon="-2.34876">
        <ele>63</ele>
        <time>2023-11-11T12:12:39Z</time>
      </trkpt>
      <trkpt lat="47.68627" lon="-2.34882">
        <ele>65</ele>
        <time>2023-11-11T12:13:10Z</time>
      </trkpt>
      <trkpt lat="47.68619" lon="-2.34881">
        <ele>65</ele>
        <time>2023-11-11T12:13:21Z</time>
      </trkpt>
      <trkpt lat="47.68613" lon="-2.34883">
        <ele>66</ele>
        <time>2023-11-11T12:13:29Z</time>
      </trkpt>
      <trkpt lat="47.68601" lon="-2.34896">
        <ele>67</ele>
        <time>2023-11-11T12:13:49Z</time>
      </trkpt>
      <trkpt lat="47.68603" lon="-2.34891">
        <ele>67</ele>
        <time>2023-11-11T12:13:54Z</time>
      </trkpt>
      <trkpt lat="47.68609" lon="-2.34886">
        <ele>66</ele>
        <time>2023-11-11T12:14:04Z</time>
      </trkpt>
      <trkpt lat="47.68669" lon="-2.34866">
        <ele>61</ele>
        <time>2023-11-11T12:15:26Z</time>
      </trkpt>
      <trkpt lat="47.68687" lon="-2.34852">
        <ele>59</ele>
        <time>2023-11-11T12:15:53Z</time>
      </trkpt>
      <trkpt lat="47.68696" lon="-2.34837">
        <ele>59</ele>
        <time>2023-11-11T12:16:11Z</time>
      </trkpt>
      <trkpt lat="47.68722" lon="-2.34808">
        <ele>58</ele>
        <time>2023-11-11T12:16:54Z</time>
      </trkpt>
      <trkpt lat="47.68739" lon="-2.34801">
        <ele>58</ele>
        <time>2023-11-11T12:17:18Z</time>
      </trkpt>
      <trkpt lat="47.68761" lon="-2.34786">
        <ele>57</ele>
        <time>2023-11-11T12:17:50Z</time>
      </trkpt>
      <trkpt lat="47.68764" lon="-2.34781">
        <ele>57</ele>
        <time>2023-11-11T12:17:56Z</time>
      </trkpt>
      <trkpt lat="47.68763" lon="-2.34759">
        <ele>59</ele>
        <time>2023-11-11T12:18:16Z</time>
      </trkpt>
      <trkpt lat="47.68765" lon="-2.34751">
        <ele>60</ele>
        <time>2023-11-11T12:18:24Z</time>
      </trkpt>
      <trkpt lat="47.68781" lon="-2.34729">
        <ele>60</ele>
        <time>2023-11-11T12:18:53Z</time>
      </trkpt>
      <trkpt lat="47.68794" lon="-2.3472">
        <ele>59</ele>
        <time>2023-11-11T12:19:12Z</time>
      </trkpt>
      <trkpt lat="47.68799" lon="-2.34706">
        <ele>60</ele>
        <time>2023-11-11T12:19:26Z</time>
      </trkpt>
      <trkpt lat="47.68792" lon="-2.34703">
        <ele>61</ele>
        <time>2023-11-11T12:19:36Z</time>
      </trkpt>
      <trkpt lat="47.68785" lon="-2.34708">
        <ele>61</ele>
        <time>2023-11-11T12:19:46Z</time>
      </trkpt>
      <trkpt lat="47.68765" lon="-2.3471">
        <ele>63</ele>
        <time>2023-11-11T12:20:13Z</time>
      </trkpt>
      <trkpt lat="47.68727" lon="-2.3473">
        <ele>65</ele>
        <time>2023-11-11T12:21:07Z</time>
      </trkpt>
      <trkpt lat="47.68713" lon="-2.34729">
        <ele>66</ele>
        <time>2023-11-11T12:21:25Z</time>
      </trkpt>
      <trkpt lat="47.68694" lon="-2.34712">
        <ele>69</ele>
        <time>2023-11-11T12:21:55Z</time>
      </trkpt>
      <trkpt lat="47.68691" lon="-2.34698">
        <ele>71</ele>
        <time>2023-11-11T12:22:08Z</time>
      </trkpt>
      <trkpt lat="47.68686" lon="-2.34695">
        <ele>71</ele>
        <time>2023-11-11T12:22:15Z</time>
      </trkpt>
      <trkpt lat="47.68681" lon="-2.34687">
        <ele>72</ele>
        <time>2023-11-11T12:22:25Z</time>
      </trkpt>
      <trkpt lat="47.68678" lon="-2.34665">
        <ele>74</ele>
        <time>2023-11-11T12:22:45Z</time>
      </trkpt>
      <trkpt lat="47.68679" lon="-2.34654">
        <ele>74</ele>
        <time>2023-11-11T12:22:55Z</time>
      </trkpt>
      <trkpt lat="47.68686" lon="-2.34644">
        <ele>74</ele>
        <time>2023-11-11T12:23:08Z</time>
      </trkpt>
      <trkpt lat="47.68701" lon="-2.34597">
        <ele>76</ele>
        <time>2023-11-11T12:23:55Z</time>
      </trkpt>
      <trkpt lat="47.68719" lon="-2.34577">
        <ele>77</ele>
        <time>2023-11-11T12:24:25Z</time>
      </trkpt>
      <trkpt lat="47.68722" lon="-2.34563">
        <ele>77</ele>
        <time>2023-11-11T12:24:38Z</time>
      </trkpt>
      <trkpt lat="47.68731" lon="-2.34548">
        <ele>78</ele>
        <time>2023-11-11T12:24:56Z</time>
      </trkpt>
      <trkpt lat="47.68738" lon="-2.34542">
        <ele>78</ele>
        <time>2023-11-11T12:25:07Z</time>
      </trkpt>
      <trkpt lat="47.68751" lon="-2.34506">
        <ele>80</ele>
        <time>2023-11-11T12:25:44Z</time>
      </trkpt>
      <trkpt lat="47.68755" lon="-2.34477">
        <ele>79</ele>
        <time>2023-11-11T12:26:10Z</time>
      </trkpt>
      <trkpt lat="47.68768" lon="-2.34446">
        <ele>77</ele>
        <time>2023-11-11T12:26:43Z</time>
      </trkpt>
      <trkpt lat="47.68774" lon="-2.34442">
        <ele>76</ele>
        <time>2023-11-11T12:26:52Z</time>
      </trkpt>
      <trkpt lat="47.68794" lon="-2.34392">
        <ele>73</ele>
        <time>2023-11-11T12:27:44Z</time>
      </trkpt>
      <trkpt lat="47.68797" lon="-2.34391">
        <ele>73</ele>
        <time>2023-11-11T12:27:48Z</time>
      </trkpt>
      <trkpt lat="47.68807" lon="-2.34377">
        <ele>71</ele>
        <time>2023-11-11T12:28:07Z</time>
      </trkpt>
      <trkpt lat="47.68824" lon="-2.34348">
        <ele>69</ele>
        <time>2023-11-11T12:28:41Z</time>
      </trkpt>
      <trkpt lat="47.6884" lon="-2.34328">
        <ele>67</ele>
        <time>2023-11-11T12:29:09Z</time>
      </trkpt>
      <trkpt lat="47.68849" lon="-2.34323">
        <ele>65</ele>
        <time>2023-11-11T12:29:22Z</time>
      </trkpt>
      <trkpt lat="47.68864" lon="-2.34298">
        <ele>63</ele>
        <time>2023-11-11T12:29:52Z</time>
      </trkpt>
      <trkpt lat="47.68868" lon="-2.34286">
        <ele>62</ele>
        <time>2023-11-11T12:30:04Z</time>
      </trkpt>
      <trkpt lat="47.68895" lon="-2.34274">
        <ele>58</ele>
        <time>2023-11-11T12:30:42Z</time>
      </trkpt>
      <trkpt lat="47.6895" lon="-2.34259">
        <ele>54</ele>
        <time>2023-11-11T12:31:56Z</time>
      </trkpt>
      <trkpt lat="47.68956" lon="-2.34254">
        <ele>54</ele>
        <time>2023-11-11T12:32:05Z</time>
      </trkpt>
      <trkpt lat="47.68999" lon="-2.34246">
        <ele>53</ele>
        <time>2023-11-11T12:33:03Z</time>
      </trkpt>
      <trkpt lat="47.69003" lon="-2.34242">
        <ele>53</ele>
        <time>2023-11-11T12:33:10Z</time>
      </trkpt>
      <trkpt lat="47.69015" lon="-2.34239">
        <ele>52</ele>
        <time>2023-11-11T12:33:26Z</time>
      </trkpt>
      <trkpt lat="47.6903" lon="-2.3423">
        <ele>52</ele>
        <time>2023-11-11T12:33:47Z</time>
      </trkpt>
      <trkpt lat="47.69037" lon="-2.34235">
        <ele>52</ele>
        <time>2023-11-11T12:33:58Z</time>
      </trkpt>
      <trkpt lat="47.69043" lon="-2.34233">
        <ele>52</ele>
        <time>2023-11-11T12:34:06Z</time>
      </trkpt>
      <trkpt lat="47.69055" lon="-2.34222">
        <ele>51</ele>
        <time>2023-11-11T12:34:25Z</time>
      </trkpt>
      <trkpt lat="47.69076" lon="-2.34214">
        <ele>50</ele>
        <time>2023-11-11T12:34:54Z</time>
      </trkpt>
      <trkpt lat="47.6908" lon="-2.34218">
        <ele>50</ele>
        <time>2023-11-11T12:35:00Z</time>
      </trkpt>
      <trkpt lat="47.69078" lon="-2.3423">
        <ele>51</ele>
        <time>2023-11-11T12:35:11Z</time>
      </trkpt>
      <trkpt lat="47.69055" lon="-2.34285">
        <ele>52</ele>
        <time>2023-11-11T12:36:09Z</time>
      </trkpt>
      <trkpt lat="47.69058" lon="-2.34295">
        <ele>52</ele>
        <time>2023-11-11T12:36:19Z</time>
      </trkpt>
      <trkpt lat="47.6909" lon="-2.34309">
        <ele>51</ele>
        <time>2023-11-11T12:37:04Z</time>
      </trkpt>
      <trkpt lat="47.69109" lon="-2.34308">
        <ele>54</ele>
        <time>2023-11-11T12:37:29Z</time>
      </trkpt>
      <trkpt lat="47.69116" lon="-2.3431">
        <ele>55</ele>
        <time>2023-11-11T12:37:39Z</time>
      </trkpt>
      <trkpt lat="47.6913" lon="-2.34307">
        <ele>58</ele>
        <time>2023-11-11T12:37:58Z</time>
      </trkpt>
      <trkpt lat="47.69121" lon="-2.34312">
        <ele>56</ele>
        <time>2023-11-11T12:38:10Z</time>
      </trkpt>
      <trkpt lat="47.69126" lon="-2.34307">
        <ele>57</ele>
        <time>2023-11-11T12:38:18Z</time>
      </trkpt>
      <trkpt lat="47.69136" lon="-2.34305">
        <ele>59</ele>
        <time>2023-11-11T12:38:32Z</time>
      </trkpt>
      <trkpt lat="47.69141" lon="-2.34287">
        <ele>60</ele>
        <time>2023-11-11T12:38:49Z</time>
      </trkpt>
      <trkpt lat="47.69139" lon="-2.34293">
        <ele>59</ele>
        <time>2023-11-11T12:38:55Z</time>
      </trkpt>
      <trkpt lat="47.69145" lon="-2.34297">
        <ele>60</ele>
        <time>2023-11-11T12:39:04Z</time>
      </trkpt>
      <trkpt lat="47.69151" lon="-2.34297">
        <ele>61</ele>
        <time>2023-11-11T12:39:12Z</time>
      </trkpt>
      <trkpt lat="47.69156" lon="-2.34288">
        <ele>62</ele>
        <time>2023-11-11T12:39:23Z</time>
      </trkpt>
      <trkpt lat="47.69158" lon="-2.34278">
        <ele>63</ele>
        <time>2023-11-11T12:39:32Z</time>
      </trkpt>
      <trkpt lat="47.69158" lon="-2.34231">
        <ele>63</ele>
        <time>2023-11-11T12:40:14Z</time>
      </trkpt>
      <trkpt lat="47.69168" lon="-2.34195">
        <ele>63</ele>
        <time>2023-11-11T12:40:49Z</time>
      </trkpt>
      <trkpt lat="47.69173" lon="-2.34189">
        <ele>63</ele>
        <time>2023-11-11T12:40:58Z</time>
      </trkpt>
      <trkpt lat="47.6918" lon="-2.3419">
        <ele>64</ele>
        <time>2023-11-11T12:41:07Z</time>
      </trkpt>
      <trkpt lat="47.69191" lon="-2.34199">
        <ele>66</ele>
        <time>2023-11-11T12:41:24Z</time>
      </trkpt>
      <trkpt lat="47.69189" lon="-2.34207">
        <ele>66</ele>
        <time>2023-11-11T12:41:32Z</time>
      </trkpt>
      <trkpt lat="47.69192" lon="-2.34211">
        <ele>66</ele>
        <time>2023-11-11T12:41:37Z</time>
      </trkpt>
      <trkpt lat="47.692" lon="-2.3421">
        <ele>67</ele>
        <time>2023-11-11T12:41:48Z</time>
      </trkpt>
      <trkpt lat="47.69205" lon="-2.34213">
        <ele>68</ele>
        <time>2023-11-11T12:41:55Z</time>
      </trkpt>
      <trkpt lat="47.69213" lon="-2.34227">
        <ele>69</ele>
        <time>2023-11-11T12:42:11Z</time>
      </trkpt>
      <trkpt lat="47.69219" lon="-2.34227">
        <ele>70</ele>
        <time>2023-11-11T12:42:19Z</time>
      </trkpt>
      <trkpt lat="47.69231" lon="-2.34216">
        <ele>71</ele>
        <time>2023-11-11T12:42:38Z</time>
      </trkpt>
      <trkpt lat="47.69234" lon="-2.34218">
        <ele>71</ele>
        <time>2023-11-11T12:42:43Z</time>
      </trkpt>
      <trkpt lat="47.69244" lon="-2.34215">
        <ele>72</ele>
        <time>2023-11-11T12:42:56Z</time>
      </trkpt>
      <trkpt lat="47.69273" lon="-2.34181">
        <ele>70</ele>
        <time>2023-11-11T12:43:46Z</time>
      </trkpt>
      <trkpt lat="47.69271" lon="-2.34169">
        <ele>70</ele>
        <time>2023-11-11T12:43:57Z</time>
      </trkpt>
      <trkpt lat="47.69274" lon="-2.3416">
        <ele>69</ele>
        <time>2023-11-11T12:44:06Z</time>
      </trkpt>
      <trkpt lat="47.69283" lon="-2.34157">
        <ele>69</ele>
        <time>2023-11-11T12:44:18Z</time>
      </trkpt>
      <trkpt lat="47.69289" lon="-2.34148">
        <ele>69</ele>
        <time>2023-11-11T12:44:29Z</time>
      </trkpt>
      <trkpt lat="47.6929" lon="-2.34135">
        <ele>69</ele>
        <time>2023-11-11T12:44:41Z</time>
      </trkpt>
      <trkpt lat="47.69284" lon="-2.3412">
        <ele>69</ele>
        <time>2023-11-11T12:44:57Z</time>
      </trkpt>
      <trkpt lat="47.69266" lon="-2.34107">
        <ele>70</ele>
        <time>2023-11-11T12:45:23Z</time>
      </trkpt>
      <trkpt lat="47.69262" lon="-2.34098">
        <ele>70</ele>
        <time>2023-11-11T12:45:33Z</time>
      </trkpt>
      <trkpt lat="47.69265" lon="-2.34092">
        <ele>70</ele>
        <time>2023-11-11T12:45:40Z</time>
      </trkpt>
      <trkpt lat="47.69265" lon="-2.34096">
        <ele>70</ele>
        <time>2023-11-11T12:45:43Z</time>
      </trkpt>
      <trkpt lat="47.69265" lon="-2.3409">
        <ele>70</ele>
        <time>2023-11-11T12:45:49Z</time>
      </trkpt>
      <trkpt lat="47.69267" lon="-2.34092">
        <ele>70</ele>
        <time>2023-11-11T12:45:52Z</time>
      </trkpt>
      <trkpt lat="47.69264" lon="-2.34092">
        <ele>70</ele>
        <time>2023-11-11T12:45:56Z</time>
      </trkpt>
      <trkpt lat="47.69272" lon="-2.34089">
        <ele>70</ele>
        <time>2023-11-11T12:46:07Z</time>
      </trkpt>
      <trkpt lat="47.69279" lon="-2.34091">
        <ele>70</ele>
        <time>2023-11-11T12:46:17Z</time>
      </trkpt>
      <trkpt lat="47.69292" lon="-2.34086">
        <ele>69</ele>
        <time>2023-11-11T12:46:35Z</time>
      </trkpt>
      <trkpt lat="47.69301" lon="-2.34082">
        <ele>69</ele>
        <time>2023-11-11T12:46:47Z</time>
      </trkpt>
      <trkpt lat="47.69311" lon="-2.34072">
        <ele>68</ele>
        <time>2023-11-11T12:47:03Z</time>
      </trkpt>
      <trkpt lat="47.69318" lon="-2.34071">
        <ele>68</ele>
        <time>2023-11-11T12:47:13Z</time>
      </trkpt>
      <trkpt lat="47.69346" lon="-2.34058">
        <ele>66</ele>
        <time>2023-11-11T12:47:52Z</time>
      </trkpt>
      <trkpt lat="47.69377" lon="-2.3404">
        <ele>64</ele>
        <time>2023-11-11T12:48:36Z</time>
      </trkpt>
      <trkpt lat="47.69402" lon="-2.34031">
        <ele>63</ele>
        <time>2023-11-11T12:49:10Z</time>
      </trkpt>
      <trkpt lat="47.69449" lon="-2.33992">
        <ele>62</ele>
        <time>2023-11-11T12:50:22Z</time>
      </trkpt>
      <trkpt lat="47.69457" lon="-2.3398">
        <ele>61</ele>
        <time>2023-11-11T12:50:37Z</time>
      </trkpt>
      <trkpt lat="47.69465" lon="-2.33976">
        <ele>61</ele>
        <time>2023-11-11T12:50:49Z</time>
      </trkpt>
      <trkpt lat="47.6947" lon="-2.3397">
        <ele>61</ele>
        <time>2023-11-11T12:50:57Z</time>
      </trkpt>
      <trkpt lat="47.6949" lon="-2.3396">
        <ele>60</ele>
        <time>2023-11-11T12:51:25Z</time>
      </trkpt>
      <trkpt lat="47.69528" lon="-2.33948">
        <ele>58</ele>
        <time>2023-11-11T12:52:17Z</time>
      </trkpt>
      <trkpt lat="47.69561" lon="-2.33956">
        <ele>56</ele>
        <time>2023-11-11T12:53:02Z</time>
      </trkpt>
      <trkpt lat="47.69567" lon="-2.33955">
        <ele>55</ele>
        <time>2023-11-11T12:53:10Z</time>
      </trkpt>
      <trkpt lat="47.69578" lon="-2.33944">
        <ele>55</ele>
        <time>2023-11-11T12:53:28Z</time>
      </trkpt>
      <trkpt lat="47.69584" lon="-2.33946">
        <ele>54</ele>
        <time>2023-11-11T12:53:36Z</time>
      </trkpt>
      <trkpt lat="47.69606" lon="-2.33943">
        <ele>53</ele>
        <time>2023-11-11T12:54:05Z</time>
      </trkpt>
      <trkpt lat="47.69612" lon="-2.33938">
        <ele>52</ele>
        <time>2023-11-11T12:54:15Z</time>
      </trkpt>
      <trkpt lat="47.69636" lon="-2.3393">
        <ele>51</ele>
        <time>2023-11-11T12:54:47Z</time>
      </trkpt>
      <trkpt lat="47.69659" lon="-2.33915">
        <ele>49</ele>
        <time>2023-11-11T12:55:21Z</time>
      </trkpt>
      <trkpt lat="47.69662" lon="-2.33906">
        <ele>49</ele>
        <time>2023-11-11T12:55:30Z</time>
      </trkpt>
      <trkpt lat="47.69663" lon="-2.33843">
        <ele>47</ele>
        <time>2023-11-11T12:56:26Z</time>
      </trkpt>
      <trkpt lat="47.69667" lon="-2.33826">
        <ele>46</ele>
        <time>2023-11-11T12:56:43Z</time>
      </trkpt>
      <trkpt lat="47.69668" lon="-2.33804">
        <ele>45</ele>
        <time>2023-11-11T12:57:02Z</time>
      </trkpt>
      <trkpt lat="47.69676" lon="-2.33753">
        <ele>43</ele>
        <time>2023-11-11T12:57:49Z</time>
      </trkpt>
      <trkpt lat="47.6968" lon="-2.33747">
        <ele>43</ele>
        <time>2023-11-11T12:57:57Z</time>
      </trkpt>
      <trkpt lat="47.69688" lon="-2.33712">
        <ele>42</ele>
        <time>2023-11-11T12:58:30Z</time>
      </trkpt>
      <trkpt lat="47.6971" lon="-2.33675">
        <ele>40</ele>
        <time>2023-11-11T12:59:15Z</time>
      </trkpt>
      <trkpt lat="47.69713" lon="-2.33662">
        <ele>40</ele>
        <time>2023-11-11T12:59:27Z</time>
      </trkpt>
      <trkpt lat="47.69731" lon="-2.33646">
        <ele>38</ele>
        <time>2023-11-11T12:59:55Z</time>
      </trkpt>
      <trkpt lat="47.69743" lon="-2.33647">
        <ele>37</ele>
        <time>2023-11-11T13:00:11Z</time>
      </trkpt>
      <trkpt lat="47.69751" lon="-2.33654">
        <ele>35</ele>
        <time>2023-11-11T13:00:23Z</time>
      </trkpt>
      <trkpt lat="47.6976" lon="-2.33656">
        <ele>36</ele>
        <time>2023-11-11T13:00:36Z</time>
      </trkpt>
      <trkpt lat="47.69795" lon="-2.33674">
        <ele>37</ele>
        <time>2023-11-11T13:01:25Z</time>
      </trkpt>
      <trkpt lat="47.69799" lon="-2.33675">
        <ele>37</ele>
        <time>2023-11-11T13:01:30Z</time>
      </trkpt>
      <trkpt lat="47.698" lon="-2.33671">
        <ele>37</ele>
        <time>2023-11-11T13:01:34Z</time>
      </trkpt>
      <trkpt lat="47.69801" lon="-2.33673">
        <ele>37</ele>
        <time>2023-11-11T13:01:36Z</time>
      </trkpt>
      <trkpt lat="47.69799" lon="-2.33672">
        <ele>37</ele>
        <time>2023-11-11T13:01:39Z</time>
      </trkpt>
      <trkpt lat="47.698" lon="-2.33669">
        <ele>37</ele>
        <time>2023-11-11T13:01:42Z</time>
      </trkpt>
      <trkpt lat="47.69804" lon="-2.33672">
        <ele>37</ele>
        <time>2023-11-11T13:01:48Z</time>
      </trkpt>
      <trkpt lat="47.69801" lon="-2.33667">
        <ele>37</ele>
        <time>2023-11-11T13:01:54Z</time>
      </trkpt>
      <trkpt lat="47.69803" lon="-2.33668">
        <ele>37</ele>
        <time>2023-11-11T13:01:57Z</time>
      </trkpt>
      <trkpt lat="47.69803" lon="-2.33673">
        <ele>37</ele>
        <time>2023-11-11T13:02:02Z</time>
      </trkpt>
      <trkpt lat="47.69811" lon="-2.33678">
        <ele>37</ele>
        <time>2023-11-11T13:02:13Z</time>
      </trkpt>
      <trkpt lat="47.69817" lon="-2.33687">
        <ele>38</ele>
        <time>2023-11-11T13:02:25Z</time>
      </trkpt>
      <trkpt lat="47.69821" lon="-2.33687">
        <ele>38</ele>
        <time>2023-11-11T13:02:30Z</time>
      </trkpt>
      <trkpt lat="47.69829" lon="-2.33699">
        <ele>39</ele>
        <time>2023-11-11T13:02:45Z</time>
      </trkpt>
      <trkpt lat="47.69853" lon="-2.33703">
        <ele>43</ele>
        <time>2023-11-11T13:03:17Z</time>
      </trkpt>
      <trkpt lat="47.69855" lon="-2.33701">
        <ele>43</ele>
        <time>2023-11-11T13:03:20Z</time>
      </trkpt>
      <trkpt lat="47.69859" lon="-2.33712">
        <ele>44</ele>
        <time>2023-11-11T13:03:32Z</time>
      </trkpt>
      <trkpt lat="47.69868" lon="-2.33715">
        <ele>46</ele>
        <time>2023-11-11T13:03:44Z</time>
      </trkpt>
      <trkpt lat="47.69874" lon="-2.33714">
        <ele>47</ele>
        <time>2023-11-11T13:03:52Z</time>
      </trkpt>
      <trkpt lat="47.6988" lon="-2.33719">
        <ele>49</ele>
        <time>2023-11-11T13:04:01Z</time>
      </trkpt>
      <trkpt lat="47.69889" lon="-2.33722">
        <ele>50</ele>
        <time>2023-11-11T13:04:14Z</time>
      </trkpt>
      <trkpt lat="47.69892" lon="-2.33727">
        <ele>51</ele>
        <time>2023-11-11T13:04:20Z</time>
      </trkpt>
      <trkpt lat="47.69909" lon="-2.3373">
        <ele>55</ele>
        <time>2023-11-11T13:04:42Z</time>
      </trkpt>
      <trkpt lat="47.69911" lon="-2.33737">
        <ele>55</ele>
        <time>2023-11-11T13:04:49Z</time>
      </trkpt>
      <trkpt lat="47.6992" lon="-2.33744">
        <ele>57</ele>
        <time>2023-11-11T13:05:03Z</time>
      </trkpt>
      <trkpt lat="47.69921" lon="-2.33752">
        <ele>57</ele>
        <time>2023-11-11T13:05:10Z</time>
      </trkpt>
      <trkpt lat="47.69927" lon="-2.33749">
        <ele>57</ele>
        <time>2023-11-11T13:05:19Z</time>
      </trkpt>
      <trkpt lat="47.69931" lon="-2.33736">
        <ele>56</ele>
        <time>2023-11-11T13:05:31Z</time>
      </trkpt>
      <trkpt lat="47.69939" lon="-2.33724">
        <ele>55</ele>
        <time>2023-11-11T13:05:47Z</time>
      </trkpt>
      <trkpt lat="47.69939" lon="-2.33713">
        <ele>55</ele>
        <time>2023-11-11T13:05:56Z</time>
      </trkpt>
      <trkpt lat="47.69945" lon="-2.33696">
        <ele>54</ele>
        <time>2023-11-11T13:06:14Z</time>
      </trkpt>
      <trkpt lat="47.69949" lon="-2.33691">
        <ele>53</ele>
        <time>2023-11-11T13:06:21Z</time>
      </trkpt>
      <trkpt lat="47.69944" lon="-2.33673">
        <ele>52</ele>
        <time>2023-11-11T13:06:38Z</time>
      </trkpt>
      <trkpt lat="47.69941" lon="-2.33635">
        <ele>51</ele>
        <time>2023-11-11T13:07:13Z</time>
      </trkpt>
      <trkpt lat="47.69937" lon="-2.33627">
        <ele>51</ele>
        <time>2023-11-11T13:07:21Z</time>
      </trkpt>
      <trkpt lat="47.69928" lon="-2.33624">
        <ele>51</ele>
        <time>2023-11-11T13:07:34Z</time>
      </trkpt>
      <trkpt lat="47.69923" lon="-2.33602">
        <ele>51</ele>
        <time>2023-11-11T13:07:55Z</time>
      </trkpt>
      <trkpt lat="47.69927" lon="-2.3357">
        <ele>50</ele>
        <time>2023-11-11T13:08:24Z</time>
      </trkpt>
      <trkpt lat="47.69922" lon="-2.33549">
        <ele>50</ele>
        <time>2023-11-11T13:08:44Z</time>
      </trkpt>
      <trkpt lat="47.69923" lon="-2.33531">
        <ele>49</ele>
        <time>2023-11-11T13:09:00Z</time>
      </trkpt>
      <trkpt lat="47.69918" lon="-2.33496">
        <ele>50</ele>
        <time>2023-11-11T13:09:32Z</time>
      </trkpt>
      <trkpt lat="47.69922" lon="-2.33508">
        <ele>49</ele>
        <time>2023-11-11T13:09:44Z</time>
      </trkpt>
      <trkpt lat="47.69923" lon="-2.33491">
        <ele>49</ele>
        <time>2023-11-11T13:10:00Z</time>
      </trkpt>
      <trkpt lat="47.69917" lon="-2.33459">
        <ele>48</ele>
        <time>2023-11-11T13:10:29Z</time>
      </trkpt>
      <trkpt lat="47.69912" lon="-2.33439">
        <ele>48</ele>
        <time>2023-11-11T13:10:49Z</time>
      </trkpt>
      <trkpt lat="47.69903" lon="-2.33421">
        <ele>47</ele>
        <time>2023-11-11T13:11:09Z</time>
      </trkpt>
      <trkpt lat="47.69898" lon="-2.33402">
        <ele>46</ele>
        <time>2023-11-11T13:11:27Z</time>
      </trkpt>
      <trkpt lat="47.69894" lon="-2.33393">
        <ele>46</ele>
        <time>2023-11-11T13:11:37Z</time>
      </trkpt>
      <trkpt lat="47.69885" lon="-2.33383">
        <ele>46</ele>
        <time>2023-11-11T13:11:52Z</time>
      </trkpt>
      <trkpt lat="47.69881" lon="-2.33388">
        <ele>45</ele>
        <time>2023-11-11T13:11:59Z</time>
      </trkpt>
      <trkpt lat="47.69884" lon="-2.33393">
        <ele>46</ele>
        <time>2023-11-11T13:12:05Z</time>
      </trkpt>
      <trkpt lat="47.69882" lon="-2.33399">
        <ele>46</ele>
        <time>2023-11-11T13:12:11Z</time>
      </trkpt>
      <trkpt lat="47.69884" lon="-2.33395">
        <ele>46</ele>
        <time>2023-11-11T13:12:15Z</time>
      </trkpt>
      <trkpt lat="47.69882" lon="-2.33395">
        <ele>46</ele>
        <time>2023-11-11T13:12:18Z</time>
      </trkpt>
      <trkpt lat="47.69885" lon="-2.33401">
        <ele>46</ele>
        <time>2023-11-11T13:12:25Z</time>
      </trkpt>
      <trkpt lat="47.69889" lon="-2.33394">
        <ele>46</ele>
        <time>2023-11-11T13:12:33Z</time>
      </trkpt>
      <trkpt lat="47.69885" lon="-2.33392">
        <ele>46</ele>
        <time>2023-11-11T13:12:38Z</time>
      </trkpt>
      <trkpt lat="47.69886" lon="-2.33388">
        <ele>46</ele>
        <time>2023-11-11T13:12:42Z</time>
      </trkpt>
      <trkpt lat="47.69884" lon="-2.33391">
        <ele>46</ele>
        <time>2023-11-11T13:12:46Z</time>
      </trkpt>
      <trkpt lat="47.69886" lon="-2.33388">
        <ele>46</ele>
        <time>2023-11-11T13:12:50Z</time>
      </trkpt>
      <trkpt lat="47.69888" lon="-2.33389">
        <ele>46</ele>
        <time>2023-11-11T13:12:53Z</time>
      </trkpt>
      <trkpt lat="47.69886" lon="-2.33388">
        <ele>46</ele>
        <time>2023-11-11T13:12:56Z</time>
      </trkpt>
      <trkpt lat="47.69888" lon="-2.33383">
        <ele>46</ele>
        <time>2023-11-11T13:13:01Z</time>
      </trkpt>
      <trkpt lat="47.69887" lon="-2.33373">
        <ele>45</ele>
        <time>2023-11-11T13:13:10Z</time>
      </trkpt>
      <trkpt lat="47.69887" lon="-2.33383">
        <ele>46</ele>
        <time>2023-11-11T13:13:19Z</time>
      </trkpt>
      <trkpt lat="47.69888" lon="-2.3338">
        <ele>46</ele>
        <time>2023-11-11T13:13:22Z</time>
      </trkpt>
      <trkpt lat="47.69886" lon="-2.33384">
        <ele>46</ele>
        <time>2023-11-11T13:13:26Z</time>
      </trkpt>
      <trkpt lat="47.69889" lon="-2.33379">
        <ele>46</ele>
        <time>2023-11-11T13:13:32Z</time>
      </trkpt>
      <trkpt lat="47.69888" lon="-2.33386">
        <ele>46</ele>
        <time>2023-11-11T13:13:39Z</time>
      </trkpt>
      <trkpt lat="47.69883" lon="-2.33391">
        <ele>46</ele>
        <time>2023-11-11T13:13:47Z</time>
      </trkpt>
      <trkpt lat="47.69887" lon="-2.33394">
        <ele>46</ele>
        <time>2023-11-11T13:13:53Z</time>
      </trkpt>
      <trkpt lat="47.69885" lon="-2.33392">
        <ele>46</ele>
        <time>2023-11-11T13:13:56Z</time>
      </trkpt>
      <trkpt lat="47.69888" lon="-2.33382">
        <ele>46</ele>
        <time>2023-11-11T13:14:06Z</time>
      </trkpt>
      <trkpt lat="47.69885" lon="-2.33397">
        <ele>46</ele>
        <time>2023-11-11T13:14:20Z</time>
      </trkpt>
      <trkpt lat="47.69888" lon="-2.3339">
        <ele>46</ele>
        <time>2023-11-11T13:14:27Z</time>
      </trkpt>
      <trkpt lat="47.69887" lon="-2.33383">
        <ele>46</ele>
        <time>2023-11-11T13:14:34Z</time>
      </trkpt>
      <trkpt lat="47.69888" lon="-2.33392">
        <ele>46</ele>
        <time>2023-11-11T13:14:42Z</time>
      </trkpt>
      <trkpt lat="47.6989" lon="-2.33388">
        <ele>46</ele>
        <time>2023-11-11T13:14:46Z</time>
      </trkpt>
      <trkpt lat="47.69887" lon="-2.33379">
        <ele>46</ele>
        <time>2023-11-11T13:14:55Z</time>
      </trkpt>
      <trkpt lat="47.69892" lon="-2.33374">
        <ele>46</ele>
        <time>2023-11-11T13:15:03Z</time>
      </trkpt>
      <trkpt lat="47.69888" lon="-2.3338">
        <ele>46</ele>
        <time>2023-11-11T13:15:11Z</time>
      </trkpt>
      <trkpt lat="47.69891" lon="-2.33383">
        <ele>46</ele>
        <time>2023-11-11T13:15:16Z</time>
      </trkpt>
      <trkpt lat="47.69887" lon="-2.33379">
        <ele>46</ele>
        <time>2023-11-11T13:15:22Z</time>
      </trkpt>
      <trkpt lat="47.69885" lon="-2.33381">
        <ele>45</ele>
        <time>2023-11-11T13:15:26Z</time>
      </trkpt>
      <trkpt lat="47.69892" lon="-2.33383">
        <ele>46</ele>
        <time>2023-11-11T13:15:35Z</time>
      </trkpt>
      <trkpt lat="47.69886" lon="-2.33377">
        <ele>45</ele>
        <time>2023-11-11T13:15:45Z</time>
      </trkpt>
      <trkpt lat="47.69897" lon="-2.33381">
        <ele>46</ele>
        <time>2023-11-11T13:16:00Z</time>
      </trkpt>
      <trkpt lat="47.69892" lon="-2.33384">
        <ele>46</ele>
        <time>2023-11-11T13:16:07Z</time>
      </trkpt>
      <trkpt lat="47.69892" lon="-2.33389">
        <ele>46</ele>
        <time>2023-11-11T13:16:11Z</time>
      </trkpt>
      <trkpt lat="47.699" lon="-2.33394">
        <ele>46</ele>
        <time>2023-11-11T13:16:23Z</time>
      </trkpt>
      <trkpt lat="47.69889" lon="-2.3339">
        <ele>46</ele>
        <time>2023-11-11T13:16:38Z</time>
      </trkpt>
      <trkpt lat="47.69892" lon="-2.33389">
        <ele>46</ele>
        <time>2023-11-11T13:16:42Z</time>
      </trkpt>
      <trkpt lat="47.69887" lon="-2.33388">
        <ele>46</ele>
        <time>2023-11-11T13:16:49Z</time>
      </trkpt>
      <trkpt lat="47.69888" lon="-2.33386">
        <ele>46</ele>
        <time>2023-11-11T13:16:51Z</time>
      </trkpt>
      <trkpt lat="47.69892" lon="-2.33391">
        <ele>46</ele>
        <time>2023-11-11T13:16:58Z</time>
      </trkpt>
      <trkpt lat="47.69886" lon="-2.33393">
        <ele>46</ele>
        <time>2023-11-11T13:17:06Z</time>
      </trkpt>
      <trkpt lat="47.69891" lon="-2.33388">
        <ele>46</ele>
        <time>2023-11-11T13:17:14Z</time>
      </trkpt>
      <trkpt lat="47.69891" lon="-2.33381">
        <ele>46</ele>
        <time>2023-11-11T13:17:21Z</time>
      </trkpt>
      <trkpt lat="47.69886" lon="-2.33394">
        <ele>46</ele>
        <time>2023-11-11T13:17:34Z</time>
      </trkpt>
      <trkpt lat="47.69887" lon="-2.33383">
        <ele>46</ele>
        <time>2023-11-11T13:17:44Z</time>
      </trkpt>
      <trkpt lat="47.69889" lon="-2.33392">
        <ele>46</ele>
        <time>2023-11-11T13:17:53Z</time>
      </trkpt>
      <trkpt lat="47.69888" lon="-2.33389">
        <ele>46</ele>
        <time>2023-11-11T13:17:56Z</time>
      </trkpt>
      <trkpt lat="47.6989" lon="-2.3339">
        <ele>46</ele>
        <time>2023-11-11T13:17:59Z</time>
      </trkpt>
      <trkpt lat="47.69888" lon="-2.33392">
        <ele>46</ele>
        <time>2023-11-11T13:18:02Z</time>
      </trkpt>
      <trkpt lat="47.69891" lon="-2.33393">
        <ele>46</ele>
        <time>2023-11-11T13:18:06Z</time>
      </trkpt>
      <trkpt lat="47.69891" lon="-2.3339">
        <ele>46</ele>
        <time>2023-11-11T13:18:09Z</time>
      </trkpt>
      <trkpt lat="47.69894" lon="-2.33407">
        <ele>46</ele>
        <time>2023-11-11T13:18:24Z</time>
      </trkpt>
      <trkpt lat="47.69909" lon="-2.3345">
        <ele>48</ele>
        <time>2023-11-11T13:19:08Z</time>
      </trkpt>
      <trkpt lat="47.69912" lon="-2.3349">
        <ele>49</ele>
        <time>2023-11-11T13:19:44Z</time>
      </trkpt>
      <trkpt lat="47.69911" lon="-2.33515">
        <ele>50</ele>
        <time>2023-11-11T13:20:06Z</time>
      </trkpt>
      <trkpt lat="47.69923" lon="-2.33574">
        <ele>50</ele>
        <time>2023-11-11T13:21:02Z</time>
      </trkpt>
      <trkpt lat="47.69922" lon="-2.33618">
        <ele>51</ele>
        <time>2023-11-11T13:21:41Z</time>
      </trkpt>
      <trkpt lat="47.69942" lon="-2.33637">
        <ele>51</ele>
        <time>2023-11-11T13:22:13Z</time>
      </trkpt>
      <trkpt lat="47.69949" lon="-2.33682">
        <ele>52</ele>
        <time>2023-11-11T13:22:55Z</time>
      </trkpt>
      <trkpt lat="47.69947" lon="-2.337">
        <ele>54</ele>
        <time>2023-11-11T13:23:11Z</time>
      </trkpt>
      <trkpt lat="47.69948" lon="-2.33729">
        <ele>56</ele>
        <time>2023-11-11T13:23:37Z</time>
      </trkpt>
      <trkpt lat="47.69947" lon="-2.33735">
        <ele>56</ele>
        <time>2023-11-11T13:23:43Z</time>
      </trkpt>
      <trkpt lat="47.69937" lon="-2.33751">
        <ele>57</ele>
        <time>2023-11-11T13:24:02Z</time>
      </trkpt>
      <trkpt lat="47.6992" lon="-2.33771">
        <ele>58</ele>
        <time>2023-11-11T13:24:31Z</time>
      </trkpt>
      <trkpt lat="47.69916" lon="-2.33784">
        <ele>58</ele>
        <time>2023-11-11T13:24:44Z</time>
      </trkpt>
      <trkpt lat="47.69908" lon="-2.33831">
        <ele>57</ele>
        <time>2023-11-11T13:25:27Z</time>
      </trkpt>
      <trkpt lat="47.69907" lon="-2.33863">
        <ele>58</ele>
        <time>2023-11-11T13:25:56Z</time>
      </trkpt>
      <trkpt lat="47.69903" lon="-2.3387">
        <ele>58</ele>
        <time>2023-11-11T13:26:04Z</time>
      </trkpt>
      <trkpt lat="47.69903" lon="-2.33888">
        <ele>59</ele>
        <time>2023-11-11T13:26:21Z</time>
      </trkpt>
      <trkpt lat="47.699" lon="-2.33891">
        <ele>58</ele>
        <time>2023-11-11T13:26:25Z</time>
      </trkpt>
      <trkpt lat="47.69892" lon="-2.33914">
        <ele>58</ele>
        <time>2023-11-11T13:26:49Z</time>
      </trkpt>
      <trkpt lat="47.69891" lon="-2.33934">
        <ele>59</ele>
        <time>2023-11-11T13:27:07Z</time>
      </trkpt>
      <trkpt lat="47.69889" lon="-2.33935">
        <ele>58</ele>
        <time>2023-11-11T13:27:10Z</time>
      </trkpt>
      <trkpt lat="47.69888" lon="-2.33948">
        <ele>59</ele>
        <time>2023-11-11T13:27:21Z</time>
      </trkpt>
      <trkpt lat="47.69886" lon="-2.33949">
        <ele>59</ele>
        <time>2023-11-11T13:27:24Z</time>
      </trkpt>
      <trkpt lat="47.69891" lon="-2.33915">
        <ele>58</ele>
        <time>2023-11-11T13:27:55Z</time>
      </trkpt>
      <trkpt lat="47.69895" lon="-2.33913">
        <ele>58</ele>
        <time>2023-11-11T13:28:01Z</time>
      </trkpt>
      <trkpt lat="47.69896" lon="-2.33908">
        <ele>58</ele>
        <time>2023-11-11T13:28:06Z</time>
      </trkpt>
      <trkpt lat="47.69895" lon="-2.33898">
        <ele>58</ele>
        <time>2023-11-11T13:28:15Z</time>
      </trkpt>
      <trkpt lat="47.69888" lon="-2.33896">
        <ele>56</ele>
        <time>2023-11-11T13:28:24Z</time>
      </trkpt>
      <trkpt lat="47.69888" lon="-2.33899">
        <ele>56</ele>
        <time>2023-11-11T13:28:27Z</time>
      </trkpt>
      <trkpt lat="47.69888" lon="-2.33897">
        <ele>56</ele>
        <time>2023-11-11T13:28:29Z</time>
      </trkpt>
      <trkpt lat="47.69881" lon="-2.33893">
        <ele>55</ele>
        <time>2023-11-11T13:28:39Z</time>
      </trkpt>
      <trkpt lat="47.69871" lon="-2.3389">
        <ele>53</ele>
        <time>2023-11-11T13:28:52Z</time>
      </trkpt>
      <trkpt lat="47.69868" lon="-2.33882">
        <ele>52</ele>
        <time>2023-11-11T13:29:01Z</time>
      </trkpt>
      <trkpt lat="47.6987" lon="-2.33887">
        <ele>53</ele>
        <time>2023-11-11T13:29:06Z</time>
      </trkpt>
      <trkpt lat="47.69879" lon="-2.33888">
        <ele>54</ele>
        <time>2023-11-11T13:29:18Z</time>
      </trkpt>
      <trkpt lat="47.69888" lon="-2.33897">
        <ele>56</ele>
        <time>2023-11-11T13:29:32Z</time>
      </trkpt>
      <trkpt lat="47.69891" lon="-2.33897">
        <ele>57</ele>
        <time>2023-11-11T13:29:36Z</time>
      </trkpt>
      <trkpt lat="47.69866" lon="-2.3389">
        <ele>52</ele>
        <time>2023-11-11T13:30:10Z</time>
      </trkpt>
      <trkpt lat="47.69867" lon="-2.33888">
        <ele>52</ele>
        <time>2023-11-11T13:30:13Z</time>
      </trkpt>
      <trkpt lat="47.69869" lon="-2.33895">
        <ele>53</ele>
        <time>2023-11-11T13:30:19Z</time>
      </trkpt>
      <trkpt lat="47.69874" lon="-2.3389">
        <ele>54</ele>
        <time>2023-11-11T13:30:27Z</time>
      </trkpt>
      <trkpt lat="47.69873" lon="-2.33897">
        <ele>54</ele>
        <time>2023-11-11T13:30:34Z</time>
      </trkpt>
      <trkpt lat="47.69866" lon="-2.33917">
        <ele>54</ele>
        <time>2023-11-11T13:30:54Z</time>
      </trkpt>
      <trkpt lat="47.69862" lon="-2.33941">
        <ele>54</ele>
        <time>2023-11-11T13:31:16Z</time>
      </trkpt>
      <trkpt lat="47.69845" lon="-2.33981">
        <ele>52</ele>
        <time>2023-11-11T13:31:59Z</time>
      </trkpt>
      <trkpt lat="47.69848" lon="-2.34002">
        <ele>54</ele>
        <time>2023-11-11T13:32:18Z</time>
      </trkpt>
      <trkpt lat="47.69852" lon="-2.34011">
        <ele>55</ele>
        <time>2023-11-11T13:32:28Z</time>
      </trkpt>
      <trkpt lat="47.69847" lon="-2.34045">
        <ele>54</ele>
        <time>2023-11-11T13:32:59Z</time>
      </trkpt>
      <trkpt lat="47.69843" lon="-2.34057">
        <ele>54</ele>
        <time>2023-11-11T13:33:11Z</time>
      </trkpt>
      <trkpt lat="47.6984" lon="-2.34105">
        <ele>54</ele>
        <time>2023-11-11T13:33:54Z</time>
      </trkpt>
      <trkpt lat="47.69825" lon="-2.34152">
        <ele>53</ele>
        <time>2023-11-11T13:34:41Z</time>
      </trkpt>
      <trkpt lat="47.69825" lon="-2.34161">
        <ele>53</ele>
        <time>2023-11-11T13:34:49Z</time>
      </trkpt>
      <trkpt lat="47.6983" lon="-2.34162">
        <ele>54</ele>
        <time>2023-11-11T13:34:56Z</time>
      </trkpt>
      <trkpt lat="47.69826" lon="-2.34181">
        <ele>54</ele>
        <time>2023-11-11T13:35:14Z</time>
      </trkpt>
      <trkpt lat="47.69808" lon="-2.34223">
        <ele>50</ele>
        <time>2023-11-11T13:35:58Z</time>
      </trkpt>
      <trkpt lat="47.69808" lon="-2.34245">
        <ele>50</ele>
        <time>2023-11-11T13:36:18Z</time>
      </trkpt>
      <trkpt lat="47.69805" lon="-2.34261">
        <ele>50</ele>
        <time>2023-11-11T13:36:33Z</time>
      </trkpt>
      <trkpt lat="47.69794" lon="-2.3428">
        <ele>48</ele>
        <time>2023-11-11T13:36:56Z</time>
      </trkpt>
      <trkpt lat="47.69775" lon="-2.34344">
        <ele>45</ele>
        <time>2023-11-11T13:37:58Z</time>
      </trkpt>
      <trkpt lat="47.69779" lon="-2.34352">
        <ele>46</ele>
        <time>2023-11-11T13:38:07Z</time>
      </trkpt>
      <trkpt lat="47.69753" lon="-2.34453">
        <ele>43</ele>
        <time>2023-11-11T13:39:45Z</time>
      </trkpt>
      <trkpt lat="47.69746" lon="-2.34507">
        <ele>43</ele>
        <time>2023-11-11T13:40:34Z</time>
      </trkpt>
      <trkpt lat="47.69741" lon="-2.34528">
        <ele>43</ele>
        <time>2023-11-11T13:40:54Z</time>
      </trkpt>
      <trkpt lat="47.69737" lon="-2.34573">
        <ele>44</ele>
        <time>2023-11-11T13:41:35Z</time>
      </trkpt>
      <trkpt lat="47.69721" lon="-2.34603">
        <ele>45</ele>
        <time>2023-11-11T13:42:09Z</time>
      </trkpt>
      <trkpt lat="47.69707" lon="-2.34617">
        <ele>46</ele>
        <time>2023-11-11T13:42:32Z</time>
      </trkpt>
      <trkpt lat="47.69671" lon="-2.34632">
        <ele>47</ele>
        <time>2023-11-11T13:43:22Z</time>
      </trkpt>
      <trkpt lat="47.69649" lon="-2.34645">
        <ele>49</ele>
        <time>2023-11-11T13:43:53Z</time>
      </trkpt>
      <trkpt lat="47.69641" lon="-2.34645">
        <ele>50</ele>
        <time>2023-11-11T13:44:04Z</time>
      </trkpt>
      <trkpt lat="47.69604" lon="-2.3466">
        <ele>52</ele>
        <time>2023-11-11T13:44:55Z</time>
      </trkpt>
      <trkpt lat="47.69583" lon="-2.34674">
        <ele>54</ele>
        <time>2023-11-11T13:45:26Z</time>
      </trkpt>
      <trkpt lat="47.69573" lon="-2.34698">
        <ele>55</ele>
        <time>2023-11-11T13:45:51Z</time>
      </trkpt>
      <trkpt lat="47.69566" lon="-2.34696">
        <ele>55</ele>
        <time>2023-11-11T13:46:01Z</time>
      </trkpt>
      <trkpt lat="47.69542" lon="-2.34671">
        <ele>52</ele>
        <time>2023-11-11T13:46:40Z</time>
      </trkpt>
      <trkpt lat="47.6951" lon="-2.34652">
        <ele>48</ele>
        <time>2023-11-11T13:47:26Z</time>
      </trkpt>
      <trkpt lat="47.69492" lon="-2.34648">
        <ele>46</ele>
        <time>2023-11-11T13:47:50Z</time>
      </trkpt>
      <trkpt lat="47.69479" lon="-2.34648">
        <ele>45</ele>
        <time>2023-11-11T13:48:07Z</time>
      </trkpt>
      <trkpt lat="47.69458" lon="-2.34656">
        <ele>44</ele>
        <time>2023-11-11T13:48:36Z</time>
      </trkpt>
      <trkpt lat="47.69448" lon="-2.34672">
        <ele>43</ele>
        <time>2023-11-11T13:48:56Z</time>
      </trkpt>
      <trkpt lat="47.69444" lon="-2.34696">
        <ele>44</ele>
        <time>2023-11-11T13:49:18Z</time>
      </trkpt>
      <trkpt lat="47.69434" lon="-2.34713">
        <ele>43</ele>
        <time>2023-11-11T13:49:38Z</time>
      </trkpt>
      <trkpt lat="47.69418" lon="-2.34758">
        <ele>44</ele>
        <time>2023-11-11T13:50:24Z</time>
      </trkpt>
      <trkpt lat="47.69413" lon="-2.34762">
        <ele>44</ele>
        <time>2023-11-11T13:50:32Z</time>
      </trkpt>
      <trkpt lat="47.69413" lon="-2.34754">
        <ele>44</ele>
        <time>2023-11-11T13:50:39Z</time>
      </trkpt>
      <trkpt lat="47.69407" lon="-2.34749">
        <ele>44</ele>
        <time>2023-11-11T13:50:48Z</time>
      </trkpt>
      <trkpt lat="47.69401" lon="-2.34748">
        <ele>45</ele>
        <time>2023-11-11T13:50:56Z</time>
      </trkpt>
      <trkpt lat="47.69397" lon="-2.34759">
        <ele>46</ele>
        <time>2023-11-11T13:51:07Z</time>
      </trkpt>
    </trkseg>
  </trk>
</gpx>